<?xml version="1.0" encoding="UTF-8" standalone="no" ?>
<gpx xmlns="http://www.topografix.com/GPX/1/1" xmlns:xsi="http://www.w3.org/2001/XMLSchema-instance" xsi:schemaLocation="http://www.topografix.com/GPX/1/1 http://www.topografix.com/GPX/1/1/gpx.xsd" version="1.1" creator="VisuGPX - https://www.visugpx.com">
  <metadata>
    <name>Transvolv_2022_A-R_Crt et Lg</name>
  </metadata>
  <trk>
    <name><![CDATA[TV 2022 Aller Long]]></name>
    <extensions>
      <line xmlns="http://www.topografix.com/GPX/gpx_style/0/2">
        <color>a600ff</color>
        <width>4</width>
          <extensions>
            <sens>1</sens>
          </extensions>
      </line>
    </extensions>
    <trkseg>
      <trkpt lat="45.82217" lon="3.07815">
        <ele>380</ele>
        <time>2016-12-06T12:16:38Z</time>
      </trkpt>
      <trkpt lat="45.82323" lon="3.08079">
        <ele>376.8</ele>
        <time>2016-12-06T12:17:02Z</time>
      </trkpt>
      <trkpt lat="45.82366" lon="3.08176">
        <ele>373.6</ele>
        <time>2016-12-06T12:17:11Z</time>
      </trkpt>
      <trkpt lat="45.82392" lon="3.0827">
        <ele>373</ele>
        <time>2016-12-06T12:17:18Z</time>
      </trkpt>
      <trkpt lat="45.82416" lon="3.08319">
        <ele>372.6</ele>
        <time>2016-12-06T12:17:23Z</time>
      </trkpt>
      <trkpt lat="45.82529" lon="3.085">
        <ele>374.3</ele>
        <time>2016-12-06T12:17:42Z</time>
      </trkpt>
      <trkpt lat="45.82559" lon="3.08519">
        <ele>373.6</ele>
        <time>2016-12-06T12:17:46Z</time>
      </trkpt>
      <trkpt lat="45.82637" lon="3.08527">
        <ele>369.7</ele>
        <time>2016-12-06T12:17:54Z</time>
      </trkpt>
      <trkpt lat="45.82686" lon="3.08512">
        <ele>366.9</ele>
        <time>2016-12-06T12:18:00Z</time>
      </trkpt>
      <trkpt lat="45.82702" lon="3.08457">
        <ele>366.2</ele>
        <time>2016-12-06T12:18:04Z</time>
      </trkpt>
      <trkpt lat="45.82717" lon="3.08449">
        <ele>366.1</ele>
        <time>2016-12-06T12:18:06Z</time>
      </trkpt>
      <trkpt lat="45.82772" lon="3.08455">
        <ele>365.8</ele>
        <time>2016-12-06T12:18:12Z</time>
      </trkpt>
      <trkpt lat="45.82799" lon="3.08447">
        <ele>366.7</ele>
        <time>2016-12-06T12:18:15Z</time>
      </trkpt>
      <trkpt lat="45.82841" lon="3.08426">
        <ele>370.6</ele>
        <time>2016-12-06T12:18:20Z</time>
      </trkpt>
      <trkpt lat="45.82908" lon="3.08393">
        <ele>373.1</ele>
        <time>2016-12-06T12:18:28Z</time>
      </trkpt>
      <trkpt lat="45.82988" lon="3.08317">
        <ele>376.8</ele>
        <time>2016-12-06T12:18:39Z</time>
      </trkpt>
      <trkpt lat="45.83001" lon="3.08322">
        <ele>376.6</ele>
        <time>2016-12-06T12:18:40Z</time>
      </trkpt>
      <trkpt lat="45.83023" lon="3.08313">
        <ele>377</ele>
        <time>2016-12-06T12:18:43Z</time>
      </trkpt>
      <trkpt lat="45.83036" lon="3.08297">
        <ele>377</ele>
        <time>2016-12-06T12:18:45Z</time>
      </trkpt>
      <trkpt lat="45.83012" lon="3.08139">
        <ele>381</ele>
        <time>2016-12-06T12:18:57Z</time>
      </trkpt>
      <trkpt lat="45.82981" lon="3.07978">
        <ele>385.7</ele>
        <time>2016-12-06T12:19:10Z</time>
      </trkpt>
      <trkpt lat="45.82934" lon="3.07826">
        <ele>389.8</ele>
        <time>2016-12-06T12:19:23Z</time>
      </trkpt>
      <trkpt lat="45.82928" lon="3.07781">
        <ele>392.1</ele>
        <time>2016-12-06T12:19:27Z</time>
      </trkpt>
      <trkpt lat="45.82917" lon="3.07728">
        <ele>393.6</ele>
        <time>2016-12-06T12:19:31Z</time>
      </trkpt>
      <trkpt lat="45.82875" lon="3.07737">
        <ele>391.7</ele>
        <time>2016-12-06T12:19:36Z</time>
      </trkpt>
      <trkpt lat="45.82866" lon="3.07734">
        <ele>390.9</ele>
        <time>2016-12-06T12:19:37Z</time>
      </trkpt>
      <trkpt lat="45.8286" lon="3.07711">
        <ele>391.4</ele>
        <time>2016-12-06T12:19:39Z</time>
      </trkpt>
      <trkpt lat="45.8285" lon="3.0769">
        <ele>392</ele>
        <time>2016-12-06T12:19:41Z</time>
      </trkpt>
      <trkpt lat="45.82829" lon="3.07669">
        <ele>392</ele>
        <time>2016-12-06T12:19:44Z</time>
      </trkpt>
      <trkpt lat="45.82807" lon="3.07643">
        <ele>391.4</ele>
        <time>2016-12-06T12:19:47Z</time>
      </trkpt>
      <trkpt lat="45.82786" lon="3.07617">
        <ele>391.4</ele>
        <time>2016-12-06T12:19:50Z</time>
      </trkpt>
      <trkpt lat="45.82757" lon="3.07557">
        <ele>392.2</ele>
        <time>2016-12-06T12:19:55Z</time>
      </trkpt>
      <trkpt lat="45.82743" lon="3.07525">
        <ele>394.4</ele>
        <time>2016-12-06T12:19:58Z</time>
      </trkpt>
      <trkpt lat="45.82711" lon="3.07476">
        <ele>394.5</ele>
        <time>2016-12-06T12:20:04Z</time>
      </trkpt>
      <trkpt lat="45.82706" lon="3.07411">
        <ele>396.2</ele>
        <time>2016-12-06T12:20:09Z</time>
      </trkpt>
      <trkpt lat="45.82704" lon="3.07302">
        <ele>396.9</ele>
        <time>2016-12-06T12:20:17Z</time>
      </trkpt>
      <trkpt lat="45.82709" lon="3.07248">
        <ele>398.4</ele>
        <time>2016-12-06T12:20:21Z</time>
      </trkpt>
      <trkpt lat="45.8272" lon="3.07242">
        <ele>398.7</ele>
        <time>2016-12-06T12:20:23Z</time>
      </trkpt>
      <trkpt lat="45.82727" lon="3.07226">
        <ele>399.1</ele>
        <time>2016-12-06T12:20:24Z</time>
      </trkpt>
      <trkpt lat="45.82735" lon="3.07187">
        <ele>400.5</ele>
        <time>2016-12-06T12:20:27Z</time>
      </trkpt>
      <trkpt lat="45.82735" lon="3.07158">
        <ele>401.6</ele>
        <time>2016-12-06T12:20:30Z</time>
      </trkpt>
      <trkpt lat="45.82722" lon="3.07072">
        <ele>407</ele>
        <time>2016-12-06T12:20:36Z</time>
      </trkpt>
      <trkpt lat="45.82716" lon="3.07045">
        <ele>408.4</ele>
        <time>2016-12-06T12:20:39Z</time>
      </trkpt>
      <trkpt lat="45.82701" lon="3.07017">
        <ele>409.7</ele>
        <time>2016-12-06T12:20:41Z</time>
      </trkpt>
      <trkpt lat="45.82692" lon="3.06991">
        <ele>410.8</ele>
        <time>2016-12-06T12:20:44Z</time>
      </trkpt>
      <trkpt lat="45.82689" lon="3.06959">
        <ele>412.3</ele>
        <time>2016-12-06T12:20:46Z</time>
      </trkpt>
      <trkpt lat="45.82698" lon="3.0695">
        <ele>413.4</ele>
        <time>2016-12-06T12:20:47Z</time>
      </trkpt>
      <trkpt lat="45.82736" lon="3.06882">
        <ele>418.5</ele>
        <time>2016-12-06T12:20:54Z</time>
      </trkpt>
      <trkpt lat="45.82766" lon="3.06843">
        <ele>421</ele>
        <time>2016-12-06T12:20:59Z</time>
      </trkpt>
      <trkpt lat="45.82841" lon="3.06681">
        <ele>426.8</ele>
        <time>2016-12-06T12:21:14Z</time>
      </trkpt>
      <trkpt lat="45.82878" lon="3.06583">
        <ele>432.6</ele>
        <time>2016-12-06T12:21:22Z</time>
      </trkpt>
      <trkpt lat="45.82892" lon="3.06566">
        <ele>434.8</ele>
        <time>2016-12-06T12:21:24Z</time>
      </trkpt>
      <trkpt lat="45.82946" lon="3.06542">
        <ele>441.1</ele>
        <time>2016-12-06T12:21:31Z</time>
      </trkpt>
      <trkpt lat="45.82977" lon="3.06542">
        <ele>441.7</ele>
        <time>2016-12-06T12:21:34Z</time>
      </trkpt>
      <trkpt lat="45.83013" lon="3.06567">
        <ele>441.7</ele>
        <time>2016-12-06T12:21:39Z</time>
      </trkpt>
      <trkpt lat="45.8304" lon="3.06568">
        <ele>443.5</ele>
        <time>2016-12-06T12:21:42Z</time>
      </trkpt>
      <trkpt lat="45.8307" lon="3.0656">
        <ele>446.3</ele>
        <time>2016-12-06T12:21:45Z</time>
      </trkpt>
      <trkpt lat="45.83087" lon="3.06552">
        <ele>448.1</ele>
        <time>2016-12-06T12:21:47Z</time>
      </trkpt>
      <trkpt lat="45.83115" lon="3.06555">
        <ele>450.2</ele>
        <time>2016-12-06T12:21:50Z</time>
      </trkpt>
      <trkpt lat="45.83139" lon="3.06537">
        <ele>452.1</ele>
        <time>2016-12-06T12:21:53Z</time>
      </trkpt>
      <trkpt lat="45.83156" lon="3.06537">
        <ele>453.4</ele>
        <time>2016-12-06T12:21:55Z</time>
      </trkpt>
      <trkpt lat="45.83177" lon="3.06549">
        <ele>455.8</ele>
        <time>2016-12-06T12:21:58Z</time>
      </trkpt>
      <trkpt lat="45.83198" lon="3.06566">
        <ele>458</ele>
        <time>2016-12-06T12:22:00Z</time>
      </trkpt>
      <trkpt lat="45.83216" lon="3.06565">
        <ele>459.3</ele>
        <time>2016-12-06T12:22:02Z</time>
      </trkpt>
      <trkpt lat="45.83259" lon="3.0654">
        <ele>461</ele>
        <time>2016-12-06T12:22:07Z</time>
      </trkpt>
      <trkpt lat="45.83277" lon="3.06536">
        <ele>462</ele>
        <time>2016-12-06T12:22:09Z</time>
      </trkpt>
      <trkpt lat="45.83358" lon="3.06543">
        <ele>468.5</ele>
        <time>2016-12-06T12:22:19Z</time>
      </trkpt>
      <trkpt lat="45.83434" lon="3.06501">
        <ele>476.7</ele>
        <time>2016-12-06T12:22:28Z</time>
      </trkpt>
      <trkpt lat="45.83493" lon="3.0644">
        <ele>482.7</ele>
        <time>2016-12-06T12:22:36Z</time>
      </trkpt>
      <trkpt lat="45.83505" lon="3.06427">
        <ele>483.6</ele>
        <time>2016-12-06T12:22:37Z</time>
      </trkpt>
      <trkpt lat="45.83553" lon="3.06501">
        <ele>485.1</ele>
        <time>2016-12-06T12:22:45Z</time>
      </trkpt>
      <trkpt lat="45.83623" lon="3.06545">
        <ele>490.3</ele>
        <time>2016-12-06T12:22:54Z</time>
      </trkpt>
      <trkpt lat="45.83562" lon="3.06623">
        <ele>492.6</ele>
        <time>2016-12-06T12:23:03Z</time>
      </trkpt>
      <trkpt lat="45.83441" lon="3.06763">
        <ele>498.4</ele>
        <time>2016-12-06T12:23:20Z</time>
      </trkpt>
      <trkpt lat="45.83409" lon="3.06818">
        <ele>499.8</ele>
        <time>2016-12-06T12:23:26Z</time>
      </trkpt>
      <trkpt lat="45.83319" lon="3.06896">
        <ele>500.5</ele>
        <time>2016-12-06T12:23:37Z</time>
      </trkpt>
      <trkpt lat="45.83269" lon="3.07088">
        <ele>492.9</ele>
        <time>2016-12-06T12:23:53Z</time>
      </trkpt>
      <trkpt lat="45.83303" lon="3.07335">
        <ele>497.2</ele>
        <time>2016-12-06T12:24:13Z</time>
      </trkpt>
      <trkpt lat="45.83351" lon="3.07366">
        <ele>500.2</ele>
        <time>2016-12-06T12:24:19Z</time>
      </trkpt>
      <trkpt lat="45.83429" lon="3.07384">
        <ele>502.6</ele>
        <time>2016-12-06T12:24:27Z</time>
      </trkpt>
      <trkpt lat="45.83454" lon="3.07416">
        <ele>500.7</ele>
        <time>2016-12-06T12:24:31Z</time>
      </trkpt>
      <trkpt lat="45.83488" lon="3.0739">
        <ele>507.1</ele>
        <time>2016-12-06T12:24:35Z</time>
      </trkpt>
      <trkpt lat="45.83513" lon="3.07392">
        <ele>504.5</ele>
        <time>2016-12-06T12:24:38Z</time>
      </trkpt>
      <trkpt lat="45.83605" lon="3.07283">
        <ele>504.2</ele>
        <time>2016-12-06T12:24:51Z</time>
      </trkpt>
      <trkpt lat="45.83709" lon="3.07304">
        <ele>498.8</ele>
        <time>2016-12-06T12:25:03Z</time>
      </trkpt>
      <trkpt lat="45.83732" lon="3.0727">
        <ele>506</ele>
        <time>2016-12-06T12:25:07Z</time>
      </trkpt>
      <trkpt lat="45.83741" lon="3.07164">
        <ele>508.3</ele>
        <time>2016-12-06T12:25:15Z</time>
      </trkpt>
      <trkpt lat="45.83763" lon="3.07125">
        <ele>507.2</ele>
        <time>2016-12-06T12:25:19Z</time>
      </trkpt>
      <trkpt lat="45.83889" lon="3.07143">
        <ele>505.4</ele>
        <time>2016-12-06T12:25:33Z</time>
      </trkpt>
      <trkpt lat="45.83898" lon="3.07073">
        <ele>504.1</ele>
        <time>2016-12-06T12:25:39Z</time>
      </trkpt>
      <trkpt lat="45.8389" lon="3.06992">
        <ele>501.7</ele>
        <time>2016-12-06T12:25:45Z</time>
      </trkpt>
      <trkpt lat="45.83898" lon="3.06852">
        <ele>498.7</ele>
        <time>2016-12-06T12:25:56Z</time>
      </trkpt>
      <trkpt lat="45.83952" lon="3.06654">
        <ele>496.5</ele>
        <time>2016-12-06T12:26:12Z</time>
      </trkpt>
      <trkpt lat="45.8402" lon="3.06335">
        <ele>507</ele>
        <time>2016-12-06T12:26:38Z</time>
      </trkpt>
      <trkpt lat="45.84038" lon="3.0622">
        <ele>508.3</ele>
        <time>2016-12-06T12:26:47Z</time>
      </trkpt>
      <trkpt lat="45.84075" lon="3.06106">
        <ele>509.9</ele>
        <time>2016-12-06T12:26:57Z</time>
      </trkpt>
      <trkpt lat="45.84065" lon="3.0602">
        <ele>510.3</ele>
        <time>2016-12-06T12:27:04Z</time>
      </trkpt>
      <trkpt lat="45.84069" lon="3.05904">
        <ele>512.8</ele>
        <time>2016-12-06T12:27:13Z</time>
      </trkpt>
      <trkpt lat="45.84078" lon="3.05893">
        <ele>513.5</ele>
        <time>2016-12-06T12:27:14Z</time>
      </trkpt>
      <trkpt lat="45.84065" lon="3.05846">
        <ele>514.7</ele>
        <time>2016-12-06T12:27:18Z</time>
      </trkpt>
      <trkpt lat="45.84065" lon="3.05826">
        <ele>515.9</ele>
        <time>2016-12-06T12:27:20Z</time>
      </trkpt>
      <trkpt lat="45.84069" lon="3.05778">
        <ele>518</ele>
        <time>2016-12-06T12:27:23Z</time>
      </trkpt>
      <trkpt lat="45.84084" lon="3.05699">
        <ele>520</ele>
        <time>2016-12-06T12:27:30Z</time>
      </trkpt>
      <trkpt lat="45.84081" lon="3.05639">
        <ele>520.6</ele>
        <time>2016-12-06T12:27:34Z</time>
      </trkpt>
      <trkpt lat="45.84084" lon="3.05629">
        <ele>520.9</ele>
        <time>2016-12-06T12:27:35Z</time>
      </trkpt>
      <trkpt lat="45.84092" lon="3.05477">
        <ele>523</ele>
        <time>2016-12-06T12:27:47Z</time>
      </trkpt>
      <trkpt lat="45.8409" lon="3.05389">
        <ele>523</ele>
        <time>2016-12-06T12:27:54Z</time>
      </trkpt>
      <trkpt lat="45.84097" lon="3.05334">
        <ele>523.3</ele>
        <time>2016-12-06T12:27:58Z</time>
      </trkpt>
      <trkpt lat="45.84084" lon="3.05198">
        <ele>525.2</ele>
        <time>2016-12-06T12:28:09Z</time>
      </trkpt>
      <trkpt lat="45.84093" lon="3.05086">
        <ele>529.2</ele>
        <time>2016-12-06T12:28:18Z</time>
      </trkpt>
      <trkpt lat="45.84095" lon="3.05054">
        <ele>530.3</ele>
        <time>2016-12-06T12:28:20Z</time>
      </trkpt>
      <trkpt lat="45.84101" lon="3.05004">
        <ele>531.2</ele>
        <time>2016-12-06T12:28:24Z</time>
      </trkpt>
      <trkpt lat="45.84098" lon="3.0491">
        <ele>534.6</ele>
        <time>2016-12-06T12:28:31Z</time>
      </trkpt>
      <trkpt lat="45.84084" lon="3.04797">
        <ele>536</ele>
        <time>2016-12-06T12:28:40Z</time>
      </trkpt>
      <trkpt lat="45.8408" lon="3.04719">
        <ele>537.9</ele>
        <time>2016-12-06T12:28:46Z</time>
      </trkpt>
      <trkpt lat="45.83958" lon="3.04797">
        <ele>533.7</ele>
        <time>2016-12-06T12:29:01Z</time>
      </trkpt>
      <trkpt lat="45.83955" lon="3.04748">
        <ele>535.3</ele>
        <time>2016-12-06T12:29:05Z</time>
      </trkpt>
      <trkpt lat="45.83949" lon="3.04698">
        <ele>536.6</ele>
        <time>2016-12-06T12:29:09Z</time>
      </trkpt>
      <trkpt lat="45.8395" lon="3.04663">
        <ele>538</ele>
        <time>2016-12-06T12:29:12Z</time>
      </trkpt>
      <trkpt lat="45.83966" lon="3.04594">
        <ele>540.3</ele>
        <time>2016-12-06T12:29:17Z</time>
      </trkpt>
      <trkpt lat="45.83965" lon="3.04583">
        <ele>540.7</ele>
        <time>2016-12-06T12:29:18Z</time>
      </trkpt>
      <trkpt lat="45.8396" lon="3.04564">
        <ele>541.2</ele>
        <time>2016-12-06T12:29:20Z</time>
      </trkpt>
      <trkpt lat="45.8396" lon="3.04546">
        <ele>541.9</ele>
        <time>2016-12-06T12:29:21Z</time>
      </trkpt>
      <trkpt lat="45.83972" lon="3.04519">
        <ele>544.4</ele>
        <time>2016-12-06T12:29:24Z</time>
      </trkpt>
      <trkpt lat="45.83966" lon="3.0447">
        <ele>547.1</ele>
        <time>2016-12-06T12:29:27Z</time>
      </trkpt>
      <trkpt lat="45.83964" lon="3.04433">
        <ele>549.2</ele>
        <time>2016-12-06T12:29:30Z</time>
      </trkpt>
      <trkpt lat="45.83959" lon="3.04405">
        <ele>549.9</ele>
        <time>2016-12-06T12:29:33Z</time>
      </trkpt>
      <trkpt lat="45.83951" lon="3.04393">
        <ele>549.8</ele>
        <time>2016-12-06T12:29:34Z</time>
      </trkpt>
      <trkpt lat="45.83943" lon="3.04396">
        <ele>549.1</ele>
        <time>2016-12-06T12:29:35Z</time>
      </trkpt>
      <trkpt lat="45.83943" lon="3.04363">
        <ele>550.3</ele>
        <time>2016-12-06T12:29:37Z</time>
      </trkpt>
      <trkpt lat="45.83954" lon="3.04333">
        <ele>552.4</ele>
        <time>2016-12-06T12:29:40Z</time>
      </trkpt>
      <trkpt lat="45.83986" lon="3.04294">
        <ele>557.2</ele>
        <time>2016-12-06T12:29:45Z</time>
      </trkpt>
      <trkpt lat="45.84" lon="3.04285">
        <ele>558.2</ele>
        <time>2016-12-06T12:29:46Z</time>
      </trkpt>
      <trkpt lat="45.84004" lon="3.0427">
        <ele>559.8</ele>
        <time>2016-12-06T12:29:48Z</time>
      </trkpt>
      <trkpt lat="45.8407" lon="3.04169">
        <ele>569.4</ele>
        <time>2016-12-06T12:29:58Z</time>
      </trkpt>
      <trkpt lat="45.84052" lon="3.04152">
        <ele>571.2</ele>
        <time>2016-12-06T12:30:01Z</time>
      </trkpt>
      <trkpt lat="45.8404" lon="3.04128">
        <ele>573.4</ele>
        <time>2016-12-06T12:30:03Z</time>
      </trkpt>
      <trkpt lat="45.84019" lon="3.04037">
        <ele>575</ele>
        <time>2016-12-06T12:30:11Z</time>
      </trkpt>
      <trkpt lat="45.84008" lon="3.03985">
        <ele>576.1</ele>
        <time>2016-12-06T12:30:15Z</time>
      </trkpt>
      <trkpt lat="45.84005" lon="3.03929">
        <ele>578.1</ele>
        <time>2016-12-06T12:30:19Z</time>
      </trkpt>
      <trkpt lat="45.83985" lon="3.03911">
        <ele>579.6</ele>
        <time>2016-12-06T12:30:22Z</time>
      </trkpt>
      <trkpt lat="45.83976" lon="3.03891">
        <ele>580.4</ele>
        <time>2016-12-06T12:30:24Z</time>
      </trkpt>
      <trkpt lat="45.83977" lon="3.03806">
        <ele>585.3</ele>
        <time>2016-12-06T12:30:30Z</time>
      </trkpt>
      <trkpt lat="45.83979" lon="3.03796">
        <ele>585.7</ele>
        <time>2016-12-06T12:30:31Z</time>
      </trkpt>
      <trkpt lat="45.83983" lon="3.03787">
        <ele>586</ele>
        <time>2016-12-06T12:30:32Z</time>
      </trkpt>
      <trkpt lat="45.8399" lon="3.03752">
        <ele>587.3</ele>
        <time>2016-12-06T12:30:35Z</time>
      </trkpt>
      <trkpt lat="45.8403" lon="3.03683">
        <ele>591.5</ele>
        <time>2016-12-06T12:30:42Z</time>
      </trkpt>
      <trkpt lat="45.84037" lon="3.03654">
        <ele>594.4</ele>
        <time>2016-12-06T12:30:44Z</time>
      </trkpt>
      <trkpt lat="45.84059" lon="3.03598">
        <ele>597.8</ele>
        <time>2016-12-06T12:30:49Z</time>
      </trkpt>
      <trkpt lat="45.84063" lon="3.03587">
        <ele>598.2</ele>
        <time>2016-12-06T12:30:50Z</time>
      </trkpt>
      <trkpt lat="45.84066" lon="3.03579">
        <ele>598.5</ele>
        <time>2016-12-06T12:30:51Z</time>
      </trkpt>
      <trkpt lat="45.84074" lon="3.03548">
        <ele>599.8</ele>
        <time>2016-12-06T12:30:53Z</time>
      </trkpt>
      <trkpt lat="45.84103" lon="3.03499">
        <ele>602.6</ele>
        <time>2016-12-06T12:30:58Z</time>
      </trkpt>
      <trkpt lat="45.84103" lon="3.03498">
        <ele>602.7</ele>
        <time>2016-12-06T12:30:58Z</time>
      </trkpt>
      <trkpt lat="45.84107" lon="3.03454">
        <ele>605</ele>
        <time>2016-12-06T12:31:02Z</time>
      </trkpt>
      <trkpt lat="45.84106" lon="3.03405">
        <ele>607.1</ele>
        <time>2016-12-06T12:31:06Z</time>
      </trkpt>
      <trkpt lat="45.84111" lon="3.0335">
        <ele>609.3</ele>
        <time>2016-12-06T12:31:10Z</time>
      </trkpt>
      <trkpt lat="45.84124" lon="3.03315">
        <ele>611</ele>
        <time>2016-12-06T12:31:13Z</time>
      </trkpt>
      <trkpt lat="45.84156" lon="3.03232">
        <ele>616.2</ele>
        <time>2016-12-06T12:31:20Z</time>
      </trkpt>
      <trkpt lat="45.84158" lon="3.03185">
        <ele>618.9</ele>
        <time>2016-12-06T12:31:24Z</time>
      </trkpt>
      <trkpt lat="45.84154" lon="3.03156">
        <ele>619.8</ele>
        <time>2016-12-06T12:31:26Z</time>
      </trkpt>
      <trkpt lat="45.84178" lon="3.02872">
        <ele>624.9</ele>
        <time>2016-12-06T12:31:48Z</time>
      </trkpt>
      <trkpt lat="45.84198" lon="3.0281">
        <ele>628.8</ele>
        <time>2016-12-06T12:31:54Z</time>
      </trkpt>
      <trkpt lat="45.84206" lon="3.02741">
        <ele>629.8</ele>
        <time>2016-12-06T12:31:59Z</time>
      </trkpt>
      <trkpt lat="45.8423" lon="3.02643">
        <ele>632.2</ele>
        <time>2016-12-06T12:32:07Z</time>
      </trkpt>
      <trkpt lat="45.84276" lon="3.02513">
        <ele>636.9</ele>
        <time>2016-12-06T12:32:19Z</time>
      </trkpt>
      <trkpt lat="45.84309" lon="3.02548">
        <ele>637.3</ele>
        <time>2016-12-06T12:32:23Z</time>
      </trkpt>
      <trkpt lat="45.84335" lon="3.02567">
        <ele>638.2</ele>
        <time>2016-12-06T12:32:26Z</time>
      </trkpt>
      <trkpt lat="45.84355" lon="3.02555">
        <ele>640</ele>
        <time>2016-12-06T12:32:29Z</time>
      </trkpt>
      <trkpt lat="45.84384" lon="3.02513">
        <ele>642.7</ele>
        <time>2016-12-06T12:32:33Z</time>
      </trkpt>
      <trkpt lat="45.84413" lon="3.02522">
        <ele>644.5</ele>
        <time>2016-12-06T12:32:37Z</time>
      </trkpt>
      <trkpt lat="45.84426" lon="3.02462">
        <ele>648.4</ele>
        <time>2016-12-06T12:32:42Z</time>
      </trkpt>
      <trkpt lat="45.84431" lon="3.02422">
        <ele>650.4</ele>
        <time>2016-12-06T12:32:45Z</time>
      </trkpt>
      <trkpt lat="45.8442" lon="3.02311">
        <ele>656.3</ele>
        <time>2016-12-06T12:32:54Z</time>
      </trkpt>
      <trkpt lat="45.84415" lon="3.02239">
        <ele>662</ele>
        <time>2016-12-06T12:32:59Z</time>
      </trkpt>
      <trkpt lat="45.84417" lon="3.02203">
        <ele>665.5</ele>
        <time>2016-12-06T12:33:02Z</time>
      </trkpt>
      <trkpt lat="45.84417" lon="3.02181">
        <ele>668.2</ele>
        <time>2016-12-06T12:33:04Z</time>
      </trkpt>
      <trkpt lat="45.84405" lon="3.0218">
        <ele>670</ele>
        <time>2016-12-06T12:33:05Z</time>
      </trkpt>
      <trkpt lat="45.84361" lon="3.02231">
        <ele>670.1</ele>
        <time>2016-12-06T12:33:11Z</time>
      </trkpt>
      <trkpt lat="45.8434" lon="3.02244">
        <ele>669.2</ele>
        <time>2016-12-06T12:33:14Z</time>
      </trkpt>
      <trkpt lat="45.84327" lon="3.02236">
        <ele>670</ele>
        <time>2016-12-06T12:33:15Z</time>
      </trkpt>
      <trkpt lat="45.84322" lon="3.02187">
        <ele>678.5</ele>
        <time>2016-12-06T12:33:19Z</time>
      </trkpt>
      <trkpt lat="45.84328" lon="3.02162">
        <ele>682.4</ele>
        <time>2016-12-06T12:33:21Z</time>
      </trkpt>
      <trkpt lat="45.84322" lon="3.0212">
        <ele>687.3</ele>
        <time>2016-12-06T12:33:25Z</time>
      </trkpt>
      <trkpt lat="45.84309" lon="3.02103">
        <ele>689</ele>
        <time>2016-12-06T12:33:27Z</time>
      </trkpt>
      <trkpt lat="45.84289" lon="3.02029">
        <ele>696.8</ele>
        <time>2016-12-06T12:33:33Z</time>
      </trkpt>
      <trkpt lat="45.84289" lon="3.01974">
        <ele>702.6</ele>
        <time>2016-12-06T12:33:37Z</time>
      </trkpt>
      <trkpt lat="45.84291" lon="3.01959">
        <ele>703.7</ele>
        <time>2016-12-06T12:33:38Z</time>
      </trkpt>
      <trkpt lat="45.84303" lon="3.01949">
        <ele>704.8</ele>
        <time>2016-12-06T12:33:40Z</time>
      </trkpt>
      <trkpt lat="45.8431" lon="3.01937">
        <ele>705.5</ele>
        <time>2016-12-06T12:33:41Z</time>
      </trkpt>
      <trkpt lat="45.84325" lon="3.0191">
        <ele>707</ele>
        <time>2016-12-06T12:33:44Z</time>
      </trkpt>
      <trkpt lat="45.84332" lon="3.01899">
        <ele>707.5</ele>
        <time>2016-12-06T12:33:45Z</time>
      </trkpt>
      <trkpt lat="45.84411" lon="3.01867">
        <ele>702.7</ele>
        <time>2016-12-06T12:33:54Z</time>
      </trkpt>
      <trkpt lat="45.84411" lon="3.018">
        <ele>706.7</ele>
        <time>2016-12-06T12:33:59Z</time>
      </trkpt>
      <trkpt lat="45.8442" lon="3.0172">
        <ele>710.9</ele>
        <time>2016-12-06T12:34:06Z</time>
      </trkpt>
      <trkpt lat="45.8445" lon="3.01649">
        <ele>712.8</ele>
        <time>2016-12-06T12:34:12Z</time>
      </trkpt>
      <trkpt lat="45.84472" lon="3.01592">
        <ele>717.1</ele>
        <time>2016-12-06T12:34:17Z</time>
      </trkpt>
      <trkpt lat="45.84498" lon="3.0156">
        <ele>718.4</ele>
        <time>2016-12-06T12:34:21Z</time>
      </trkpt>
      <trkpt lat="45.84482" lon="3.01531">
        <ele>720.2</ele>
        <time>2016-12-06T12:34:24Z</time>
      </trkpt>
      <trkpt lat="45.84499" lon="3.0152">
        <ele>720.3</ele>
        <time>2016-12-06T12:34:26Z</time>
      </trkpt>
      <trkpt lat="45.8453" lon="3.01506">
        <ele>720.2</ele>
        <time>2016-12-06T12:34:30Z</time>
      </trkpt>
      <trkpt lat="45.84597" lon="3.01482">
        <ele>726.2</ele>
        <time>2016-12-06T12:34:37Z</time>
      </trkpt>
      <trkpt lat="45.8471" lon="3.01511">
        <ele>731.7</ele>
        <time>2016-12-06T12:34:50Z</time>
      </trkpt>
      <trkpt lat="45.848" lon="3.01576">
        <ele>732.4</ele>
        <time>2016-12-06T12:35:01Z</time>
      </trkpt>
      <trkpt lat="45.84875" lon="3.01672">
        <ele>732.2</ele>
        <time>2016-12-06T12:35:12Z</time>
      </trkpt>
      <trkpt lat="45.84911" lon="3.01825">
        <ele>734.9</ele>
        <time>2016-12-06T12:35:25Z</time>
      </trkpt>
      <trkpt lat="45.84949" lon="3.01968">
        <ele>736.4</ele>
        <time>2016-12-06T12:35:37Z</time>
      </trkpt>
      <trkpt lat="45.85037" lon="3.02075">
        <ele>737.8</ele>
        <time>2016-12-06T12:35:50Z</time>
      </trkpt>
      <trkpt lat="45.85231" lon="3.02129">
        <ele>741.7</ele>
        <time>2016-12-06T12:36:12Z</time>
      </trkpt>
      <trkpt lat="45.8526" lon="3.02121">
        <ele>743.4</ele>
        <time>2016-12-06T12:36:15Z</time>
      </trkpt>
      <trkpt lat="45.85283" lon="3.02056">
        <ele>748.7</ele>
        <time>2016-12-06T12:36:20Z</time>
      </trkpt>
      <trkpt lat="45.85289" lon="3.01958">
        <ele>753.9</ele>
        <time>2016-12-06T12:36:28Z</time>
      </trkpt>
      <trkpt lat="45.85402" lon="3.02025">
        <ele>750.2</ele>
        <time>2016-12-06T12:36:42Z</time>
      </trkpt>
      <trkpt lat="45.85452" lon="3.01942">
        <ele>752.8</ele>
        <time>2016-12-06T12:36:50Z</time>
      </trkpt>
      <trkpt lat="45.85524" lon="3.01745">
        <ele>759.3</ele>
        <time>2016-12-06T12:37:08Z</time>
      </trkpt>
      <trkpt lat="45.8556" lon="3.0168">
        <ele>759.9</ele>
        <time>2016-12-06T12:37:14Z</time>
      </trkpt>
      <trkpt lat="45.85563" lon="3.01568">
        <ele>763.7</ele>
        <time>2016-12-06T12:37:23Z</time>
      </trkpt>
      <trkpt lat="45.85545" lon="3.01459">
        <ele>767.9</ele>
        <time>2016-12-06T12:37:31Z</time>
      </trkpt>
      <trkpt lat="45.85492" lon="3.0135">
        <ele>773.1</ele>
        <time>2016-12-06T12:37:42Z</time>
      </trkpt>
      <trkpt lat="45.85337" lon="3.0109">
        <ele>772</ele>
        <time>2016-12-06T12:38:08Z</time>
      </trkpt>
      <trkpt lat="45.85269" lon="3.00921">
        <ele>771.4</ele>
        <time>2016-12-06T12:38:23Z</time>
      </trkpt>
      <trkpt lat="45.85263" lon="3.00895">
        <ele>771.7</ele>
        <time>2016-12-06T12:38:25Z</time>
      </trkpt>
      <trkpt lat="45.85202" lon="3.00666">
        <ele>777.8</ele>
        <time>2016-12-06T12:38:44Z</time>
      </trkpt>
      <trkpt lat="45.85166" lon="3.00474">
        <ele>785.5</ele>
        <time>2016-12-06T12:39:00Z</time>
      </trkpt>
      <trkpt lat="45.85181" lon="3.00414">
        <ele>789.3</ele>
        <time>2016-12-06T12:39:05Z</time>
      </trkpt>
      <trkpt lat="45.85253" lon="3.00282">
        <ele>787.4</ele>
        <time>2016-12-06T12:39:18Z</time>
      </trkpt>
      <trkpt lat="45.85355" lon="3.00061">
        <ele>787.2</ele>
        <time>2016-12-06T12:39:38Z</time>
      </trkpt>
      <trkpt lat="45.85368" lon="3.00009">
        <ele>787.8</ele>
        <time>2016-12-06T12:39:43Z</time>
      </trkpt>
      <trkpt lat="45.85414" lon="2.99892">
        <ele>789.1</ele>
        <time>2016-12-06T12:39:53Z</time>
      </trkpt>
      <trkpt lat="45.85447" lon="2.99783">
        <ele>791.5</ele>
        <time>2016-12-06T12:40:02Z</time>
      </trkpt>
      <trkpt lat="45.85418" lon="2.99608">
        <ele>800.9</ele>
        <time>2016-12-06T12:40:16Z</time>
      </trkpt>
      <trkpt lat="45.85416" lon="2.99473">
        <ele>805.8</ele>
        <time>2016-12-06T12:40:27Z</time>
      </trkpt>
      <trkpt lat="45.85423" lon="2.99434">
        <ele>807</ele>
        <time>2016-12-06T12:40:30Z</time>
      </trkpt>
      <trkpt lat="45.85488" lon="2.99341">
        <ele>809.6</ele>
        <time>2016-12-06T12:40:40Z</time>
      </trkpt>
      <trkpt lat="45.85562" lon="2.99156">
        <ele>814</ele>
        <time>2016-12-06T12:40:56Z</time>
      </trkpt>
      <trkpt lat="45.85538" lon="2.98946">
        <ele>818.8</ele>
        <time>2016-12-06T12:41:13Z</time>
      </trkpt>
      <trkpt lat="45.85497" lon="2.98816">
        <ele>825.1</ele>
        <time>2016-12-06T12:41:24Z</time>
      </trkpt>
      <trkpt lat="45.85441" lon="2.98689">
        <ele>832.5</ele>
        <time>2016-12-06T12:41:36Z</time>
      </trkpt>
      <trkpt lat="45.85391" lon="2.98644">
        <ele>835.7</ele>
        <time>2016-12-06T12:41:42Z</time>
      </trkpt>
      <trkpt lat="45.8531" lon="2.98652">
        <ele>836.1</ele>
        <time>2016-12-06T12:41:51Z</time>
      </trkpt>
      <trkpt lat="45.85416" lon="2.98512">
        <ele>840.6</ele>
        <time>2016-12-06T12:42:07Z</time>
      </trkpt>
      <trkpt lat="45.85481" lon="2.98457">
        <ele>846.5</ele>
        <time>2016-12-06T12:42:16Z</time>
      </trkpt>
      <trkpt lat="45.8554" lon="2.98309">
        <ele>856.6</ele>
        <time>2016-12-06T12:42:29Z</time>
      </trkpt>
      <trkpt lat="45.85601" lon="2.98156">
        <ele>866.2</ele>
        <time>2016-12-06T12:42:43Z</time>
      </trkpt>
      <trkpt lat="45.8567" lon="2.98085">
        <ele>876.3</ele>
        <time>2016-12-06T12:42:52Z</time>
      </trkpt>
      <trkpt lat="45.85734" lon="2.98012">
        <ele>881.3</ele>
        <time>2016-12-06T12:43:01Z</time>
      </trkpt>
      <trkpt lat="45.85787" lon="2.97908">
        <ele>878.7</ele>
        <time>2016-12-06T12:43:11Z</time>
      </trkpt>
      <trkpt lat="45.85797" lon="2.97708">
        <ele>875.1</ele>
        <time>2016-12-06T12:43:27Z</time>
      </trkpt>
      <trkpt lat="45.85867" lon="2.97583">
        <ele>866.1</ele>
        <time>2016-12-06T12:43:39Z</time>
      </trkpt>
      <trkpt lat="45.85934" lon="2.97386">
        <ele>857</ele>
        <time>2016-12-06T12:43:56Z</time>
      </trkpt>
      <trkpt lat="45.86052" lon="2.97196">
        <ele>855.7</ele>
        <time>2016-12-06T12:44:16Z</time>
      </trkpt>
      <trkpt lat="45.86142" lon="2.9704">
        <ele>849.4</ele>
        <time>2016-12-06T12:44:32Z</time>
      </trkpt>
      <trkpt lat="45.86358" lon="2.96814">
        <ele>841.6</ele>
        <time>2016-12-06T12:45:01Z</time>
      </trkpt>
      <trkpt lat="45.86396" lon="2.96822">
        <ele>840.2</ele>
        <time>2016-12-06T12:45:06Z</time>
      </trkpt>
      <trkpt lat="45.86507" lon="2.96871">
        <ele>837.2</ele>
        <time>2016-12-06T12:45:19Z</time>
      </trkpt>
      <trkpt lat="45.86577" lon="2.96754">
        <ele>837.6</ele>
        <time>2016-12-06T12:45:30Z</time>
      </trkpt>
      <trkpt lat="45.86599" lon="2.9672">
        <ele>838.5</ele>
        <time>2016-12-06T12:45:34Z</time>
      </trkpt>
      <trkpt lat="45.86518" lon="2.96687">
        <ele>840.2</ele>
        <time>2016-12-06T12:45:43Z</time>
      </trkpt>
      <trkpt lat="45.86466" lon="2.96637">
        <ele>843.1</ele>
        <time>2016-12-06T12:45:50Z</time>
      </trkpt>
      <trkpt lat="45.86408" lon="2.96554">
        <ele>848.1</ele>
        <time>2016-12-06T12:45:59Z</time>
      </trkpt>
      <trkpt lat="45.863" lon="2.9645">
        <ele>862.3</ele>
        <time>2016-12-06T12:46:14Z</time>
      </trkpt>
      <trkpt lat="45.86196" lon="2.96305">
        <ele>882</ele>
        <time>2016-12-06T12:46:30Z</time>
      </trkpt>
      <trkpt lat="45.86146" lon="2.9624">
        <ele>890.2</ele>
        <time>2016-12-06T12:46:38Z</time>
      </trkpt>
      <trkpt lat="45.86101" lon="2.96169">
        <ele>894.6</ele>
        <time>2016-12-06T12:46:45Z</time>
      </trkpt>
      <trkpt lat="45.86123" lon="2.96094">
        <ele>895.1</ele>
        <time>2016-12-06T12:46:51Z</time>
      </trkpt>
      <trkpt lat="45.86238" lon="2.95972">
        <ele>895.1</ele>
        <time>2016-12-06T12:47:07Z</time>
      </trkpt>
      <trkpt lat="45.86338" lon="2.95871">
        <ele>892.3</ele>
        <time>2016-12-06T12:47:21Z</time>
      </trkpt>
      <trkpt lat="45.86277" lon="2.95702">
        <ele>894.7</ele>
        <time>2016-12-06T12:47:36Z</time>
      </trkpt>
      <trkpt lat="45.86221" lon="2.95611">
        <ele>897.7</ele>
        <time>2016-12-06T12:47:45Z</time>
      </trkpt>
      <trkpt lat="45.86193" lon="2.95489">
        <ele>904.5</ele>
        <time>2016-12-06T12:47:55Z</time>
      </trkpt>
      <trkpt lat="45.86092" lon="2.95309">
        <ele>918.4</ele>
        <time>2016-12-06T12:48:13Z</time>
      </trkpt>
      <trkpt lat="45.86065" lon="2.95234">
        <ele>922.2</ele>
        <time>2016-12-06T12:48:20Z</time>
      </trkpt>
      <trkpt lat="45.85979" lon="2.95172">
        <ele>927.5</ele>
        <time>2016-12-06T12:48:30Z</time>
      </trkpt>
      <trkpt lat="45.85923" lon="2.95011">
        <ele>931.6</ele>
        <time>2016-12-06T12:48:44Z</time>
      </trkpt>
      <trkpt lat="45.85952" lon="2.94902">
        <ele>927.1</ele>
        <time>2016-12-06T12:48:53Z</time>
      </trkpt>
      <trkpt lat="45.8591" lon="2.94865">
        <ele>926.1</ele>
        <time>2016-12-06T12:48:59Z</time>
      </trkpt>
      <trkpt lat="45.85972" lon="2.94755">
        <ele>913.5</ele>
        <time>2016-12-06T12:49:10Z</time>
      </trkpt>
      <trkpt lat="45.86049" lon="2.94581">
        <ele>892.9</ele>
        <time>2016-12-06T12:49:26Z</time>
      </trkpt>
      <trkpt lat="45.8613" lon="2.94378">
        <ele>877.8</ele>
        <time>2016-12-06T12:49:44Z</time>
      </trkpt>
      <trkpt lat="45.86169" lon="2.94302">
        <ele>872.7</ele>
        <time>2016-12-06T12:49:51Z</time>
      </trkpt>
      <trkpt lat="45.86204" lon="2.94227">
        <ele>868.7</ele>
        <time>2016-12-06T12:49:59Z</time>
      </trkpt>
      <trkpt lat="45.86272" lon="2.94256">
        <ele>869.1</ele>
        <time>2016-12-06T12:50:06Z</time>
      </trkpt>
      <trkpt lat="45.86297" lon="2.93951">
        <ele>863.1</ele>
        <time>2016-12-06T12:50:30Z</time>
      </trkpt>
      <trkpt lat="45.86324" lon="2.93717">
        <ele>862.3</ele>
        <time>2016-12-06T12:50:48Z</time>
      </trkpt>
      <trkpt lat="45.8637" lon="2.93501">
        <ele>861.9</ele>
        <time>2016-12-06T12:51:06Z</time>
      </trkpt>
      <trkpt lat="45.86295" lon="2.93213">
        <ele>863</ele>
        <time>2016-12-06T12:51:30Z</time>
      </trkpt>
      <trkpt lat="45.86234" lon="2.93184">
        <ele>865.6</ele>
        <time>2016-12-06T12:51:37Z</time>
      </trkpt>
      <trkpt lat="45.86121" lon="2.93246">
        <ele>871.1</ele>
        <time>2016-12-06T12:51:50Z</time>
      </trkpt>
      <trkpt lat="45.8606" lon="2.93228">
        <ele>871.3</ele>
        <time>2016-12-06T12:51:57Z</time>
      </trkpt>
      <trkpt lat="45.86043" lon="2.93213">
        <ele>871</ele>
        <time>2016-12-06T12:52:00Z</time>
      </trkpt>
      <trkpt lat="45.86009" lon="2.93155">
        <ele>869.1</ele>
        <time>2016-12-06T12:52:05Z</time>
      </trkpt>
      <trkpt lat="45.86024" lon="2.93049">
        <ele>870.1</ele>
        <time>2016-12-06T12:52:14Z</time>
      </trkpt>
      <trkpt lat="45.86042" lon="2.92854">
        <ele>875.8</ele>
        <time>2016-12-06T12:52:29Z</time>
      </trkpt>
      <trkpt lat="45.86017" lon="2.92594">
        <ele>878.2</ele>
        <time>2016-12-06T12:52:49Z</time>
      </trkpt>
      <trkpt lat="45.8602" lon="2.92464">
        <ele>875.8</ele>
        <time>2016-12-06T12:52:59Z</time>
      </trkpt>
      <trkpt lat="45.85982" lon="2.92383">
        <ele>877.4</ele>
        <time>2016-12-06T12:53:07Z</time>
      </trkpt>
      <trkpt lat="45.85972" lon="2.92305">
        <ele>875</ele>
        <time>2016-12-06T12:53:13Z</time>
      </trkpt>
      <trkpt lat="45.85968" lon="2.92195">
        <ele>876.7</ele>
        <time>2016-12-06T12:53:22Z</time>
      </trkpt>
      <trkpt lat="45.85952" lon="2.9211">
        <ele>878.7</ele>
        <time>2016-12-06T12:53:29Z</time>
      </trkpt>
      <trkpt lat="45.85871" lon="2.92128">
        <ele>884.7</ele>
        <time>2016-12-06T12:53:38Z</time>
      </trkpt>
      <trkpt lat="45.85763" lon="2.92219">
        <ele>890.9</ele>
        <time>2016-12-06T12:53:52Z</time>
      </trkpt>
      <trkpt lat="45.85708" lon="2.92307">
        <ele>892</ele>
        <time>2016-12-06T12:54:01Z</time>
      </trkpt>
      <trkpt lat="45.85694" lon="2.92359">
        <ele>893.4</ele>
        <time>2016-12-06T12:54:05Z</time>
      </trkpt>
      <trkpt lat="45.85335" lon="2.92541">
        <ele>899.9</ele>
        <time>2016-12-06T12:54:47Z</time>
      </trkpt>
      <trkpt lat="45.85199" lon="2.92596">
        <ele>899.9</ele>
        <time>2016-12-06T12:55:03Z</time>
      </trkpt>
      <trkpt lat="45.85105" lon="2.92619">
        <ele>899.1</ele>
        <time>2016-12-06T12:55:14Z</time>
      </trkpt>
      <trkpt lat="45.85103" lon="2.92541">
        <ele>895.5</ele>
        <time>2016-12-06T12:55:20Z</time>
      </trkpt>
      <trkpt lat="45.85042" lon="2.92375">
        <ele>894.1</ele>
        <time>2016-12-06T12:55:34Z</time>
      </trkpt>
      <trkpt lat="45.8503" lon="2.92292">
        <ele>894</ele>
        <time>2016-12-06T12:55:41Z</time>
      </trkpt>
      <trkpt lat="45.85019" lon="2.92201">
        <ele>892.9</ele>
        <time>2016-12-06T12:55:48Z</time>
      </trkpt>
      <trkpt lat="45.8497" lon="2.92159">
        <ele>890.8</ele>
        <time>2016-12-06T12:55:54Z</time>
      </trkpt>
      <trkpt lat="45.84934" lon="2.92089">
        <ele>888.6</ele>
        <time>2016-12-06T12:56:01Z</time>
      </trkpt>
      <trkpt lat="45.84924" lon="2.92014">
        <ele>886.3</ele>
        <time>2016-12-06T12:56:07Z</time>
      </trkpt>
      <trkpt lat="45.84881" lon="2.91949">
        <ele>883.5</ele>
        <time>2016-12-06T12:56:14Z</time>
      </trkpt>
      <trkpt lat="45.84897" lon="2.91824">
        <ele>881.8</ele>
        <time>2016-12-06T12:56:24Z</time>
      </trkpt>
      <trkpt lat="45.84818" lon="2.91709">
        <ele>879</ele>
        <time>2016-12-06T12:56:36Z</time>
      </trkpt>
      <trkpt lat="45.8478" lon="2.91616">
        <ele>878.3</ele>
        <time>2016-12-06T12:56:45Z</time>
      </trkpt>
      <trkpt lat="45.84739" lon="2.91585">
        <ele>877</ele>
        <time>2016-12-06T12:56:50Z</time>
      </trkpt>
      <trkpt lat="45.84699" lon="2.91533">
        <ele>876</ele>
        <time>2016-12-06T12:56:56Z</time>
      </trkpt>
      <trkpt lat="45.84688" lon="2.91439">
        <ele>875.4</ele>
        <time>2016-12-06T12:57:03Z</time>
      </trkpt>
      <trkpt lat="45.84685" lon="2.91348">
        <ele>872.5</ele>
        <time>2016-12-06T12:57:10Z</time>
      </trkpt>
      <trkpt lat="45.84642" lon="2.91299">
        <ele>869.2</ele>
        <time>2016-12-06T12:57:16Z</time>
      </trkpt>
      <trkpt lat="45.84589" lon="2.91265">
        <ele>866.6</ele>
        <time>2016-12-06T12:57:23Z</time>
      </trkpt>
      <trkpt lat="45.84642" lon="2.91021">
        <ele>861.3</ele>
        <time>2016-12-06T12:57:43Z</time>
      </trkpt>
      <trkpt lat="45.84529" lon="2.91045">
        <ele>858.6</ele>
        <time>2016-12-06T12:57:55Z</time>
      </trkpt>
      <trkpt lat="45.84489" lon="2.91056">
        <ele>857.5</ele>
        <time>2016-12-06T12:58:00Z</time>
      </trkpt>
      <trkpt lat="45.84478" lon="2.91099">
        <ele>858.8</ele>
        <time>2016-12-06T12:58:03Z</time>
      </trkpt>
      <trkpt lat="45.84378" lon="2.91259">
        <ele>858.2</ele>
        <time>2016-12-06T12:58:20Z</time>
      </trkpt>
      <trkpt lat="45.84316" lon="2.91286">
        <ele>858</ele>
        <time>2016-12-06T12:58:27Z</time>
      </trkpt>
      <trkpt lat="45.84187" lon="2.91435">
        <ele>848.4</ele>
        <time>2016-12-06T12:58:46Z</time>
      </trkpt>
      <trkpt lat="45.84154" lon="2.91357">
        <ele>849.1</ele>
        <time>2016-12-06T12:58:53Z</time>
      </trkpt>
      <trkpt lat="45.84125" lon="2.91267">
        <ele>849</ele>
        <time>2016-12-06T12:59:00Z</time>
      </trkpt>
      <trkpt lat="45.84087" lon="2.91158">
        <ele>843.2</ele>
        <time>2016-12-06T12:59:10Z</time>
      </trkpt>
      <trkpt lat="45.84036" lon="2.91154">
        <ele>843.8</ele>
        <time>2016-12-06T12:59:16Z</time>
      </trkpt>
      <trkpt lat="45.84033" lon="2.9122">
        <ele>849.1</ele>
        <time>2016-12-06T12:59:21Z</time>
      </trkpt>
      <trkpt lat="45.84003" lon="2.91411">
        <ele>864.1</ele>
        <time>2016-12-06T12:59:36Z</time>
      </trkpt>
      <trkpt lat="45.83909" lon="2.9154">
        <ele>873.8</ele>
        <time>2016-12-06T12:59:50Z</time>
      </trkpt>
      <trkpt lat="45.83812" lon="2.9161">
        <ele>878.2</ele>
        <time>2016-12-06T13:00:03Z</time>
      </trkpt>
      <trkpt lat="45.83672" lon="2.91875">
        <ele>881</ele>
        <time>2016-12-06T13:00:28Z</time>
      </trkpt>
      <trkpt lat="45.83532" lon="2.92183">
        <ele>870.3</ele>
        <time>2016-12-06T13:00:57Z</time>
      </trkpt>
      <trkpt lat="45.83518" lon="2.92178">
        <ele>871</ele>
        <time>2016-12-06T13:00:58Z</time>
      </trkpt>
      <trkpt lat="45.83426" lon="2.92164">
        <ele>870.6</ele>
        <time>2016-12-06T13:01:09Z</time>
      </trkpt>
      <trkpt lat="45.83402" lon="2.9198">
        <ele>862.4</ele>
        <time>2016-12-06T13:01:23Z</time>
      </trkpt>
      <trkpt lat="45.83393" lon="2.9192">
        <ele>860</ele>
        <time>2016-12-06T13:01:28Z</time>
      </trkpt>
      <trkpt lat="45.83399" lon="2.91819">
        <ele>851.8</ele>
        <time>2016-12-06T13:01:36Z</time>
      </trkpt>
      <trkpt lat="45.83372" lon="2.91673">
        <ele>842.3</ele>
        <time>2016-12-06T13:01:48Z</time>
      </trkpt>
      <trkpt lat="45.83364" lon="2.91579">
        <ele>837.6</ele>
        <time>2016-12-06T13:01:55Z</time>
      </trkpt>
      <trkpt lat="45.83358" lon="2.91505">
        <ele>835.6</ele>
        <time>2016-12-06T13:02:01Z</time>
      </trkpt>
      <trkpt lat="45.83376" lon="2.91335">
        <ele>830.1</ele>
        <time>2016-12-06T13:02:14Z</time>
      </trkpt>
      <trkpt lat="45.83357" lon="2.91219">
        <ele>827.4</ele>
        <time>2016-12-06T13:02:23Z</time>
      </trkpt>
      <trkpt lat="45.83353" lon="2.91082">
        <ele>826.3</ele>
        <time>2016-12-06T13:02:34Z</time>
      </trkpt>
      <trkpt lat="45.83338" lon="2.91047">
        <ele>825.1</ele>
        <time>2016-12-06T13:02:37Z</time>
      </trkpt>
      <trkpt lat="45.8331" lon="2.91041">
        <ele>824.6</ele>
        <time>2016-12-06T13:02:40Z</time>
      </trkpt>
      <trkpt lat="45.83265" lon="2.91018">
        <ele>824</ele>
        <time>2016-12-06T13:02:46Z</time>
      </trkpt>
      <trkpt lat="45.83212" lon="2.90952">
        <ele>822.1</ele>
        <time>2016-12-06T13:02:53Z</time>
      </trkpt>
      <trkpt lat="45.83178" lon="2.90917">
        <ele>822</ele>
        <time>2016-12-06T13:02:58Z</time>
      </trkpt>
      <trkpt lat="45.83148" lon="2.90907">
        <ele>822.3</ele>
        <time>2016-12-06T13:03:01Z</time>
      </trkpt>
      <trkpt lat="45.83151" lon="2.90811">
        <ele>821.6</ele>
        <time>2016-12-06T13:03:09Z</time>
      </trkpt>
      <trkpt lat="45.83143" lon="2.90796">
        <ele>821.4</ele>
        <time>2016-12-06T13:03:10Z</time>
      </trkpt>
      <trkpt lat="45.83134" lon="2.90791">
        <ele>821.5</ele>
        <time>2016-12-06T13:03:11Z</time>
      </trkpt>
      <trkpt lat="45.83128" lon="2.9076">
        <ele>820.4</ele>
        <time>2016-12-06T13:03:14Z</time>
      </trkpt>
      <trkpt lat="45.8312" lon="2.90754">
        <ele>820.1</ele>
        <time>2016-12-06T13:03:15Z</time>
      </trkpt>
      <trkpt lat="45.831" lon="2.90754">
        <ele>820.4</ele>
        <time>2016-12-06T13:03:17Z</time>
      </trkpt>
      <trkpt lat="45.83093" lon="2.90744">
        <ele>820.4</ele>
        <time>2016-12-06T13:03:18Z</time>
      </trkpt>
      <trkpt lat="45.8309" lon="2.90706">
        <ele>818.7</ele>
        <time>2016-12-06T13:03:21Z</time>
      </trkpt>
      <trkpt lat="45.83076" lon="2.90694">
        <ele>818.1</ele>
        <time>2016-12-06T13:03:23Z</time>
      </trkpt>
      <trkpt lat="45.83029" lon="2.90671">
        <ele>822</ele>
        <time>2016-12-06T13:03:29Z</time>
      </trkpt>
      <trkpt lat="45.8302" lon="2.9066">
        <ele>822.3</ele>
        <time>2016-12-06T13:03:30Z</time>
      </trkpt>
      <trkpt lat="45.83009" lon="2.90585">
        <ele>820.9</ele>
        <time>2016-12-06T13:03:36Z</time>
      </trkpt>
      <trkpt lat="45.82997" lon="2.90519">
        <ele>820.1</ele>
        <time>2016-12-06T13:03:41Z</time>
      </trkpt>
      <trkpt lat="45.82984" lon="2.90491">
        <ele>820.2</ele>
        <time>2016-12-06T13:03:44Z</time>
      </trkpt>
      <trkpt lat="45.82958" lon="2.90481">
        <ele>821.4</ele>
        <time>2016-12-06T13:03:47Z</time>
      </trkpt>
      <trkpt lat="45.82946" lon="2.9045">
        <ele>819.5</ele>
        <time>2016-12-06T13:03:50Z</time>
      </trkpt>
      <trkpt lat="45.82926" lon="2.90425">
        <ele>818.3</ele>
        <time>2016-12-06T13:03:53Z</time>
      </trkpt>
      <trkpt lat="45.82923" lon="2.90361">
        <ele>813.9</ele>
        <time>2016-12-06T13:03:57Z</time>
      </trkpt>
      <trkpt lat="45.82914" lon="2.9031">
        <ele>812.1</ele>
        <time>2016-12-06T13:04:02Z</time>
      </trkpt>
      <trkpt lat="45.82916" lon="2.90237">
        <ele>809.8</ele>
        <time>2016-12-06T13:04:07Z</time>
      </trkpt>
      <trkpt lat="45.82932" lon="2.90147">
        <ele>805.6</ele>
        <time>2016-12-06T13:04:14Z</time>
      </trkpt>
      <trkpt lat="45.82943" lon="2.90098">
        <ele>804.5</ele>
        <time>2016-12-06T13:04:18Z</time>
      </trkpt>
      <trkpt lat="45.82935" lon="2.90089">
        <ele>804.5</ele>
        <time>2016-12-06T13:04:20Z</time>
      </trkpt>
      <trkpt lat="45.82926" lon="2.9007">
        <ele>804</ele>
        <time>2016-12-06T13:04:21Z</time>
      </trkpt>
      <trkpt lat="45.82888" lon="2.90043">
        <ele>804</ele>
        <time>2016-12-06T13:04:26Z</time>
      </trkpt>
      <trkpt lat="45.82876" lon="2.90028">
        <ele>804</ele>
        <time>2016-12-06T13:04:28Z</time>
      </trkpt>
      <trkpt lat="45.82866" lon="2.89992">
        <ele>804.3</ele>
        <time>2016-12-06T13:04:31Z</time>
      </trkpt>
      <trkpt lat="45.82857" lon="2.89981">
        <ele>804.6</ele>
        <time>2016-12-06T13:04:32Z</time>
      </trkpt>
      <trkpt lat="45.82855" lon="2.89964">
        <ele>804.7</ele>
        <time>2016-12-06T13:04:33Z</time>
      </trkpt>
      <trkpt lat="45.82805" lon="2.89945">
        <ele>805.3</ele>
        <time>2016-12-06T13:04:39Z</time>
      </trkpt>
      <trkpt lat="45.82764" lon="2.89957">
        <ele>806.1</ele>
        <time>2016-12-06T13:04:44Z</time>
      </trkpt>
      <trkpt lat="45.82731" lon="2.89957">
        <ele>807</ele>
        <time>2016-12-06T13:04:48Z</time>
      </trkpt>
      <trkpt lat="45.82705" lon="2.89948">
        <ele>807.1</ele>
        <time>2016-12-06T13:04:51Z</time>
      </trkpt>
      <trkpt lat="45.8269" lon="2.89951">
        <ele>807.6</ele>
        <time>2016-12-06T13:04:52Z</time>
      </trkpt>
      <trkpt lat="45.82672" lon="2.89963">
        <ele>808</ele>
        <time>2016-12-06T13:04:54Z</time>
      </trkpt>
      <trkpt lat="45.82646" lon="2.89947">
        <ele>808.1</ele>
        <time>2016-12-06T13:04:58Z</time>
      </trkpt>
      <trkpt lat="45.8263" lon="2.8995">
        <ele>808.5</ele>
        <time>2016-12-06T13:04:59Z</time>
      </trkpt>
      <trkpt lat="45.82592" lon="2.89969">
        <ele>809</ele>
        <time>2016-12-06T13:05:04Z</time>
      </trkpt>
      <trkpt lat="45.82584" lon="2.89958">
        <ele>808.9</ele>
        <time>2016-12-06T13:05:05Z</time>
      </trkpt>
      <trkpt lat="45.82633" lon="2.89921">
        <ele>808</ele>
        <time>2016-12-06T13:05:11Z</time>
      </trkpt>
      <trkpt lat="45.82652" lon="2.899">
        <ele>808</ele>
        <time>2016-12-06T13:05:14Z</time>
      </trkpt>
      <trkpt lat="45.82661" lon="2.89871">
        <ele>807.5</ele>
        <time>2016-12-06T13:05:16Z</time>
      </trkpt>
      <trkpt lat="45.82659" lon="2.89843">
        <ele>807</ele>
        <time>2016-12-06T13:05:19Z</time>
      </trkpt>
      <trkpt lat="45.8269" lon="2.89798">
        <ele>806.4</ele>
        <time>2016-12-06T13:05:23Z</time>
      </trkpt>
      <trkpt lat="45.82724" lon="2.89709">
        <ele>805.5</ele>
        <time>2016-12-06T13:05:31Z</time>
      </trkpt>
      <trkpt lat="45.8274" lon="2.89628">
        <ele>804.8</ele>
        <time>2016-12-06T13:05:38Z</time>
      </trkpt>
      <trkpt lat="45.82754" lon="2.89557">
        <ele>803.3</ele>
        <time>2016-12-06T13:05:43Z</time>
      </trkpt>
      <trkpt lat="45.82733" lon="2.89534">
        <ele>804.1</ele>
        <time>2016-12-06T13:05:46Z</time>
      </trkpt>
      <trkpt lat="45.82699" lon="2.89511">
        <ele>805</ele>
        <time>2016-12-06T13:05:51Z</time>
      </trkpt>
      <trkpt lat="45.82647" lon="2.89505">
        <ele>804.4</ele>
        <time>2016-12-06T13:05:57Z</time>
      </trkpt>
      <trkpt lat="45.82601" lon="2.89485">
        <ele>805.2</ele>
        <time>2016-12-06T13:06:02Z</time>
      </trkpt>
      <trkpt lat="45.82574" lon="2.89472">
        <ele>805.9</ele>
        <time>2016-12-06T13:06:05Z</time>
      </trkpt>
      <trkpt lat="45.82527" lon="2.89481">
        <ele>806.5</ele>
        <time>2016-12-06T13:06:10Z</time>
      </trkpt>
      <trkpt lat="45.82489" lon="2.8946">
        <ele>807</ele>
        <time>2016-12-06T13:06:15Z</time>
      </trkpt>
      <trkpt lat="45.82428" lon="2.89458">
        <ele>807</ele>
        <time>2016-12-06T13:06:22Z</time>
      </trkpt>
      <trkpt lat="45.82404" lon="2.89437">
        <ele>807</ele>
        <time>2016-12-06T13:06:25Z</time>
      </trkpt>
      <trkpt lat="45.82378" lon="2.894">
        <ele>806.1</ele>
        <time>2016-12-06T13:06:29Z</time>
      </trkpt>
      <trkpt lat="45.82366" lon="2.89353">
        <ele>804.7</ele>
        <time>2016-12-06T13:06:33Z</time>
      </trkpt>
      <trkpt lat="45.82351" lon="2.8929">
        <ele>804.2</ele>
        <time>2016-12-06T13:06:38Z</time>
      </trkpt>
      <trkpt lat="45.82306" lon="2.89238">
        <ele>803.5</ele>
        <time>2016-12-06T13:06:44Z</time>
      </trkpt>
      <trkpt lat="45.82259" lon="2.89172">
        <ele>802</ele>
        <time>2016-12-06T13:06:52Z</time>
      </trkpt>
      <trkpt lat="45.82223" lon="2.89123">
        <ele>801.6</ele>
        <time>2016-12-06T13:06:57Z</time>
      </trkpt>
      <trkpt lat="45.82206" lon="2.89101">
        <ele>800.9</ele>
        <time>2016-12-06T13:07:00Z</time>
      </trkpt>
      <trkpt lat="45.82184" lon="2.89107">
        <ele>800.1</ele>
        <time>2016-12-06T13:07:02Z</time>
      </trkpt>
      <trkpt lat="45.82153" lon="2.89119">
        <ele>798.7</ele>
        <time>2016-12-06T13:07:06Z</time>
      </trkpt>
      <trkpt lat="45.82136" lon="2.8907">
        <ele>795.2</ele>
        <time>2016-12-06T13:07:10Z</time>
      </trkpt>
      <trkpt lat="45.82151" lon="2.89037">
        <ele>794.5</ele>
        <time>2016-12-06T13:07:13Z</time>
      </trkpt>
      <trkpt lat="45.82148" lon="2.89016">
        <ele>793.6</ele>
        <time>2016-12-06T13:07:15Z</time>
      </trkpt>
      <trkpt lat="45.82135" lon="2.8899">
        <ele>791.7</ele>
        <time>2016-12-06T13:07:17Z</time>
      </trkpt>
      <trkpt lat="45.82097" lon="2.88973">
        <ele>790</ele>
        <time>2016-12-06T13:07:21Z</time>
      </trkpt>
      <trkpt lat="45.8207" lon="2.8893">
        <ele>790</ele>
        <time>2016-12-06T13:07:26Z</time>
      </trkpt>
      <trkpt lat="45.82038" lon="2.88893">
        <ele>790</ele>
        <time>2016-12-06T13:07:31Z</time>
      </trkpt>
      <trkpt lat="45.82005" lon="2.88864">
        <ele>790</ele>
        <time>2016-12-06T13:07:35Z</time>
      </trkpt>
      <trkpt lat="45.81957" lon="2.88856">
        <ele>790.2</ele>
        <time>2016-12-06T13:07:40Z</time>
      </trkpt>
      <trkpt lat="45.81909" lon="2.88838">
        <ele>791.4</ele>
        <time>2016-12-06T13:07:46Z</time>
      </trkpt>
      <trkpt lat="45.81865" lon="2.88821">
        <ele>792.2</ele>
        <time>2016-12-06T13:07:51Z</time>
      </trkpt>
      <trkpt lat="45.81838" lon="2.8879">
        <ele>792.3</ele>
        <time>2016-12-06T13:07:55Z</time>
      </trkpt>
      <trkpt lat="45.81812" lon="2.88716">
        <ele>791.1</ele>
        <time>2016-12-06T13:08:01Z</time>
      </trkpt>
      <trkpt lat="45.81808" lon="2.88683">
        <ele>791</ele>
        <time>2016-12-06T13:08:04Z</time>
      </trkpt>
      <trkpt lat="45.81827" lon="2.88622">
        <ele>790.2</ele>
        <time>2016-12-06T13:08:09Z</time>
      </trkpt>
      <trkpt lat="45.81837" lon="2.88568">
        <ele>790.1</ele>
        <time>2016-12-06T13:08:13Z</time>
      </trkpt>
      <trkpt lat="45.81812" lon="2.88558">
        <ele>790.7</ele>
        <time>2016-12-06T13:08:16Z</time>
      </trkpt>
      <trkpt lat="45.81787" lon="2.88538">
        <ele>791.6</ele>
        <time>2016-12-06T13:08:19Z</time>
      </trkpt>
      <trkpt lat="45.81756" lon="2.88536">
        <ele>793.3</ele>
        <time>2016-12-06T13:08:23Z</time>
      </trkpt>
      <trkpt lat="45.81729" lon="2.88568">
        <ele>793.2</ele>
        <time>2016-12-06T13:08:26Z</time>
      </trkpt>
      <trkpt lat="45.81695" lon="2.88571">
        <ele>793.1</ele>
        <time>2016-12-06T13:08:30Z</time>
      </trkpt>
      <trkpt lat="45.81612" lon="2.88548">
        <ele>795.4</ele>
        <time>2016-12-06T13:08:40Z</time>
      </trkpt>
      <trkpt lat="45.81585" lon="2.88558">
        <ele>796.5</ele>
        <time>2016-12-06T13:08:43Z</time>
      </trkpt>
      <trkpt lat="45.81558" lon="2.88548">
        <ele>798.8</ele>
        <time>2016-12-06T13:08:46Z</time>
      </trkpt>
      <trkpt lat="45.81516" lon="2.885">
        <ele>800.6</ele>
        <time>2016-12-06T13:08:52Z</time>
      </trkpt>
      <trkpt lat="45.81494" lon="2.88484">
        <ele>801.2</ele>
        <time>2016-12-06T13:08:55Z</time>
      </trkpt>
      <trkpt lat="45.81451" lon="2.88472">
        <ele>803.8</ele>
        <time>2016-12-06T13:08:59Z</time>
      </trkpt>
      <trkpt lat="45.81411" lon="2.88494">
        <ele>806.7</ele>
        <time>2016-12-06T13:09:04Z</time>
      </trkpt>
      <trkpt lat="45.81377" lon="2.88546">
        <ele>808</ele>
        <time>2016-12-06T13:09:10Z</time>
      </trkpt>
      <trkpt lat="45.81346" lon="2.88574">
        <ele>806.9</ele>
        <time>2016-12-06T13:09:14Z</time>
      </trkpt>
      <trkpt lat="45.81318" lon="2.88564">
        <ele>804.9</ele>
        <time>2016-12-06T13:09:17Z</time>
      </trkpt>
      <trkpt lat="45.81286" lon="2.8856">
        <ele>803.2</ele>
        <time>2016-12-06T13:09:21Z</time>
      </trkpt>
      <trkpt lat="45.81252" lon="2.88572">
        <ele>804.4</ele>
        <time>2016-12-06T13:09:25Z</time>
      </trkpt>
      <trkpt lat="45.81228" lon="2.88572">
        <ele>805.9</ele>
        <time>2016-12-06T13:09:27Z</time>
      </trkpt>
      <trkpt lat="45.81202" lon="2.88566">
        <ele>808.4</ele>
        <time>2016-12-06T13:09:30Z</time>
      </trkpt>
      <trkpt lat="45.81175" lon="2.88546">
        <ele>810.9</ele>
        <time>2016-12-06T13:09:33Z</time>
      </trkpt>
      <trkpt lat="45.81147" lon="2.88509">
        <ele>810.2</ele>
        <time>2016-12-06T13:09:38Z</time>
      </trkpt>
      <trkpt lat="45.81118" lon="2.88453">
        <ele>808.1</ele>
        <time>2016-12-06T13:09:43Z</time>
      </trkpt>
      <trkpt lat="45.81096" lon="2.88416">
        <ele>805.6</ele>
        <time>2016-12-06T13:09:47Z</time>
      </trkpt>
      <trkpt lat="45.81051" lon="2.88357">
        <ele>805.1</ele>
        <time>2016-12-06T13:09:54Z</time>
      </trkpt>
      <trkpt lat="45.81007" lon="2.88327">
        <ele>804.4</ele>
        <time>2016-12-06T13:09:59Z</time>
      </trkpt>
      <trkpt lat="45.80992" lon="2.88314">
        <ele>805.5</ele>
        <time>2016-12-06T13:10:01Z</time>
      </trkpt>
      <trkpt lat="45.80969" lon="2.88278">
        <ele>803.5</ele>
        <time>2016-12-06T13:10:05Z</time>
      </trkpt>
      <trkpt lat="45.80921" lon="2.88244">
        <ele>797.6</ele>
        <time>2016-12-06T13:10:11Z</time>
      </trkpt>
      <trkpt lat="45.80879" lon="2.88257">
        <ele>793.6</ele>
        <time>2016-12-06T13:10:16Z</time>
      </trkpt>
      <trkpt lat="45.80789" lon="2.88283">
        <ele>786.1</ele>
        <time>2016-12-06T13:10:26Z</time>
      </trkpt>
      <trkpt lat="45.80693" lon="2.88304">
        <ele>789.4</ele>
        <time>2016-12-06T13:10:37Z</time>
      </trkpt>
      <trkpt lat="45.80604" lon="2.88309">
        <ele>793.5</ele>
        <time>2016-12-06T13:10:47Z</time>
      </trkpt>
      <trkpt lat="45.80538" lon="2.88287">
        <ele>796.8</ele>
        <time>2016-12-06T13:10:54Z</time>
      </trkpt>
      <trkpt lat="45.80413" lon="2.88184">
        <ele>800.9</ele>
        <time>2016-12-06T13:11:10Z</time>
      </trkpt>
      <trkpt lat="45.80346" lon="2.88113">
        <ele>805</ele>
        <time>2016-12-06T13:11:19Z</time>
      </trkpt>
      <trkpt lat="45.80249" lon="2.88102">
        <ele>807.6</ele>
        <time>2016-12-06T13:11:30Z</time>
      </trkpt>
      <trkpt lat="45.80123" lon="2.88078">
        <ele>814</ele>
        <time>2016-12-06T13:11:44Z</time>
      </trkpt>
      <trkpt lat="45.80025" lon="2.88081">
        <ele>815.5</ele>
        <time>2016-12-06T13:11:55Z</time>
      </trkpt>
      <trkpt lat="45.80015" lon="2.88078">
        <ele>815.5</ele>
        <time>2016-12-06T13:11:56Z</time>
      </trkpt>
      <trkpt lat="45.80006" lon="2.8795">
        <ele>815.1</ele>
        <time>2016-12-06T13:12:06Z</time>
      </trkpt>
      <trkpt lat="45.79914" lon="2.8795">
        <ele>813.7</ele>
        <time>2016-12-06T13:12:17Z</time>
      </trkpt>
      <trkpt lat="45.79805" lon="2.87932">
        <ele>812</ele>
        <time>2016-12-06T13:12:29Z</time>
      </trkpt>
      <trkpt lat="45.79623" lon="2.87807">
        <ele>807.4</ele>
        <time>2016-12-06T13:12:51Z</time>
      </trkpt>
      <trkpt lat="45.7944" lon="2.87932">
        <ele>803.3</ele>
        <time>2016-12-06T13:13:14Z</time>
      </trkpt>
      <trkpt lat="45.79376" lon="2.87971">
        <ele>801</ele>
        <time>2016-12-06T13:13:22Z</time>
      </trkpt>
      <trkpt lat="45.79285" lon="2.88055">
        <ele>797.6</ele>
        <time>2016-12-06T13:13:34Z</time>
      </trkpt>
      <trkpt lat="45.79239" lon="2.88102">
        <ele>796.5</ele>
        <time>2016-12-06T13:13:40Z</time>
      </trkpt>
      <trkpt lat="45.79231" lon="2.88135">
        <ele>796.4</ele>
        <time>2016-12-06T13:13:43Z</time>
      </trkpt>
      <trkpt lat="45.79243" lon="2.88236">
        <ele>798.2</ele>
        <time>2016-12-06T13:13:51Z</time>
      </trkpt>
      <trkpt lat="45.79285" lon="2.8834">
        <ele>801.3</ele>
        <time>2016-12-06T13:14:00Z</time>
      </trkpt>
      <trkpt lat="45.79277" lon="2.88367">
        <ele>801.8</ele>
        <time>2016-12-06T13:14:02Z</time>
      </trkpt>
      <trkpt lat="45.79194" lon="2.88379">
        <ele>801.7</ele>
        <time>2016-12-06T13:14:11Z</time>
      </trkpt>
      <trkpt lat="45.79153" lon="2.88394">
        <ele>800.9</ele>
        <time>2016-12-06T13:14:16Z</time>
      </trkpt>
      <trkpt lat="45.79131" lon="2.8839">
        <ele>800.2</ele>
        <time>2016-12-06T13:14:19Z</time>
      </trkpt>
      <trkpt lat="45.79022" lon="2.88464">
        <ele>795.3</ele>
        <time>2016-12-06T13:14:32Z</time>
      </trkpt>
      <trkpt lat="45.78988" lon="2.88507">
        <ele>793</ele>
        <time>2016-12-06T13:14:37Z</time>
      </trkpt>
      <trkpt lat="45.78945" lon="2.88626">
        <ele>801.3</ele>
        <time>2016-12-06T13:14:47Z</time>
      </trkpt>
      <trkpt lat="45.78898" lon="2.88646">
        <ele>805.3</ele>
        <time>2016-12-06T13:14:53Z</time>
      </trkpt>
      <trkpt lat="45.78856" lon="2.88669">
        <ele>810.1</ele>
        <time>2016-12-06T13:14:58Z</time>
      </trkpt>
      <trkpt lat="45.78851" lon="2.88696">
        <ele>813.2</ele>
        <time>2016-12-06T13:15:00Z</time>
      </trkpt>
      <trkpt lat="45.78864" lon="2.88718">
        <ele>814.7</ele>
        <time>2016-12-06T13:15:02Z</time>
      </trkpt>
      <trkpt lat="45.78878" lon="2.88727">
        <ele>814.8</ele>
        <time>2016-12-06T13:15:04Z</time>
      </trkpt>
      <trkpt lat="45.7887" lon="2.88825">
        <ele>819.2</ele>
        <time>2016-12-06T13:15:12Z</time>
      </trkpt>
      <trkpt lat="45.78839" lon="2.88895">
        <ele>822</ele>
        <time>2016-12-06T13:15:18Z</time>
      </trkpt>
      <trkpt lat="45.7882" lon="2.88951">
        <ele>823.6</ele>
        <time>2016-12-06T13:15:23Z</time>
      </trkpt>
      <trkpt lat="45.78791" lon="2.88985">
        <ele>825.3</ele>
        <time>2016-12-06T13:15:27Z</time>
      </trkpt>
      <trkpt lat="45.78681" lon="2.89021">
        <ele>828.6</ele>
        <time>2016-12-06T13:15:40Z</time>
      </trkpt>
      <trkpt lat="45.7861" lon="2.89042">
        <ele>830.7</ele>
        <time>2016-12-06T13:15:48Z</time>
      </trkpt>
      <trkpt lat="45.78508" lon="2.89006">
        <ele>831.3</ele>
        <time>2016-12-06T13:15:59Z</time>
      </trkpt>
      <trkpt lat="45.78452" lon="2.89009">
        <ele>830.7</ele>
        <time>2016-12-06T13:16:06Z</time>
      </trkpt>
      <trkpt lat="45.78379" lon="2.89086">
        <ele>833.2</ele>
        <time>2016-12-06T13:16:16Z</time>
      </trkpt>
      <trkpt lat="45.78341" lon="2.89111">
        <ele>834.9</ele>
        <time>2016-12-06T13:16:20Z</time>
      </trkpt>
      <trkpt lat="45.78335" lon="2.89087">
        <ele>834.2</ele>
        <time>2016-12-06T13:16:22Z</time>
      </trkpt>
      <trkpt lat="45.78315" lon="2.8905">
        <ele>833.4</ele>
        <time>2016-12-06T13:16:26Z</time>
      </trkpt>
      <trkpt lat="45.78319" lon="2.89019">
        <ele>832.6</ele>
        <time>2016-12-06T13:16:28Z</time>
      </trkpt>
      <trkpt lat="45.78317" lon="2.88991">
        <ele>832.1</ele>
        <time>2016-12-06T13:16:31Z</time>
      </trkpt>
      <trkpt lat="45.78332" lon="2.88958">
        <ele>831.2</ele>
        <time>2016-12-06T13:16:34Z</time>
      </trkpt>
      <trkpt lat="45.7831" lon="2.88773">
        <ele>830.2</ele>
        <time>2016-12-06T13:16:48Z</time>
      </trkpt>
      <trkpt lat="45.78305" lon="2.88672">
        <ele>827.6</ele>
        <time>2016-12-06T13:16:56Z</time>
      </trkpt>
      <trkpt lat="45.78292" lon="2.88573">
        <ele>826.3</ele>
        <time>2016-12-06T13:17:04Z</time>
      </trkpt>
      <trkpt lat="45.78274" lon="2.88467">
        <ele>826.7</ele>
        <time>2016-12-06T13:17:12Z</time>
      </trkpt>
      <trkpt lat="45.78285" lon="2.88378">
        <ele>826.3</ele>
        <time>2016-12-06T13:17:19Z</time>
      </trkpt>
      <trkpt lat="45.78312" lon="2.88199">
        <ele>821.3</ele>
        <time>2016-12-06T13:17:34Z</time>
      </trkpt>
      <trkpt lat="45.78301" lon="2.88129">
        <ele>820.7</ele>
        <time>2016-12-06T13:17:39Z</time>
      </trkpt>
      <trkpt lat="45.78316" lon="2.88056">
        <ele>817.5</ele>
        <time>2016-12-06T13:17:45Z</time>
      </trkpt>
      <trkpt lat="45.78309" lon="2.87983">
        <ele>815.8</ele>
        <time>2016-12-06T13:17:51Z</time>
      </trkpt>
      <trkpt lat="45.78258" lon="2.87853">
        <ele>812.2</ele>
        <time>2016-12-06T13:18:02Z</time>
      </trkpt>
      <trkpt lat="45.78256" lon="2.87809">
        <ele>812.7</ele>
        <time>2016-12-06T13:18:06Z</time>
      </trkpt>
      <trkpt lat="45.7824" lon="2.8777">
        <ele>812.5</ele>
        <time>2016-12-06T13:18:09Z</time>
      </trkpt>
      <trkpt lat="45.78206" lon="2.87775">
        <ele>811.8</ele>
        <time>2016-12-06T13:18:13Z</time>
      </trkpt>
      <trkpt lat="45.78179" lon="2.8777">
        <ele>811.4</ele>
        <time>2016-12-06T13:18:16Z</time>
      </trkpt>
      <trkpt lat="45.78174" lon="2.87749">
        <ele>811.3</ele>
        <time>2016-12-06T13:18:18Z</time>
      </trkpt>
      <trkpt lat="45.7821" lon="2.87716">
        <ele>812</ele>
        <time>2016-12-06T13:18:23Z</time>
      </trkpt>
      <trkpt lat="45.78194" lon="2.8769">
        <ele>811.6</ele>
        <time>2016-12-06T13:18:25Z</time>
      </trkpt>
      <trkpt lat="45.78167" lon="2.87697">
        <ele>811</ele>
        <time>2016-12-06T13:18:28Z</time>
      </trkpt>
      <trkpt lat="45.78136" lon="2.87674">
        <ele>809.9</ele>
        <time>2016-12-06T13:18:32Z</time>
      </trkpt>
      <trkpt lat="45.78116" lon="2.87617">
        <ele>808.8</ele>
        <time>2016-12-06T13:18:37Z</time>
      </trkpt>
      <trkpt lat="45.78132" lon="2.87552">
        <ele>807.9</ele>
        <time>2016-12-06T13:18:42Z</time>
      </trkpt>
      <trkpt lat="45.78154" lon="2.87477">
        <ele>805.9</ele>
        <time>2016-12-06T13:18:49Z</time>
      </trkpt>
      <trkpt lat="45.7819" lon="2.87399">
        <ele>800.3</ele>
        <time>2016-12-06T13:18:56Z</time>
      </trkpt>
      <trkpt lat="45.78163" lon="2.87318">
        <ele>799.9</ele>
        <time>2016-12-06T13:19:03Z</time>
      </trkpt>
      <trkpt lat="45.78145" lon="2.87258">
        <ele>799.3</ele>
        <time>2016-12-06T13:19:08Z</time>
      </trkpt>
      <trkpt lat="45.78174" lon="2.87175">
        <ele>800.7</ele>
        <time>2016-12-06T13:19:15Z</time>
      </trkpt>
      <trkpt lat="45.78177" lon="2.87037">
        <ele>791.7</ele>
        <time>2016-12-06T13:19:26Z</time>
      </trkpt>
      <trkpt lat="45.78177" lon="2.86926">
        <ele>784.5</ele>
        <time>2016-12-06T13:19:35Z</time>
      </trkpt>
      <trkpt lat="45.78159" lon="2.86905">
        <ele>783.8</ele>
        <time>2016-12-06T13:19:37Z</time>
      </trkpt>
      <trkpt lat="45.78079" lon="2.86881">
        <ele>781.6</ele>
        <time>2016-12-06T13:19:46Z</time>
      </trkpt>
      <trkpt lat="45.77944" lon="2.86759">
        <ele>783.1</ele>
        <time>2016-12-06T13:20:04Z</time>
      </trkpt>
      <trkpt lat="45.77865" lon="2.86681">
        <ele>778.9</ele>
        <time>2016-12-06T13:20:15Z</time>
      </trkpt>
      <trkpt lat="45.77809" lon="2.86596">
        <ele>775.7</ele>
        <time>2016-12-06T13:20:24Z</time>
      </trkpt>
      <trkpt lat="45.77775" lon="2.86484">
        <ele>775.1</ele>
        <time>2016-12-06T13:20:33Z</time>
      </trkpt>
      <trkpt lat="45.77708" lon="2.86406">
        <ele>773.2</ele>
        <time>2016-12-06T13:20:43Z</time>
      </trkpt>
      <trkpt lat="45.77646" lon="2.8632">
        <ele>763.9</ele>
        <time>2016-12-06T13:20:53Z</time>
      </trkpt>
      <trkpt lat="45.77624" lon="2.8626">
        <ele>764.7</ele>
        <time>2016-12-06T13:20:58Z</time>
      </trkpt>
      <trkpt lat="45.77572" lon="2.86323">
        <ele>762.1</ele>
        <time>2016-12-06T13:21:05Z</time>
      </trkpt>
      <trkpt lat="45.77498" lon="2.86338">
        <ele>762</ele>
        <time>2016-12-06T13:21:14Z</time>
      </trkpt>
      <trkpt lat="45.77441" lon="2.86367">
        <ele>760.5</ele>
        <time>2016-12-06T13:21:20Z</time>
      </trkpt>
      <trkpt lat="45.77355" lon="2.8637">
        <ele>753.6</ele>
        <time>2016-12-06T13:21:30Z</time>
      </trkpt>
      <trkpt lat="45.77319" lon="2.86427">
        <ele>750.1</ele>
        <time>2016-12-06T13:21:36Z</time>
      </trkpt>
      <trkpt lat="45.77279" lon="2.8651">
        <ele>745.9</ele>
        <time>2016-12-06T13:21:44Z</time>
      </trkpt>
      <trkpt lat="45.77283" lon="2.86614">
        <ele>747</ele>
        <time>2016-12-06T13:21:52Z</time>
      </trkpt>
      <trkpt lat="45.77272" lon="2.86713">
        <ele>746.8</ele>
        <time>2016-12-06T13:22:00Z</time>
      </trkpt>
      <trkpt lat="45.77238" lon="2.86897">
        <ele>754.9</ele>
        <time>2016-12-06T13:22:15Z</time>
      </trkpt>
      <trkpt lat="45.77196" lon="2.86988">
        <ele>764.1</ele>
        <time>2016-12-06T13:22:23Z</time>
      </trkpt>
      <trkpt lat="45.77169" lon="2.86996">
        <ele>762.8</ele>
        <time>2016-12-06T13:22:26Z</time>
      </trkpt>
      <trkpt lat="45.77142" lon="2.87082">
        <ele>773.7</ele>
        <time>2016-12-06T13:22:33Z</time>
      </trkpt>
      <trkpt lat="45.77104" lon="2.87157">
        <ele>780.7</ele>
        <time>2016-12-06T13:22:41Z</time>
      </trkpt>
      <trkpt lat="45.77034" lon="2.87261">
        <ele>788.9</ele>
        <time>2016-12-06T13:22:52Z</time>
      </trkpt>
      <trkpt lat="45.76914" lon="2.8758">
        <ele>787.4</ele>
        <time>2016-12-06T13:23:20Z</time>
      </trkpt>
      <trkpt lat="45.77022" lon="2.87588">
        <ele>786.3</ele>
        <time>2016-12-06T13:23:32Z</time>
      </trkpt>
      <trkpt lat="45.77092" lon="2.8757">
        <ele>784.7</ele>
        <time>2016-12-06T13:23:40Z</time>
      </trkpt>
      <trkpt lat="45.77165" lon="2.87606">
        <ele>785.9</ele>
        <time>2016-12-06T13:23:49Z</time>
      </trkpt>
      <trkpt lat="45.77183" lon="2.8763">
        <ele>787.7</ele>
        <time>2016-12-06T13:23:51Z</time>
      </trkpt>
      <trkpt lat="45.77207" lon="2.87664">
        <ele>789.6</ele>
        <time>2016-12-06T13:23:55Z</time>
      </trkpt>
      <trkpt lat="45.77223" lon="2.87643">
        <ele>791</ele>
        <time>2016-12-06T13:23:57Z</time>
      </trkpt>
      <trkpt lat="45.7723" lon="2.87604">
        <ele>792</ele>
        <time>2016-12-06T13:24:01Z</time>
      </trkpt>
      <trkpt lat="45.77243" lon="2.87612">
        <ele>793.2</ele>
        <time>2016-12-06T13:24:02Z</time>
      </trkpt>
      <trkpt lat="45.77259" lon="2.87643">
        <ele>793.9</ele>
        <time>2016-12-06T13:24:05Z</time>
      </trkpt>
      <trkpt lat="45.77311" lon="2.87651">
        <ele>796.6</ele>
        <time>2016-12-06T13:24:11Z</time>
      </trkpt>
      <trkpt lat="45.77363" lon="2.87666">
        <ele>798.8</ele>
        <time>2016-12-06T13:24:17Z</time>
      </trkpt>
      <trkpt lat="45.77383" lon="2.87718">
        <ele>802.4</ele>
        <time>2016-12-06T13:24:22Z</time>
      </trkpt>
      <trkpt lat="45.77501" lon="2.87796">
        <ele>810.9</ele>
        <time>2016-12-06T13:24:36Z</time>
      </trkpt>
      <trkpt lat="45.77516" lon="2.87846">
        <ele>813.9</ele>
        <time>2016-12-06T13:24:40Z</time>
      </trkpt>
      <trkpt lat="45.77541" lon="2.87879">
        <ele>816.8</ele>
        <time>2016-12-06T13:24:44Z</time>
      </trkpt>
      <trkpt lat="45.77566" lon="2.879">
        <ele>817.8</ele>
        <time>2016-12-06T13:24:47Z</time>
      </trkpt>
      <trkpt lat="45.77616" lon="2.87882">
        <ele>817.7</ele>
        <time>2016-12-06T13:24:53Z</time>
      </trkpt>
      <trkpt lat="45.77647" lon="2.87866">
        <ele>817.8</ele>
        <time>2016-12-06T13:24:57Z</time>
      </trkpt>
      <trkpt lat="45.77663" lon="2.8789">
        <ele>817</ele>
        <time>2016-12-06T13:24:59Z</time>
      </trkpt>
      <trkpt lat="45.77609" lon="2.8796">
        <ele>817.9</ele>
        <time>2016-12-06T13:25:07Z</time>
      </trkpt>
      <trkpt lat="45.77582" lon="2.88046">
        <ele>818.3</ele>
        <time>2016-12-06T13:25:15Z</time>
      </trkpt>
      <trkpt lat="45.77552" lon="2.88144">
        <ele>818.1</ele>
        <time>2016-12-06T13:25:23Z</time>
      </trkpt>
      <trkpt lat="45.77593" lon="2.88217">
        <ele>816.2</ele>
        <time>2016-12-06T13:25:30Z</time>
      </trkpt>
      <trkpt lat="45.77961" lon="2.89254">
        <ele>836.7</ele>
        <time>2016-12-06T13:27:01Z</time>
      </trkpt>
      <trkpt lat="45.7767" lon="2.8947">
        <ele>841.5</ele>
        <time>2016-12-06T13:27:37Z</time>
      </trkpt>
      <trkpt lat="45.77579" lon="2.89476">
        <ele>846.7</ele>
        <time>2016-12-06T13:27:47Z</time>
      </trkpt>
      <trkpt lat="45.77549" lon="2.89539">
        <ele>847.9</ele>
        <time>2016-12-06T13:27:53Z</time>
      </trkpt>
      <trkpt lat="45.77502" lon="2.89578">
        <ele>846.6</ele>
        <time>2016-12-06T13:27:59Z</time>
      </trkpt>
      <trkpt lat="45.77464" lon="2.89611">
        <ele>846.5</ele>
        <time>2016-12-06T13:28:04Z</time>
      </trkpt>
      <trkpt lat="45.7743" lon="2.89637">
        <ele>846</ele>
        <time>2016-12-06T13:28:08Z</time>
      </trkpt>
      <trkpt lat="45.77452" lon="2.89669">
        <ele>847.6</ele>
        <time>2016-12-06T13:28:12Z</time>
      </trkpt>
      <trkpt lat="45.77509" lon="2.89684">
        <ele>849.3</ele>
        <time>2016-12-06T13:28:18Z</time>
      </trkpt>
      <trkpt lat="45.77561" lon="2.89747">
        <ele>849.8</ele>
        <time>2016-12-06T13:28:26Z</time>
      </trkpt>
      <trkpt lat="45.77601" lon="2.8985">
        <ele>852</ele>
        <time>2016-12-06T13:28:35Z</time>
      </trkpt>
      <trkpt lat="45.77619" lon="2.89975">
        <ele>854.6</ele>
        <time>2016-12-06T13:28:45Z</time>
      </trkpt>
      <trkpt lat="45.77669" lon="2.90168">
        <ele>857.7</ele>
        <time>2016-12-06T13:29:01Z</time>
      </trkpt>
      <trkpt lat="45.77687" lon="2.9031">
        <ele>860</ele>
        <time>2016-12-06T13:29:12Z</time>
      </trkpt>
      <trkpt lat="45.77698" lon="2.90513">
        <ele>862.8</ele>
        <time>2016-12-06T13:29:28Z</time>
      </trkpt>
      <trkpt lat="45.77637" lon="2.90721">
        <ele>866.6</ele>
        <time>2016-12-06T13:29:45Z</time>
      </trkpt>
      <trkpt lat="45.77597" lon="2.90731">
        <ele>862.4</ele>
        <time>2016-12-06T13:29:50Z</time>
      </trkpt>
      <trkpt lat="45.7754" lon="2.90699">
        <ele>856.4</ele>
        <time>2016-12-06T13:29:57Z</time>
      </trkpt>
      <trkpt lat="45.7754" lon="2.90731">
        <ele>857.6</ele>
        <time>2016-12-06T13:29:59Z</time>
      </trkpt>
      <trkpt lat="45.77548" lon="2.90791">
        <ele>858.3</ele>
        <time>2016-12-06T13:30:04Z</time>
      </trkpt>
      <trkpt lat="45.77597" lon="2.90879">
        <ele>864.8</ele>
        <time>2016-12-06T13:30:13Z</time>
      </trkpt>
      <trkpt lat="45.77664" lon="2.90921">
        <ele>869.3</ele>
        <time>2016-12-06T13:30:21Z</time>
      </trkpt>
      <trkpt lat="45.77674" lon="2.90991">
        <ele>870.1</ele>
        <time>2016-12-06T13:30:26Z</time>
      </trkpt>
      <trkpt lat="45.77669" lon="2.91141">
        <ele>876.4</ele>
        <time>2016-12-06T13:30:38Z</time>
      </trkpt>
      <trkpt lat="45.77654" lon="2.91225">
        <ele>878.9</ele>
        <time>2016-12-06T13:30:45Z</time>
      </trkpt>
      <trkpt lat="45.77669" lon="2.91342">
        <ele>880.3</ele>
        <time>2016-12-06T13:30:54Z</time>
      </trkpt>
      <trkpt lat="45.77653" lon="2.91443">
        <ele>880.9</ele>
        <time>2016-12-06T13:31:02Z</time>
      </trkpt>
      <trkpt lat="45.77651" lon="2.91508">
        <ele>883.2</ele>
        <time>2016-12-06T13:31:07Z</time>
      </trkpt>
      <trkpt lat="45.77627" lon="2.91485">
        <ele>880.8</ele>
        <time>2016-12-06T13:31:10Z</time>
      </trkpt>
      <trkpt lat="45.77637" lon="2.91532">
        <ele>884.4</ele>
        <time>2016-12-06T13:31:14Z</time>
      </trkpt>
      <trkpt lat="45.77674" lon="2.9159">
        <ele>890.1</ele>
        <time>2016-12-06T13:31:20Z</time>
      </trkpt>
      <trkpt lat="45.77707" lon="2.91666">
        <ele>893.2</ele>
        <time>2016-12-06T13:31:27Z</time>
      </trkpt>
      <trkpt lat="45.77723" lon="2.91737">
        <ele>895.6</ele>
        <time>2016-12-06T13:31:33Z</time>
      </trkpt>
      <trkpt lat="45.77709" lon="2.91844">
        <ele>898.2</ele>
        <time>2016-12-06T13:31:41Z</time>
      </trkpt>
      <trkpt lat="45.77724" lon="2.91972">
        <ele>897.6</ele>
        <time>2016-12-06T13:31:51Z</time>
      </trkpt>
      <trkpt lat="45.77769" lon="2.9213">
        <ele>895.1</ele>
        <time>2016-12-06T13:32:05Z</time>
      </trkpt>
      <trkpt lat="45.77786" lon="2.92179">
        <ele>897</ele>
        <time>2016-12-06T13:32:09Z</time>
      </trkpt>
      <trkpt lat="45.77783" lon="2.923">
        <ele>906.1</ele>
        <time>2016-12-06T13:32:18Z</time>
      </trkpt>
      <trkpt lat="45.77789" lon="2.92403">
        <ele>908</ele>
        <time>2016-12-06T13:32:26Z</time>
      </trkpt>
      <trkpt lat="45.77761" lon="2.92547">
        <ele>912.3</ele>
        <time>2016-12-06T13:32:38Z</time>
      </trkpt>
      <trkpt lat="45.77752" lon="2.92684">
        <ele>916.5</ele>
        <time>2016-12-06T13:32:49Z</time>
      </trkpt>
      <trkpt lat="45.77763" lon="2.92812">
        <ele>920.4</ele>
        <time>2016-12-06T13:32:59Z</time>
      </trkpt>
      <trkpt lat="45.77771" lon="2.92929">
        <ele>925</ele>
        <time>2016-12-06T13:33:08Z</time>
      </trkpt>
      <trkpt lat="45.77782" lon="2.92947">
        <ele>925.8</ele>
        <time>2016-12-06T13:33:10Z</time>
      </trkpt>
      <trkpt lat="45.77789" lon="2.93001">
        <ele>927.5</ele>
        <time>2016-12-06T13:33:14Z</time>
      </trkpt>
      <trkpt lat="45.77769" lon="2.93034">
        <ele>928.7</ele>
        <time>2016-12-06T13:33:17Z</time>
      </trkpt>
      <trkpt lat="45.77701" lon="2.93069">
        <ele>932.9</ele>
        <time>2016-12-06T13:33:25Z</time>
      </trkpt>
      <trkpt lat="45.77654" lon="2.93071">
        <ele>937.1</ele>
        <time>2016-12-06T13:33:30Z</time>
      </trkpt>
      <trkpt lat="45.77618" lon="2.93029">
        <ele>938</ele>
        <time>2016-12-06T13:33:36Z</time>
      </trkpt>
      <trkpt lat="45.77587" lon="2.93011">
        <ele>938.3</ele>
        <time>2016-12-06T13:33:39Z</time>
      </trkpt>
      <trkpt lat="45.77529" lon="2.93064">
        <ele>941.7</ele>
        <time>2016-12-06T13:33:47Z</time>
      </trkpt>
      <trkpt lat="45.77412" lon="2.93161">
        <ele>943</ele>
        <time>2016-12-06T13:34:02Z</time>
      </trkpt>
      <trkpt lat="45.77356" lon="2.9328">
        <ele>941.8</ele>
        <time>2016-12-06T13:34:13Z</time>
      </trkpt>
      <trkpt lat="45.77285" lon="2.93432">
        <ele>941</ele>
        <time>2016-12-06T13:34:27Z</time>
      </trkpt>
      <trkpt lat="45.77311" lon="2.93539">
        <ele>942</ele>
        <time>2016-12-06T13:34:36Z</time>
      </trkpt>
      <trkpt lat="45.77376" lon="2.93601">
        <ele>945.9</ele>
        <time>2016-12-06T13:34:45Z</time>
      </trkpt>
      <trkpt lat="45.77435" lon="2.93675">
        <ele>948.8</ele>
        <time>2016-12-06T13:34:54Z</time>
      </trkpt>
      <trkpt lat="45.77341" lon="2.9373">
        <ele>946.7</ele>
        <time>2016-12-06T13:35:05Z</time>
      </trkpt>
      <trkpt lat="45.77284" lon="2.93737">
        <ele>945.6</ele>
        <time>2016-12-06T13:35:11Z</time>
      </trkpt>
      <trkpt lat="45.77238" lon="2.9378">
        <ele>946.5</ele>
        <time>2016-12-06T13:35:17Z</time>
      </trkpt>
      <trkpt lat="45.77184" lon="2.93776">
        <ele>947</ele>
        <time>2016-12-06T13:35:23Z</time>
      </trkpt>
      <trkpt lat="45.77041" lon="2.93819">
        <ele>952.1</ele>
        <time>2016-12-06T13:35:40Z</time>
      </trkpt>
      <trkpt lat="45.76826" lon="2.938">
        <ele>959.2</ele>
        <time>2016-12-06T13:36:04Z</time>
      </trkpt>
      <trkpt lat="45.76653" lon="2.9394">
        <ele>973.4</ele>
        <time>2016-12-06T13:36:26Z</time>
      </trkpt>
      <trkpt lat="45.76591" lon="2.94038">
        <ele>979.1</ele>
        <time>2016-12-06T13:36:36Z</time>
      </trkpt>
      <trkpt lat="45.76537" lon="2.94178">
        <ele>986.9</ele>
        <time>2016-12-06T13:36:48Z</time>
      </trkpt>
      <trkpt lat="45.76459" lon="2.94295">
        <ele>995.1</ele>
        <time>2016-12-06T13:37:01Z</time>
      </trkpt>
      <trkpt lat="45.7643" lon="2.94458">
        <ele>1002.1</ele>
        <time>2016-12-06T13:37:14Z</time>
      </trkpt>
      <trkpt lat="45.76438" lon="2.94525">
        <ele>1004.1</ele>
        <time>2016-12-06T13:37:19Z</time>
      </trkpt>
      <trkpt lat="45.76387" lon="2.9463">
        <ele>1008.4</ele>
        <time>2016-12-06T13:37:29Z</time>
      </trkpt>
      <trkpt lat="45.76351" lon="2.94642">
        <ele>1012.4</ele>
        <time>2016-12-06T13:37:33Z</time>
      </trkpt>
      <trkpt lat="45.76333" lon="2.94599">
        <ele>1015.6</ele>
        <time>2016-12-06T13:37:37Z</time>
      </trkpt>
      <trkpt lat="45.76314" lon="2.94458">
        <ele>1012.2</ele>
        <time>2016-12-06T13:37:48Z</time>
      </trkpt>
      <trkpt lat="45.76225" lon="2.94275">
        <ele>1004</ele>
        <time>2016-12-06T13:38:06Z</time>
      </trkpt>
      <trkpt lat="45.76133" lon="2.94108">
        <ele>996.2</ele>
        <time>2016-12-06T13:38:22Z</time>
      </trkpt>
      <trkpt lat="45.76044" lon="2.93983">
        <ele>991.8</ele>
        <time>2016-12-06T13:38:36Z</time>
      </trkpt>
      <trkpt lat="45.75945" lon="2.93917">
        <ele>989.4</ele>
        <time>2016-12-06T13:38:48Z</time>
      </trkpt>
      <trkpt lat="45.75802" lon="2.93889">
        <ele>989</ele>
        <time>2016-12-06T13:39:04Z</time>
      </trkpt>
      <trkpt lat="45.7567" lon="2.93909">
        <ele>990.1</ele>
        <time>2016-12-06T13:39:19Z</time>
      </trkpt>
      <trkpt lat="45.75655" lon="2.93921">
        <ele>990</ele>
        <time>2016-12-06T13:39:21Z</time>
      </trkpt>
      <trkpt lat="45.75704" lon="2.94046">
        <ele>993.5</ele>
        <time>2016-12-06T13:39:32Z</time>
      </trkpt>
      <trkpt lat="45.75706" lon="2.94062">
        <ele>994.6</ele>
        <time>2016-12-06T13:39:33Z</time>
      </trkpt>
      <trkpt lat="45.75731" lon="2.94132">
        <ele>997.6</ele>
        <time>2016-12-06T13:39:39Z</time>
      </trkpt>
      <trkpt lat="45.75535" lon="2.94225">
        <ele>1029.3</ele>
        <time>2016-12-06T13:40:03Z</time>
      </trkpt>
      <trkpt lat="45.7535" lon="2.94238">
        <ele>1028.1</ele>
        <time>2016-12-06T13:40:23Z</time>
      </trkpt>
      <trkpt lat="45.75278" lon="2.94251">
        <ele>1025.7</ele>
        <time>2016-12-06T13:40:31Z</time>
      </trkpt>
      <trkpt lat="45.75219" lon="2.94277">
        <ele>1028.8</ele>
        <time>2016-12-06T13:40:38Z</time>
      </trkpt>
      <trkpt lat="45.75186" lon="2.94262">
        <ele>1031.3</ele>
        <time>2016-12-06T13:40:42Z</time>
      </trkpt>
      <trkpt lat="45.75113" lon="2.94132">
        <ele>1028.3</ele>
        <time>2016-12-06T13:40:55Z</time>
      </trkpt>
      <trkpt lat="45.7508" lon="2.94124">
        <ele>1027.6</ele>
        <time>2016-12-06T13:40:59Z</time>
      </trkpt>
      <trkpt lat="45.75023" lon="2.94155">
        <ele>1034.2</ele>
        <time>2016-12-06T13:41:05Z</time>
      </trkpt>
      <trkpt lat="45.74958" lon="2.94173">
        <ele>1038</ele>
        <time>2016-12-06T13:41:13Z</time>
      </trkpt>
      <trkpt lat="45.74728" lon="2.94199">
        <ele>1042.9</ele>
        <time>2016-12-06T13:41:38Z</time>
      </trkpt>
      <trkpt lat="45.74673" lon="2.94189">
        <ele>1040.1</ele>
        <time>2016-12-06T13:41:45Z</time>
      </trkpt>
      <trkpt lat="45.74613" lon="2.94194">
        <ele>1039.2</ele>
        <time>2016-12-06T13:41:51Z</time>
      </trkpt>
      <trkpt lat="45.74574" lon="2.9422">
        <ele>1040.5</ele>
        <time>2016-12-06T13:41:56Z</time>
      </trkpt>
      <trkpt lat="45.74559" lon="2.94238">
        <ele>1041.5</ele>
        <time>2016-12-06T13:41:58Z</time>
      </trkpt>
      <trkpt lat="45.74425" lon="2.9434">
        <ele>1043.1</ele>
        <time>2016-12-06T13:42:15Z</time>
      </trkpt>
      <trkpt lat="45.74355" lon="2.94431">
        <ele>1047.1</ele>
        <time>2016-12-06T13:42:26Z</time>
      </trkpt>
      <trkpt lat="45.74259" lon="2.94469">
        <ele>1046.9</ele>
        <time>2016-12-06T13:42:37Z</time>
      </trkpt>
      <trkpt lat="45.74225" lon="2.94729">
        <ele>1064.4</ele>
        <time>2016-12-06T13:42:57Z</time>
      </trkpt>
      <trkpt lat="45.74209" lon="2.94916">
        <ele>1065.4</ele>
        <time>2016-12-06T13:43:12Z</time>
      </trkpt>
      <trkpt lat="45.7422" lon="2.95072">
        <ele>1057.6</ele>
        <time>2016-12-06T13:43:24Z</time>
      </trkpt>
      <trkpt lat="45.74254" lon="2.95207">
        <ele>1046.6</ele>
        <time>2016-12-06T13:43:35Z</time>
      </trkpt>
      <trkpt lat="45.74331" lon="2.95389">
        <ele>1031.6</ele>
        <time>2016-12-06T13:43:52Z</time>
      </trkpt>
      <trkpt lat="45.74401" lon="2.95529">
        <ele>1020.2</ele>
        <time>2016-12-06T13:44:05Z</time>
      </trkpt>
      <trkpt lat="45.74452" lon="2.95571">
        <ele>1019.1</ele>
        <time>2016-12-06T13:44:12Z</time>
      </trkpt>
      <trkpt lat="45.74482" lon="2.95636">
        <ele>1014.3</ele>
        <time>2016-12-06T13:44:18Z</time>
      </trkpt>
      <trkpt lat="45.74572" lon="2.95771">
        <ele>1001.3</ele>
        <time>2016-12-06T13:44:32Z</time>
      </trkpt>
      <trkpt lat="45.7459" lon="2.95825">
        <ele>996.5</ele>
        <time>2016-12-06T13:44:37Z</time>
      </trkpt>
      <trkpt lat="45.74617" lon="2.95867">
        <ele>994.2</ele>
        <time>2016-12-06T13:44:42Z</time>
      </trkpt>
      <trkpt lat="45.74726" lon="2.95867">
        <ele>1000.1</ele>
        <time>2016-12-06T13:44:54Z</time>
      </trkpt>
      <trkpt lat="45.74868" lon="2.96002">
        <ele>986.2</ele>
        <time>2016-12-06T13:45:13Z</time>
      </trkpt>
      <trkpt lat="45.74874" lon="2.96095">
        <ele>979.1</ele>
        <time>2016-12-06T13:45:20Z</time>
      </trkpt>
      <trkpt lat="45.74843" lon="2.96163">
        <ele>976.6</ele>
        <time>2016-12-06T13:45:26Z</time>
      </trkpt>
      <trkpt lat="45.74685" lon="2.9623">
        <ele>976.2</ele>
        <time>2016-12-06T13:45:45Z</time>
      </trkpt>
      <trkpt lat="45.74514" lon="2.96251">
        <ele>980.7</ele>
        <time>2016-12-06T13:46:04Z</time>
      </trkpt>
      <trkpt lat="45.74239" lon="2.96404">
        <ele>987.9</ele>
        <time>2016-12-06T13:46:36Z</time>
      </trkpt>
      <trkpt lat="45.7418" lon="2.96427">
        <ele>984.9</ele>
        <time>2016-12-06T13:46:43Z</time>
      </trkpt>
      <trkpt lat="45.74165" lon="2.9619">
        <ele>995.3</ele>
        <time>2016-12-06T13:47:02Z</time>
      </trkpt>
      <trkpt lat="45.74164" lon="2.96154">
        <ele>998.5</ele>
        <time>2016-12-06T13:47:05Z</time>
      </trkpt>
      <trkpt lat="45.74018" lon="2.96243">
        <ele>990.6</ele>
        <time>2016-12-06T13:47:22Z</time>
      </trkpt>
      <trkpt lat="45.73879" lon="2.96373">
        <ele>995</ele>
        <time>2016-12-06T13:47:41Z</time>
      </trkpt>
      <trkpt lat="45.7383" lon="2.96429">
        <ele>995.8</ele>
        <time>2016-12-06T13:47:48Z</time>
      </trkpt>
      <trkpt lat="45.73724" lon="2.96501">
        <ele>995.5</ele>
        <time>2016-12-06T13:48:01Z</time>
      </trkpt>
      <trkpt lat="45.73636" lon="2.96595">
        <ele>993.1</ele>
        <time>2016-12-06T13:48:13Z</time>
      </trkpt>
      <trkpt lat="45.73562" lon="2.9668">
        <ele>991</ele>
        <time>2016-12-06T13:48:24Z</time>
      </trkpt>
      <trkpt lat="45.73469" lon="2.96831">
        <ele>986</ele>
        <time>2016-12-06T13:48:39Z</time>
      </trkpt>
      <trkpt lat="45.73325" lon="2.9699">
        <ele>981</ele>
        <time>2016-12-06T13:48:59Z</time>
      </trkpt>
      <trkpt lat="45.73271" lon="2.97057">
        <ele>979.5</ele>
        <time>2016-12-06T13:49:07Z</time>
      </trkpt>
      <trkpt lat="45.73224" lon="2.97091">
        <ele>978.1</ele>
        <time>2016-12-06T13:49:13Z</time>
      </trkpt>
      <trkpt lat="45.73241" lon="2.97131">
        <ele>977.9</ele>
        <time>2016-12-06T13:49:17Z</time>
      </trkpt>
      <trkpt lat="45.73248" lon="2.97147">
        <ele>978.1</ele>
        <time>2016-12-06T13:49:18Z</time>
      </trkpt>
      <trkpt lat="45.73265" lon="2.97192">
        <ele>977.9</ele>
        <time>2016-12-06T13:49:22Z</time>
      </trkpt>
      <trkpt lat="45.73269" lon="2.97286">
        <ele>980.8</ele>
        <time>2016-12-06T13:49:30Z</time>
      </trkpt>
      <trkpt lat="45.73266" lon="2.97325">
        <ele>982</ele>
        <time>2016-12-06T13:49:33Z</time>
      </trkpt>
      <trkpt lat="45.73237" lon="2.97355">
        <ele>980.5</ele>
        <time>2016-12-06T13:49:37Z</time>
      </trkpt>
      <trkpt lat="45.73222" lon="2.97376">
        <ele>978.9</ele>
        <time>2016-12-06T13:49:39Z</time>
      </trkpt>
      <trkpt lat="45.73222" lon="2.974">
        <ele>978.9</ele>
        <time>2016-12-06T13:49:41Z</time>
      </trkpt>
      <trkpt lat="45.73273" lon="2.97498">
        <ele>986.4</ele>
        <time>2016-12-06T13:49:50Z</time>
      </trkpt>
      <trkpt lat="45.73294" lon="2.97582">
        <ele>989.6</ele>
        <time>2016-12-06T13:49:57Z</time>
      </trkpt>
      <trkpt lat="45.73312" lon="2.97706">
        <ele>992.6</ele>
        <time>2016-12-06T13:50:07Z</time>
      </trkpt>
      <trkpt lat="45.73318" lon="2.97774">
        <ele>993.2</ele>
        <time>2016-12-06T13:50:12Z</time>
      </trkpt>
      <trkpt lat="45.73348" lon="2.97906">
        <ele>993.2</ele>
        <time>2016-12-06T13:50:23Z</time>
      </trkpt>
      <trkpt lat="45.73395" lon="2.98086">
        <ele>992.2</ele>
        <time>2016-12-06T13:50:38Z</time>
      </trkpt>
      <trkpt lat="45.73456" lon="2.98345">
        <ele>987</ele>
        <time>2016-12-06T13:50:59Z</time>
      </trkpt>
      <trkpt lat="45.73474" lon="2.98387">
        <ele>988</ele>
        <time>2016-12-06T13:51:03Z</time>
      </trkpt>
      <trkpt lat="45.7349" lon="2.9841">
        <ele>989.5</ele>
        <time>2016-12-06T13:51:06Z</time>
      </trkpt>
      <trkpt lat="45.73522" lon="2.98423">
        <ele>993.1</ele>
        <time>2016-12-06T13:51:09Z</time>
      </trkpt>
      <trkpt lat="45.73522" lon="2.9846">
        <ele>993</ele>
        <time>2016-12-06T13:51:12Z</time>
      </trkpt>
      <trkpt lat="45.73504" lon="2.98537">
        <ele>992.9</ele>
        <time>2016-12-06T13:51:18Z</time>
      </trkpt>
      <trkpt lat="45.73458" lon="2.98531">
        <ele>988.7</ele>
        <time>2016-12-06T13:51:24Z</time>
      </trkpt>
      <trkpt lat="45.7345" lon="2.98543">
        <ele>988.7</ele>
        <time>2016-12-06T13:51:25Z</time>
      </trkpt>
      <trkpt lat="45.73424" lon="2.98792">
        <ele>993.1</ele>
        <time>2016-12-06T13:51:44Z</time>
      </trkpt>
      <trkpt lat="45.73389" lon="2.99096">
        <ele>985</ele>
        <time>2016-12-06T13:52:08Z</time>
      </trkpt>
      <trkpt lat="45.73355" lon="2.99205">
        <ele>982.2</ele>
        <time>2016-12-06T13:52:18Z</time>
      </trkpt>
      <trkpt lat="45.73319" lon="2.99314">
        <ele>982.5</ele>
        <time>2016-12-06T13:52:27Z</time>
      </trkpt>
      <trkpt lat="45.73291" lon="2.99353">
        <ele>983.1</ele>
        <time>2016-12-06T13:52:31Z</time>
      </trkpt>
      <trkpt lat="45.73237" lon="2.99405">
        <ele>986.3</ele>
        <time>2016-12-06T13:52:39Z</time>
      </trkpt>
      <trkpt lat="45.73251" lon="2.99435">
        <ele>988.1</ele>
        <time>2016-12-06T13:52:41Z</time>
      </trkpt>
      <trkpt lat="45.73244" lon="2.99458">
        <ele>990</ele>
        <time>2016-12-06T13:52:43Z</time>
      </trkpt>
      <trkpt lat="45.73212" lon="2.99515">
        <ele>991.9</ele>
        <time>2016-12-06T13:52:49Z</time>
      </trkpt>
      <trkpt lat="45.73194" lon="2.99527">
        <ele>991.8</ele>
        <time>2016-12-06T13:52:51Z</time>
      </trkpt>
      <trkpt lat="45.73181" lon="2.99567">
        <ele>991.2</ele>
        <time>2016-12-06T13:52:55Z</time>
      </trkpt>
      <trkpt lat="45.73141" lon="2.99638">
        <ele>988.7</ele>
        <time>2016-12-06T13:53:02Z</time>
      </trkpt>
      <trkpt lat="45.73104" lon="2.99697">
        <ele>986.3</ele>
        <time>2016-12-06T13:53:08Z</time>
      </trkpt>
      <trkpt lat="45.73034" lon="2.99752">
        <ele>985.3</ele>
        <time>2016-12-06T13:53:17Z</time>
      </trkpt>
      <trkpt lat="45.72983" lon="2.99777">
        <ele>985.9</ele>
        <time>2016-12-06T13:53:23Z</time>
      </trkpt>
      <trkpt lat="45.72981" lon="2.99797">
        <ele>987.6</ele>
        <time>2016-12-06T13:53:24Z</time>
      </trkpt>
      <trkpt lat="45.7299" lon="2.99832">
        <ele>990.6</ele>
        <time>2016-12-06T13:53:27Z</time>
      </trkpt>
      <trkpt lat="45.73035" lon="2.999">
        <ele>986.3</ele>
        <time>2016-12-06T13:53:35Z</time>
      </trkpt>
      <trkpt lat="45.73025" lon="2.99904">
        <ele>987.9</ele>
        <time>2016-12-06T13:53:36Z</time>
      </trkpt>
      <trkpt lat="45.7299" lon="2.99901">
        <ele>994.3</ele>
        <time>2016-12-06T13:53:40Z</time>
      </trkpt>
      <trkpt lat="45.72973" lon="2.99931">
        <ele>997.3</ele>
        <time>2016-12-06T13:53:43Z</time>
      </trkpt>
      <trkpt lat="45.72946" lon="2.99925">
        <ele>1000.2</ele>
        <time>2016-12-06T13:53:46Z</time>
      </trkpt>
      <trkpt lat="45.72858" lon="2.99875">
        <ele>990.5</ele>
        <time>2016-12-06T13:53:56Z</time>
      </trkpt>
      <trkpt lat="45.72819" lon="2.9987">
        <ele>984.7</ele>
        <time>2016-12-06T13:54:01Z</time>
      </trkpt>
      <trkpt lat="45.72781" lon="2.99912">
        <ele>982.7</ele>
        <time>2016-12-06T13:54:06Z</time>
      </trkpt>
      <trkpt lat="45.72741" lon="2.9999">
        <ele>980</ele>
        <time>2016-12-06T13:54:14Z</time>
      </trkpt>
      <trkpt lat="45.72684" lon="3.0005">
        <ele>969.4</ele>
        <time>2016-12-06T13:54:22Z</time>
      </trkpt>
      <trkpt lat="45.72603" lon="3.00003">
        <ele>967.3</ele>
        <time>2016-12-06T13:54:31Z</time>
      </trkpt>
      <trkpt lat="45.72583" lon="3.00126">
        <ele>957.8</ele>
        <time>2016-12-06T13:54:41Z</time>
      </trkpt>
      <trkpt lat="45.72541" lon="3.00163">
        <ele>952.2</ele>
        <time>2016-12-06T13:54:47Z</time>
      </trkpt>
      <trkpt lat="45.72508" lon="3.00223">
        <ele>947.7</ele>
        <time>2016-12-06T13:54:53Z</time>
      </trkpt>
      <trkpt lat="45.72475" lon="3.00311">
        <ele>941.6</ele>
        <time>2016-12-06T13:55:00Z</time>
      </trkpt>
      <trkpt lat="45.72452" lon="3.00348">
        <ele>938.6</ele>
        <time>2016-12-06T13:55:04Z</time>
      </trkpt>
      <trkpt lat="45.72442" lon="3.00375">
        <ele>935.7</ele>
        <time>2016-12-06T13:55:07Z</time>
      </trkpt>
      <trkpt lat="45.72329" lon="3.00471">
        <ele>922.5</ele>
        <time>2016-12-06T13:55:21Z</time>
      </trkpt>
      <trkpt lat="45.7229" lon="3.00527">
        <ele>916.6</ele>
        <time>2016-12-06T13:55:27Z</time>
      </trkpt>
      <trkpt lat="45.72239" lon="3.00656">
        <ele>908.7</ele>
        <time>2016-12-06T13:55:39Z</time>
      </trkpt>
      <trkpt lat="45.72154" lon="3.00855">
        <ele>900.5</ele>
        <time>2016-12-06T13:55:57Z</time>
      </trkpt>
      <trkpt lat="45.72118" lon="3.01005">
        <ele>895.2</ele>
        <time>2016-12-06T13:56:09Z</time>
      </trkpt>
      <trkpt lat="45.72073" lon="3.01081">
        <ele>893.5</ele>
        <time>2016-12-06T13:56:17Z</time>
      </trkpt>
      <trkpt lat="45.72033" lon="3.01114">
        <ele>894.5</ele>
        <time>2016-12-06T13:56:22Z</time>
      </trkpt>
      <trkpt lat="45.7203" lon="3.01147">
        <ele>894.6</ele>
        <time>2016-12-06T13:56:25Z</time>
      </trkpt>
      <trkpt lat="45.72029" lon="3.01221">
        <ele>893.4</ele>
        <time>2016-12-06T13:56:31Z</time>
      </trkpt>
      <trkpt lat="45.71995" lon="3.01354">
        <ele>890.5</ele>
        <time>2016-12-06T13:56:42Z</time>
      </trkpt>
      <trkpt lat="45.71956" lon="3.01394">
        <ele>891.5</ele>
        <time>2016-12-06T13:56:47Z</time>
      </trkpt>
      <trkpt lat="45.71932" lon="3.01437">
        <ele>891.9</ele>
        <time>2016-12-06T13:56:51Z</time>
      </trkpt>
      <trkpt lat="45.7193" lon="3.01521">
        <ele>889.9</ele>
        <time>2016-12-06T13:56:58Z</time>
      </trkpt>
      <trkpt lat="45.71924" lon="3.01603">
        <ele>888.1</ele>
        <time>2016-12-06T13:57:04Z</time>
      </trkpt>
      <trkpt lat="45.71932" lon="3.0167">
        <ele>886.4</ele>
        <time>2016-12-06T13:57:09Z</time>
      </trkpt>
      <trkpt lat="45.71922" lon="3.01607">
        <ele>888.1</ele>
        <time>2016-12-06T13:57:14Z</time>
      </trkpt>
      <trkpt lat="45.71926" lon="3.01558">
        <ele>889</ele>
        <time>2016-12-06T13:57:18Z</time>
      </trkpt>
      <trkpt lat="45.71933" lon="3.01485">
        <ele>891.1</ele>
        <time>2016-12-06T13:57:24Z</time>
      </trkpt>
      <trkpt lat="45.71929" lon="3.01432">
        <ele>892.2</ele>
        <time>2016-12-06T13:57:28Z</time>
      </trkpt>
      <trkpt lat="45.71918" lon="3.01334">
        <ele>894.9</ele>
        <time>2016-12-06T13:57:36Z</time>
      </trkpt>
      <trkpt lat="45.71934" lon="3.01212">
        <ele>896.2</ele>
        <time>2016-12-06T13:57:45Z</time>
      </trkpt>
      <trkpt lat="45.71883" lon="3.01032">
        <ele>900.6</ele>
        <time>2016-12-06T13:58:00Z</time>
      </trkpt>
      <trkpt lat="45.71848" lon="3.00939">
        <ele>901.4</ele>
        <time>2016-12-06T13:58:09Z</time>
      </trkpt>
      <trkpt lat="45.71822" lon="3.00863">
        <ele>902.9</ele>
        <time>2016-12-06T13:58:15Z</time>
      </trkpt>
      <trkpt lat="45.7181" lon="3.00778">
        <ele>902.7</ele>
        <time>2016-12-06T13:58:22Z</time>
      </trkpt>
      <trkpt lat="45.71817" lon="3.00606">
        <ele>902.3</ele>
        <time>2016-12-06T13:58:35Z</time>
      </trkpt>
      <trkpt lat="45.71833" lon="3.00567">
        <ele>901.4</ele>
        <time>2016-12-06T13:58:39Z</time>
      </trkpt>
      <trkpt lat="45.71825" lon="3.0051">
        <ele>901.9</ele>
        <time>2016-12-06T13:58:43Z</time>
      </trkpt>
      <trkpt lat="45.71796" lon="3.00432">
        <ele>897.4</ele>
        <time>2016-12-06T13:58:50Z</time>
      </trkpt>
      <trkpt lat="45.71782" lon="3.00374">
        <ele>895.6</ele>
        <time>2016-12-06T13:58:55Z</time>
      </trkpt>
      <trkpt lat="45.71785" lon="3.00339">
        <ele>894.8</ele>
        <time>2016-12-06T13:58:58Z</time>
      </trkpt>
      <trkpt lat="45.71742" lon="3.00241">
        <ele>888.5</ele>
        <time>2016-12-06T13:59:07Z</time>
      </trkpt>
      <trkpt lat="45.71723" lon="3.0005">
        <ele>875</ele>
        <time>2016-12-06T13:59:22Z</time>
      </trkpt>
      <trkpt lat="45.71701" lon="2.99945">
        <ele>869.6</ele>
        <time>2016-12-06T13:59:30Z</time>
      </trkpt>
      <trkpt lat="45.71707" lon="2.99793">
        <ele>866.2</ele>
        <time>2016-12-06T13:59:42Z</time>
      </trkpt>
      <trkpt lat="45.71726" lon="2.99738">
        <ele>865.1</ele>
        <time>2016-12-06T13:59:47Z</time>
      </trkpt>
      <trkpt lat="45.71742" lon="2.99586">
        <ele>857.7</ele>
        <time>2016-12-06T13:59:59Z</time>
      </trkpt>
      <trkpt lat="45.71796" lon="2.99442">
        <ele>857</ele>
        <time>2016-12-06T14:00:12Z</time>
      </trkpt>
      <trkpt lat="45.71828" lon="2.9929">
        <ele>861.2</ele>
        <time>2016-12-06T14:00:24Z</time>
      </trkpt>
      <trkpt lat="45.7182" lon="2.99205">
        <ele>866.4</ele>
        <time>2016-12-06T14:00:31Z</time>
      </trkpt>
      <trkpt lat="45.71763" lon="2.99041">
        <ele>880.5</ele>
        <time>2016-12-06T14:00:45Z</time>
      </trkpt>
      <trkpt lat="45.71731" lon="2.98893">
        <ele>886.1</ele>
        <time>2016-12-06T14:00:57Z</time>
      </trkpt>
      <trkpt lat="45.71712" lon="2.98694">
        <ele>893.5</ele>
        <time>2016-12-06T14:01:13Z</time>
      </trkpt>
      <trkpt lat="45.71709" lon="2.98511">
        <ele>902.1</ele>
        <time>2016-12-06T14:01:27Z</time>
      </trkpt>
      <trkpt lat="45.71704" lon="2.98308">
        <ele>911</ele>
        <time>2016-12-06T14:01:43Z</time>
      </trkpt>
      <trkpt lat="45.71722" lon="2.98155">
        <ele>915</ele>
        <time>2016-12-06T14:01:55Z</time>
      </trkpt>
      <trkpt lat="45.71637" lon="2.98238">
        <ele>913.7</ele>
        <time>2016-12-06T14:02:06Z</time>
      </trkpt>
      <trkpt lat="45.7158" lon="2.98316">
        <ele>913.8</ele>
        <time>2016-12-06T14:02:15Z</time>
      </trkpt>
      <trkpt lat="45.71532" lon="2.98355">
        <ele>914</ele>
        <time>2016-12-06T14:02:21Z</time>
      </trkpt>
      <trkpt lat="45.71483" lon="2.98484">
        <ele>908.4</ele>
        <time>2016-12-06T14:02:32Z</time>
      </trkpt>
      <trkpt lat="45.71432" lon="2.98577">
        <ele>906.9</ele>
        <time>2016-12-06T14:02:42Z</time>
      </trkpt>
      <trkpt lat="45.71383" lon="2.98628">
        <ele>906.6</ele>
        <time>2016-12-06T14:02:48Z</time>
      </trkpt>
      <trkpt lat="45.71338" lon="2.98686">
        <ele>905.8</ele>
        <time>2016-12-06T14:02:55Z</time>
      </trkpt>
      <trkpt lat="45.71327" lon="2.98768">
        <ele>901.6</ele>
        <time>2016-12-06T14:03:02Z</time>
      </trkpt>
      <trkpt lat="45.71286" lon="2.98811">
        <ele>900.1</ele>
        <time>2016-12-06T14:03:07Z</time>
      </trkpt>
      <trkpt lat="45.71249" lon="2.98963">
        <ele>890.1</ele>
        <time>2016-12-06T14:03:20Z</time>
      </trkpt>
      <trkpt lat="45.71165" lon="2.9906">
        <ele>884.9</ele>
        <time>2016-12-06T14:03:32Z</time>
      </trkpt>
      <trkpt lat="45.71108" lon="2.9915">
        <ele>886.7</ele>
        <time>2016-12-06T14:03:41Z</time>
      </trkpt>
      <trkpt lat="45.71014" lon="2.9931">
        <ele>883.8</ele>
        <time>2016-12-06T14:03:57Z</time>
      </trkpt>
      <trkpt lat="45.70936" lon="2.99516">
        <ele>866.7</ele>
        <time>2016-12-06T14:04:16Z</time>
      </trkpt>
      <trkpt lat="45.70861" lon="2.99563">
        <ele>865.9</ele>
        <time>2016-12-06T14:04:25Z</time>
      </trkpt>
      <trkpt lat="45.70788" lon="2.99711">
        <ele>863.4</ele>
        <time>2016-12-06T14:04:39Z</time>
      </trkpt>
      <trkpt lat="45.70645" lon="2.99894">
        <ele>861.1</ele>
        <time>2016-12-06T14:05:00Z</time>
      </trkpt>
      <trkpt lat="45.70629" lon="2.99904">
        <ele>861.7</ele>
        <time>2016-12-06T14:05:02Z</time>
      </trkpt>
      <trkpt lat="45.70603" lon="2.99831">
        <ele>862.3</ele>
        <time>2016-12-06T14:05:08Z</time>
      </trkpt>
      <trkpt lat="45.70572" lon="2.9982">
        <ele>865.5</ele>
        <time>2016-12-06T14:05:12Z</time>
      </trkpt>
      <trkpt lat="45.70555" lon="2.99775">
        <ele>867.2</ele>
        <time>2016-12-06T14:05:16Z</time>
      </trkpt>
      <trkpt lat="45.70533" lon="2.9975">
        <ele>870.7</ele>
        <time>2016-12-06T14:05:19Z</time>
      </trkpt>
      <trkpt lat="45.70529" lon="2.99598">
        <ele>876.2</ele>
        <time>2016-12-06T14:05:31Z</time>
      </trkpt>
      <trkpt lat="45.70509" lon="2.99539">
        <ele>882.4</ele>
        <time>2016-12-06T14:05:36Z</time>
      </trkpt>
      <trkpt lat="45.70491" lon="2.99446">
        <ele>884.1</ele>
        <time>2016-12-06T14:05:44Z</time>
      </trkpt>
      <trkpt lat="45.70479" lon="2.9941">
        <ele>887</ele>
        <time>2016-12-06T14:05:47Z</time>
      </trkpt>
      <trkpt lat="45.70452" lon="2.9944">
        <ele>886.1</ele>
        <time>2016-12-06T14:05:50Z</time>
      </trkpt>
      <trkpt lat="45.7045" lon="2.99402">
        <ele>889.4</ele>
        <time>2016-12-06T14:05:53Z</time>
      </trkpt>
      <trkpt lat="45.70447" lon="2.99308">
        <ele>898.7</ele>
        <time>2016-12-06T14:06:01Z</time>
      </trkpt>
      <trkpt lat="45.70447" lon="2.9916">
        <ele>904.6</ele>
        <time>2016-12-06T14:06:12Z</time>
      </trkpt>
      <trkpt lat="45.70436" lon="2.99073">
        <ele>906.4</ele>
        <time>2016-12-06T14:06:19Z</time>
      </trkpt>
      <trkpt lat="45.704" lon="2.98559">
        <ele>919.9</ele>
        <time>2016-12-06T14:06:59Z</time>
      </trkpt>
      <trkpt lat="45.70382" lon="2.9847">
        <ele>921</ele>
        <time>2016-12-06T14:07:06Z</time>
      </trkpt>
      <trkpt lat="45.70381" lon="2.98343">
        <ele>923</ele>
        <time>2016-12-06T14:07:16Z</time>
      </trkpt>
      <trkpt lat="45.70364" lon="2.98143">
        <ele>921.8</ele>
        <time>2016-12-06T14:07:32Z</time>
      </trkpt>
      <trkpt lat="45.70325" lon="2.98013">
        <ele>918.5</ele>
        <time>2016-12-06T14:07:43Z</time>
      </trkpt>
      <trkpt lat="45.70319" lon="2.97912">
        <ele>917.1</ele>
        <time>2016-12-06T14:07:51Z</time>
      </trkpt>
      <trkpt lat="45.70341" lon="2.97712">
        <ele>917.7</ele>
        <time>2016-12-06T14:08:07Z</time>
      </trkpt>
      <trkpt lat="45.70323" lon="2.97517">
        <ele>934.7</ele>
        <time>2016-12-06T14:08:22Z</time>
      </trkpt>
      <trkpt lat="45.70328" lon="2.97415">
        <ele>943.4</ele>
        <time>2016-12-06T14:08:30Z</time>
      </trkpt>
      <trkpt lat="45.70381" lon="2.97335">
        <ele>951.8</ele>
        <time>2016-12-06T14:08:38Z</time>
      </trkpt>
      <trkpt lat="45.70391" lon="2.97257">
        <ele>960.2</ele>
        <time>2016-12-06T14:08:45Z</time>
      </trkpt>
      <trkpt lat="45.70377" lon="2.97218">
        <ele>963.9</ele>
        <time>2016-12-06T14:08:48Z</time>
      </trkpt>
      <trkpt lat="45.70075" lon="2.96958">
        <ele>976.4</ele>
        <time>2016-12-06T14:09:27Z</time>
      </trkpt>
      <trkpt lat="45.70059" lon="2.96984">
        <ele>977.1</ele>
        <time>2016-12-06T14:09:30Z</time>
      </trkpt>
      <trkpt lat="45.69951" lon="2.96987">
        <ele>977.6</ele>
        <time>2016-12-06T14:09:42Z</time>
      </trkpt>
      <trkpt lat="45.6982" lon="2.96898">
        <ele>975</ele>
        <time>2016-12-06T14:09:58Z</time>
      </trkpt>
      <trkpt lat="45.69691" lon="2.96893">
        <ele>978</ele>
        <time>2016-12-06T14:10:12Z</time>
      </trkpt>
      <trkpt lat="45.6963" lon="2.96914">
        <ele>978.2</ele>
        <time>2016-12-06T14:10:19Z</time>
      </trkpt>
      <trkpt lat="45.69584" lon="2.9695">
        <ele>977.9</ele>
        <time>2016-12-06T14:10:25Z</time>
      </trkpt>
      <trkpt lat="45.69548" lon="2.96976">
        <ele>974.4</ele>
        <time>2016-12-06T14:10:30Z</time>
      </trkpt>
      <trkpt lat="45.69526" lon="2.96968">
        <ele>975</ele>
        <time>2016-12-06T14:10:32Z</time>
      </trkpt>
      <trkpt lat="45.69524" lon="2.96909">
        <ele>975.3</ele>
        <time>2016-12-06T14:10:37Z</time>
      </trkpt>
      <trkpt lat="45.69551" lon="2.96838">
        <ele>969.5</ele>
        <time>2016-12-06T14:10:43Z</time>
      </trkpt>
      <trkpt lat="45.69553" lon="2.96794">
        <ele>964.9</ele>
        <time>2016-12-06T14:10:47Z</time>
      </trkpt>
      <trkpt lat="45.69526" lon="2.96753">
        <ele>960.8</ele>
        <time>2016-12-06T14:10:51Z</time>
      </trkpt>
      <trkpt lat="45.69449" lon="2.96703">
        <ele>959.5</ele>
        <time>2016-12-06T14:11:00Z</time>
      </trkpt>
      <trkpt lat="45.69363" lon="2.96672">
        <ele>959.3</ele>
        <time>2016-12-06T14:11:10Z</time>
      </trkpt>
      <trkpt lat="45.69318" lon="2.9667">
        <ele>962.3</ele>
        <time>2016-12-06T14:11:15Z</time>
      </trkpt>
      <trkpt lat="45.69264" lon="2.96693">
        <ele>967.8</ele>
        <time>2016-12-06T14:11:22Z</time>
      </trkpt>
      <trkpt lat="45.69239" lon="2.96696">
        <ele>968.4</ele>
        <time>2016-12-06T14:11:24Z</time>
      </trkpt>
      <trkpt lat="45.69208" lon="2.96659">
        <ele>968.9</ele>
        <time>2016-12-06T14:11:29Z</time>
      </trkpt>
      <trkpt lat="45.69109" lon="2.96568">
        <ele>969</ele>
        <time>2016-12-06T14:11:42Z</time>
      </trkpt>
      <trkpt lat="45.69064" lon="2.96542">
        <ele>970</ele>
        <time>2016-12-06T14:11:47Z</time>
      </trkpt>
      <trkpt lat="45.68987" lon="2.96545">
        <ele>965.5</ele>
        <time>2016-12-06T14:11:56Z</time>
      </trkpt>
      <trkpt lat="45.68901" lon="2.96641">
        <ele>959.7</ele>
        <time>2016-12-06T14:12:08Z</time>
      </trkpt>
      <trkpt lat="45.68863" lon="2.96664">
        <ele>959.6</ele>
        <time>2016-12-06T14:12:13Z</time>
      </trkpt>
      <trkpt lat="45.68807" lon="2.96677">
        <ele>956.9</ele>
        <time>2016-12-06T14:12:19Z</time>
      </trkpt>
      <trkpt lat="45.68745" lon="2.96716">
        <ele>951.1</ele>
        <time>2016-12-06T14:12:27Z</time>
      </trkpt>
      <trkpt lat="45.68651" lon="2.96747">
        <ele>949.1</ele>
        <time>2016-12-06T14:12:37Z</time>
      </trkpt>
      <trkpt lat="45.68511" lon="2.9674">
        <ele>957.9</ele>
        <time>2016-12-06T14:12:53Z</time>
      </trkpt>
      <trkpt lat="45.68443" lon="2.96771">
        <ele>957.7</ele>
        <time>2016-12-06T14:13:01Z</time>
      </trkpt>
      <trkpt lat="45.68373" lon="2.96792">
        <ele>956.7</ele>
        <time>2016-12-06T14:13:09Z</time>
      </trkpt>
      <trkpt lat="45.68326" lon="2.96779">
        <ele>957</ele>
        <time>2016-12-06T14:13:14Z</time>
      </trkpt>
      <trkpt lat="45.68261" lon="2.96711">
        <ele>959.9</ele>
        <time>2016-12-06T14:13:23Z</time>
      </trkpt>
      <trkpt lat="45.68242" lon="2.96631">
        <ele>963.8</ele>
        <time>2016-12-06T14:13:30Z</time>
      </trkpt>
      <trkpt lat="45.68256" lon="2.96553">
        <ele>964.1</ele>
        <time>2016-12-06T14:13:36Z</time>
      </trkpt>
      <trkpt lat="45.68312" lon="2.96449">
        <ele>961.1</ele>
        <time>2016-12-06T14:13:46Z</time>
      </trkpt>
      <trkpt lat="45.68339" lon="2.96368">
        <ele>958.9</ele>
        <time>2016-12-06T14:13:53Z</time>
      </trkpt>
      <trkpt lat="45.68355" lon="2.96233">
        <ele>958.6</ele>
        <time>2016-12-06T14:14:04Z</time>
      </trkpt>
      <trkpt lat="45.68356" lon="2.96194">
        <ele>958.9</ele>
        <time>2016-12-06T14:14:07Z</time>
      </trkpt>
      <trkpt lat="45.68332" lon="2.96207">
        <ele>954.7</ele>
        <time>2016-12-06T14:14:10Z</time>
      </trkpt>
      <trkpt lat="45.68282" lon="2.96171">
        <ele>953.5</ele>
        <time>2016-12-06T14:14:16Z</time>
      </trkpt>
      <trkpt lat="45.68251" lon="2.96367">
        <ele>955.6</ele>
        <time>2016-12-06T14:14:31Z</time>
      </trkpt>
      <trkpt lat="45.6824" lon="2.9651">
        <ele>962.3</ele>
        <time>2016-12-06T14:14:43Z</time>
      </trkpt>
      <trkpt lat="45.68212" lon="2.96585">
        <ele>964.2</ele>
        <time>2016-12-06T14:14:49Z</time>
      </trkpt>
      <trkpt lat="45.68194" lon="2.9662">
        <ele>963.5</ele>
        <time>2016-12-06T14:14:53Z</time>
      </trkpt>
      <trkpt lat="45.68186" lon="2.96616">
        <ele>963.8</ele>
        <time>2016-12-06T14:14:54Z</time>
      </trkpt>
      <trkpt lat="45.68135" lon="2.9631">
        <ele>966.4</ele>
        <time>2016-12-06T14:15:18Z</time>
      </trkpt>
      <trkpt lat="45.6817" lon="2.96045">
        <ele>962.3</ele>
        <time>2016-12-06T14:15:39Z</time>
      </trkpt>
      <trkpt lat="45.68154" lon="2.95874">
        <ele>966.2</ele>
        <time>2016-12-06T14:15:52Z</time>
      </trkpt>
      <trkpt lat="45.68054" lon="2.95468">
        <ele>958.9</ele>
        <time>2016-12-06T14:16:26Z</time>
      </trkpt>
      <trkpt lat="45.67949" lon="2.95468">
        <ele>963.9</ele>
        <time>2016-12-06T14:16:38Z</time>
      </trkpt>
      <trkpt lat="45.67841" lon="2.95351">
        <ele>966.7</ele>
        <time>2016-12-06T14:16:53Z</time>
      </trkpt>
      <trkpt lat="45.67755" lon="2.95301">
        <ele>970.2</ele>
        <time>2016-12-06T14:17:03Z</time>
      </trkpt>
      <trkpt lat="45.67693" lon="2.95242">
        <ele>973.3</ele>
        <time>2016-12-06T14:17:11Z</time>
      </trkpt>
      <trkpt lat="45.67647" lon="2.95164">
        <ele>974.3</ele>
        <time>2016-12-06T14:17:19Z</time>
      </trkpt>
      <trkpt lat="45.67572" lon="2.95149">
        <ele>976.2</ele>
        <time>2016-12-06T14:17:28Z</time>
      </trkpt>
      <trkpt lat="45.67472" lon="2.95211">
        <ele>978.7</ele>
        <time>2016-12-06T14:17:40Z</time>
      </trkpt>
      <trkpt lat="45.67359" lon="2.95277">
        <ele>979.3</ele>
        <time>2016-12-06T14:17:53Z</time>
      </trkpt>
      <trkpt lat="45.67335" lon="2.95328">
        <ele>979.4</ele>
        <time>2016-12-06T14:17:58Z</time>
      </trkpt>
      <trkpt lat="45.6731" lon="2.95327">
        <ele>979.1</ele>
        <time>2016-12-06T14:18:01Z</time>
      </trkpt>
      <trkpt lat="45.67256" lon="2.95269">
        <ele>983.1</ele>
        <time>2016-12-06T14:18:08Z</time>
      </trkpt>
      <trkpt lat="45.67084" lon="2.95136">
        <ele>995.9</ele>
        <time>2016-12-06T14:18:30Z</time>
      </trkpt>
      <trkpt lat="45.67041" lon="2.95113">
        <ele>1003.9</ele>
        <time>2016-12-06T14:18:35Z</time>
      </trkpt>
      <trkpt lat="45.66936" lon="2.95226">
        <ele>1009</ele>
        <time>2016-12-06T14:18:50Z</time>
      </trkpt>
      <trkpt lat="45.66809" lon="2.95316">
        <ele>1026.5</ele>
        <time>2016-12-06T14:19:06Z</time>
      </trkpt>
      <trkpt lat="45.66744" lon="2.95347">
        <ele>1038.1</ele>
        <time>2016-12-06T14:19:13Z</time>
      </trkpt>
      <trkpt lat="45.66655" lon="2.95316">
        <ele>1044.5</ele>
        <time>2016-12-06T14:19:24Z</time>
      </trkpt>
      <trkpt lat="45.66542" lon="2.95238">
        <ele>1046.3</ele>
        <time>2016-12-06T14:19:38Z</time>
      </trkpt>
      <trkpt lat="45.66469" lon="2.95144">
        <ele>1044.5</ele>
        <time>2016-12-06T14:19:48Z</time>
      </trkpt>
      <trkpt lat="45.66405" lon="2.95066">
        <ele>1036.7</ele>
        <time>2016-12-06T14:19:58Z</time>
      </trkpt>
      <trkpt lat="45.6631" lon="2.94969">
        <ele>1028.2</ele>
        <time>2016-12-06T14:20:11Z</time>
      </trkpt>
      <trkpt lat="45.66294" lon="2.94926">
        <ele>1026.3</ele>
        <time>2016-12-06T14:20:15Z</time>
      </trkpt>
      <trkpt lat="45.66378" lon="2.94824">
        <ele>1031.4</ele>
        <time>2016-12-06T14:20:27Z</time>
      </trkpt>
      <trkpt lat="45.66362" lon="2.94766">
        <ele>1031.1</ele>
        <time>2016-12-06T14:20:32Z</time>
      </trkpt>
      <trkpt lat="45.66176" lon="2.94384">
        <ele>1028.2</ele>
        <time>2016-12-06T14:21:08Z</time>
      </trkpt>
      <trkpt lat="45.65989" lon="2.9389">
        <ele>1023.5</ele>
        <time>2016-12-06T14:21:52Z</time>
      </trkpt>
      <trkpt lat="45.65825" lon="2.93838">
        <ele>1023</ele>
        <time>2016-12-06T14:22:10Z</time>
      </trkpt>
      <trkpt lat="45.65695" lon="2.9374">
        <ele>1021.1</ele>
        <time>2016-12-06T14:22:27Z</time>
      </trkpt>
      <trkpt lat="45.65558" lon="2.93561">
        <ele>1023.3</ele>
        <time>2016-12-06T14:22:47Z</time>
      </trkpt>
      <trkpt lat="45.65404" lon="2.93421">
        <ele>1014.1</ele>
        <time>2016-12-06T14:23:08Z</time>
      </trkpt>
      <trkpt lat="45.65275" lon="2.93191">
        <ele>998.1</ele>
        <time>2016-12-06T14:23:31Z</time>
      </trkpt>
      <trkpt lat="45.65191" lon="2.92902">
        <ele>988.1</ele>
        <time>2016-12-06T14:23:55Z</time>
      </trkpt>
      <trkpt lat="45.65167" lon="2.92875">
        <ele>989.1</ele>
        <time>2016-12-06T14:23:58Z</time>
      </trkpt>
      <trkpt lat="45.65129" lon="2.92887">
        <ele>992.9</ele>
        <time>2016-12-06T14:24:03Z</time>
      </trkpt>
      <trkpt lat="45.65091" lon="2.92922">
        <ele>999.2</ele>
        <time>2016-12-06T14:24:08Z</time>
      </trkpt>
      <trkpt lat="45.64965" lon="2.92953">
        <ele>1015.6</ele>
        <time>2016-12-06T14:24:22Z</time>
      </trkpt>
      <trkpt lat="45.64906" lon="2.92976">
        <ele>1012.9</ele>
        <time>2016-12-06T14:24:29Z</time>
      </trkpt>
      <trkpt lat="45.64873" lon="2.92957">
        <ele>1010.3</ele>
        <time>2016-12-06T14:24:33Z</time>
      </trkpt>
      <trkpt lat="45.64814" lon="2.92871">
        <ele>1012.3</ele>
        <time>2016-12-06T14:24:42Z</time>
      </trkpt>
      <trkpt lat="45.64736" lon="2.9277">
        <ele>1013</ele>
        <time>2016-12-06T14:24:54Z</time>
      </trkpt>
      <trkpt lat="45.64697" lon="2.92687">
        <ele>1013.3</ele>
        <time>2016-12-06T14:25:02Z</time>
      </trkpt>
      <trkpt lat="45.6463" lon="2.92624">
        <ele>1013.1</ele>
        <time>2016-12-06T14:25:11Z</time>
      </trkpt>
      <trkpt lat="45.64578" lon="2.92578">
        <ele>1014.5</ele>
        <time>2016-12-06T14:25:17Z</time>
      </trkpt>
      <trkpt lat="45.64522" lon="2.92418">
        <ele>1017.9</ele>
        <time>2016-12-06T14:25:31Z</time>
      </trkpt>
      <trkpt lat="45.64471" lon="2.92316">
        <ele>1019.9</ele>
        <time>2016-12-06T14:25:41Z</time>
      </trkpt>
      <trkpt lat="45.64438" lon="2.92188">
        <ele>1025.2</ele>
        <time>2016-12-06T14:25:52Z</time>
      </trkpt>
      <trkpt lat="45.64368" lon="2.92071">
        <ele>1022.6</ele>
        <time>2016-12-06T14:26:04Z</time>
      </trkpt>
      <trkpt lat="45.64341" lon="2.92016">
        <ele>1022.6</ele>
        <time>2016-12-06T14:26:09Z</time>
      </trkpt>
      <trkpt lat="45.64333" lon="2.91923">
        <ele>1030.6</ele>
        <time>2016-12-06T14:26:16Z</time>
      </trkpt>
      <trkpt lat="45.64301" lon="2.9188">
        <ele>1030.7</ele>
        <time>2016-12-06T14:26:21Z</time>
      </trkpt>
      <trkpt lat="45.64236" lon="2.91849">
        <ele>1030.1</ele>
        <time>2016-12-06T14:26:29Z</time>
      </trkpt>
      <trkpt lat="45.64207" lon="2.91833">
        <ele>1032.1</ele>
        <time>2016-12-06T14:26:32Z</time>
      </trkpt>
      <trkpt lat="45.64153" lon="2.91849">
        <ele>1031.5</ele>
        <time>2016-12-06T14:26:38Z</time>
      </trkpt>
      <trkpt lat="45.64126" lon="2.91822">
        <ele>1034.4</ele>
        <time>2016-12-06T14:26:42Z</time>
      </trkpt>
      <trkpt lat="45.6412" lon="2.91763">
        <ele>1036.6</ele>
        <time>2016-12-06T14:26:47Z</time>
      </trkpt>
      <trkpt lat="45.64126" lon="2.91697">
        <ele>1037.6</ele>
        <time>2016-12-06T14:26:52Z</time>
      </trkpt>
      <trkpt lat="45.64096" lon="2.91611">
        <ele>1039</ele>
        <time>2016-12-06T14:26:59Z</time>
      </trkpt>
      <trkpt lat="45.64042" lon="2.91506">
        <ele>1050.2</ele>
        <time>2016-12-06T14:27:09Z</time>
      </trkpt>
      <trkpt lat="45.63967" lon="2.91401">
        <ele>1060.1</ele>
        <time>2016-12-06T14:27:21Z</time>
      </trkpt>
      <trkpt lat="45.6394" lon="2.91334">
        <ele>1061.1</ele>
        <time>2016-12-06T14:27:27Z</time>
      </trkpt>
      <trkpt lat="45.63926" lon="2.91264">
        <ele>1063.2</ele>
        <time>2016-12-06T14:27:33Z</time>
      </trkpt>
      <trkpt lat="45.63921" lon="2.91186">
        <ele>1069.7</ele>
        <time>2016-12-06T14:27:39Z</time>
      </trkpt>
      <trkpt lat="45.63886" lon="2.91073">
        <ele>1078</ele>
        <time>2016-12-06T14:27:49Z</time>
      </trkpt>
      <trkpt lat="45.63711" lon="2.90536">
        <ele>1101.3</ele>
        <time>2016-12-06T14:28:35Z</time>
      </trkpt>
      <trkpt lat="45.63456" lon="2.89757">
        <ele>1120.8</ele>
        <time>2016-12-06T14:29:41Z</time>
      </trkpt>
      <trkpt lat="45.63467" lon="2.89508">
        <ele>1126.1</ele>
        <time>2016-12-06T14:30:01Z</time>
      </trkpt>
      <trkpt lat="45.63618" lon="2.89392">
        <ele>1143.6</ele>
        <time>2016-12-06T14:30:20Z</time>
      </trkpt>
      <trkpt lat="45.63788" lon="2.89261">
        <ele>1143.4</ele>
        <time>2016-12-06T14:30:41Z</time>
      </trkpt>
      <trkpt lat="45.63796" lon="2.89246">
        <ele>1143.6</ele>
        <time>2016-12-06T14:30:43Z</time>
      </trkpt>
      <trkpt lat="45.63709" lon="2.89034">
        <ele>1160</ele>
        <time>2016-12-06T14:31:02Z</time>
      </trkpt>
      <trkpt lat="45.63627" lon="2.88969">
        <ele>1167</ele>
        <time>2016-12-06T14:31:13Z</time>
      </trkpt>
      <trkpt lat="45.63601" lon="2.88926">
        <ele>1169.7</ele>
        <time>2016-12-06T14:31:17Z</time>
      </trkpt>
      <trkpt lat="45.63549" lon="2.88868">
        <ele>1173.7</ele>
        <time>2016-12-06T14:31:24Z</time>
      </trkpt>
      <trkpt lat="45.63526" lon="2.88863">
        <ele>1174.5</ele>
        <time>2016-12-06T14:31:27Z</time>
      </trkpt>
      <trkpt lat="45.63493" lon="2.88888">
        <ele>1173.9</ele>
        <time>2016-12-06T14:31:31Z</time>
      </trkpt>
      <trkpt lat="45.63475" lon="2.88819">
        <ele>1178.4</ele>
        <time>2016-12-06T14:31:37Z</time>
      </trkpt>
      <trkpt lat="45.63449" lon="2.88809">
        <ele>1179.4</ele>
        <time>2016-12-06T14:31:40Z</time>
      </trkpt>
      <trkpt lat="45.63403" lon="2.88818">
        <ele>1178.5</ele>
        <time>2016-12-06T14:31:45Z</time>
      </trkpt>
      <trkpt lat="45.63359" lon="2.88783">
        <ele>1180.1</ele>
        <time>2016-12-06T14:31:51Z</time>
      </trkpt>
      <trkpt lat="45.63334" lon="2.88728">
        <ele>1183</ele>
        <time>2016-12-06T14:31:56Z</time>
      </trkpt>
      <trkpt lat="45.63305" lon="2.88611">
        <ele>1189.2</ele>
        <time>2016-12-06T14:32:06Z</time>
      </trkpt>
      <trkpt lat="45.63276" lon="2.88575">
        <ele>1190</ele>
        <time>2016-12-06T14:32:10Z</time>
      </trkpt>
      <trkpt lat="45.63162" lon="2.88541">
        <ele>1199.7</ele>
        <time>2016-12-06T14:32:23Z</time>
      </trkpt>
      <trkpt lat="45.6313" lon="2.88548">
        <ele>1199.4</ele>
        <time>2016-12-06T14:32:26Z</time>
      </trkpt>
      <trkpt lat="45.63097" lon="2.88532">
        <ele>1200.8</ele>
        <time>2016-12-06T14:32:30Z</time>
      </trkpt>
      <trkpt lat="45.62976" lon="2.88284">
        <ele>1208.8</ele>
        <time>2016-12-06T14:32:54Z</time>
      </trkpt>
      <trkpt lat="45.62868" lon="2.8801">
        <ele>1220.6</ele>
        <time>2016-12-06T14:33:18Z</time>
      </trkpt>
      <trkpt lat="45.62833" lon="2.87966">
        <ele>1225.3</ele>
        <time>2016-12-06T14:33:23Z</time>
      </trkpt>
      <trkpt lat="45.62796" lon="2.8797">
        <ele>1231.6</ele>
        <time>2016-12-06T14:33:28Z</time>
      </trkpt>
      <trkpt lat="45.62779" lon="2.87967">
        <ele>1235.1</ele>
        <time>2016-12-06T14:33:30Z</time>
      </trkpt>
      <trkpt lat="45.62775" lon="2.87945">
        <ele>1237.4</ele>
        <time>2016-12-06T14:33:31Z</time>
      </trkpt>
      <trkpt lat="45.62785" lon="2.87882">
        <ele>1240</ele>
        <time>2016-12-06T14:33:36Z</time>
      </trkpt>
      <trkpt lat="45.62793" lon="2.87817">
        <ele>1243.8</ele>
        <time>2016-12-06T14:33:42Z</time>
      </trkpt>
      <trkpt lat="45.62738" lon="2.87581">
        <ele>1266.6</ele>
        <time>2016-12-06T14:34:01Z</time>
      </trkpt>
      <trkpt lat="45.62692" lon="2.8747">
        <ele>1271.2</ele>
        <time>2016-12-06T14:34:11Z</time>
      </trkpt>
      <trkpt lat="45.6266" lon="2.87422">
        <ele>1273.5</ele>
        <time>2016-12-06T14:34:16Z</time>
      </trkpt>
      <trkpt lat="45.62629" lon="2.87402">
        <ele>1279.1</ele>
        <time>2016-12-06T14:34:20Z</time>
      </trkpt>
      <trkpt lat="45.62621" lon="2.87412">
        <ele>1282.3</ele>
        <time>2016-12-06T14:34:21Z</time>
      </trkpt>
      <trkpt lat="45.6262" lon="2.87441">
        <ele>1286.6</ele>
        <time>2016-12-06T14:34:24Z</time>
      </trkpt>
      <trkpt lat="45.62657" lon="2.87609">
        <ele>1294.4</ele>
        <time>2016-12-06T14:34:37Z</time>
      </trkpt>
      <trkpt lat="45.62654" lon="2.87718">
        <ele>1294</ele>
        <time>2016-12-06T14:34:46Z</time>
      </trkpt>
      <trkpt lat="45.62611" lon="2.87871">
        <ele>1297.8</ele>
        <time>2016-12-06T14:34:59Z</time>
      </trkpt>
      <trkpt lat="45.62577" lon="2.87944">
        <ele>1298.7</ele>
        <time>2016-12-06T14:35:05Z</time>
      </trkpt>
      <trkpt lat="45.62532" lon="2.87983">
        <ele>1300.5</ele>
        <time>2016-12-06T14:35:11Z</time>
      </trkpt>
      <trkpt lat="45.62488" lon="2.87984">
        <ele>1301.8</ele>
        <time>2016-12-06T14:35:16Z</time>
      </trkpt>
      <trkpt lat="45.62445" lon="2.87946">
        <ele>1305.9</ele>
        <time>2016-12-06T14:35:22Z</time>
      </trkpt>
      <trkpt lat="45.62451" lon="2.87918">
        <ele>1308.6</ele>
        <time>2016-12-06T14:35:24Z</time>
      </trkpt>
      <trkpt lat="45.62486" lon="2.87872">
        <ele>1313.3</ele>
        <time>2016-12-06T14:35:29Z</time>
      </trkpt>
      <trkpt lat="45.62512" lon="2.87806">
        <ele>1316.1</ele>
        <time>2016-12-06T14:35:35Z</time>
      </trkpt>
      <trkpt lat="45.62538" lon="2.87703">
        <ele>1321</ele>
        <time>2016-12-06T14:35:44Z</time>
      </trkpt>
      <trkpt lat="45.62525" lon="2.87593">
        <ele>1326.1</ele>
        <time>2016-12-06T14:35:53Z</time>
      </trkpt>
      <trkpt lat="45.62495" lon="2.87533">
        <ele>1330</ele>
        <time>2016-12-06T14:35:58Z</time>
      </trkpt>
      <trkpt lat="45.62043" lon="2.86994">
        <ele>1359.7</ele>
        <time>2016-12-06T14:37:04Z</time>
      </trkpt>
      <trkpt lat="45.62027" lon="2.86911">
        <ele>1365.3</ele>
        <time>2016-12-06T14:37:10Z</time>
      </trkpt>
      <trkpt lat="45.62004" lon="2.86895">
        <ele>1367.6</ele>
        <time>2016-12-06T14:37:13Z</time>
      </trkpt>
      <trkpt lat="45.61924" lon="2.86894">
        <ele>1372</ele>
        <time>2016-12-06T14:37:22Z</time>
      </trkpt>
      <trkpt lat="45.61912" lon="2.8687">
        <ele>1374.5</ele>
        <time>2016-12-06T14:37:25Z</time>
      </trkpt>
      <trkpt lat="45.61905" lon="2.86798">
        <ele>1380.5</ele>
        <time>2016-12-06T14:37:30Z</time>
      </trkpt>
      <trkpt lat="45.61879" lon="2.86614">
        <ele>1392.6</ele>
        <time>2016-12-06T14:37:45Z</time>
      </trkpt>
      <trkpt lat="45.61849" lon="2.86566">
        <ele>1396.2</ele>
        <time>2016-12-06T14:37:50Z</time>
      </trkpt>
      <trkpt lat="45.61794" lon="2.86509">
        <ele>1402.3</ele>
        <time>2016-12-06T14:37:57Z</time>
      </trkpt>
      <trkpt lat="45.61722" lon="2.86344">
        <ele>1409.4</ele>
        <time>2016-12-06T14:38:13Z</time>
      </trkpt>
      <trkpt lat="45.61689" lon="2.86306">
        <ele>1412.7</ele>
        <time>2016-12-06T14:38:17Z</time>
      </trkpt>
      <trkpt lat="45.6159" lon="2.86236">
        <ele>1424.5</ele>
        <time>2016-12-06T14:38:30Z</time>
      </trkpt>
      <trkpt lat="45.61506" lon="2.86162">
        <ele>1429.7</ele>
        <time>2016-12-06T14:38:41Z</time>
      </trkpt>
      <trkpt lat="45.61352" lon="2.85953">
        <ele>1413.3</ele>
        <time>2016-12-06T14:39:04Z</time>
      </trkpt>
      <trkpt lat="45.61293" lon="2.85852">
        <ele>1410.3</ele>
        <time>2016-12-06T14:39:15Z</time>
      </trkpt>
      <trkpt lat="45.61196" lon="2.85723">
        <ele>1408.2</ele>
        <time>2016-12-06T14:39:29Z</time>
      </trkpt>
      <trkpt lat="45.61107" lon="2.85656">
        <ele>1410.1</ele>
        <time>2016-12-06T14:39:40Z</time>
      </trkpt>
      <trkpt lat="45.6101" lon="2.8554">
        <ele>1412.8</ele>
        <time>2016-12-06T14:39:55Z</time>
      </trkpt>
      <trkpt lat="45.60929" lon="2.8546">
        <ele>1407.7</ele>
        <time>2016-12-06T14:40:05Z</time>
      </trkpt>
      <trkpt lat="45.60855" lon="2.85423">
        <ele>1403.4</ele>
        <time>2016-12-06T14:40:14Z</time>
      </trkpt>
      <trkpt lat="45.60716" lon="2.85416">
        <ele>1398.6</ele>
        <time>2016-12-06T14:40:30Z</time>
      </trkpt>
      <trkpt lat="45.60607" lon="2.85391">
        <ele>1393.2</ele>
        <time>2016-12-06T14:40:42Z</time>
      </trkpt>
      <trkpt lat="45.60572" lon="2.8539">
        <ele>1391.9</ele>
        <time>2016-12-06T14:40:46Z</time>
      </trkpt>
      <trkpt lat="45.60541" lon="2.85352">
        <ele>1389.8</ele>
        <time>2016-12-06T14:40:50Z</time>
      </trkpt>
      <trkpt lat="45.60515" lon="2.85305">
        <ele>1387.4</ele>
        <time>2016-12-06T14:40:55Z</time>
      </trkpt>
      <trkpt lat="45.60467" lon="2.85234">
        <ele>1385.2</ele>
        <time>2016-12-06T14:41:03Z</time>
      </trkpt>
      <trkpt lat="45.60426" lon="2.8513">
        <ele>1384.5</ele>
        <time>2016-12-06T14:41:12Z</time>
      </trkpt>
      <trkpt lat="45.60282" lon="2.85024">
        <ele>1382.7</ele>
        <time>2016-12-06T14:41:30Z</time>
      </trkpt>
      <trkpt lat="45.59996" lon="2.84672">
        <ele>1366.8</ele>
        <time>2016-12-06T14:42:12Z</time>
      </trkpt>
      <trkpt lat="45.59976" lon="2.84619">
        <ele>1367.1</ele>
        <time>2016-12-06T14:42:17Z</time>
      </trkpt>
      <trkpt lat="45.59967" lon="2.84571">
        <ele>1366.9</ele>
        <time>2016-12-06T14:42:21Z</time>
      </trkpt>
      <trkpt lat="45.59956" lon="2.84525">
        <ele>1368.3</ele>
        <time>2016-12-06T14:42:24Z</time>
      </trkpt>
      <trkpt lat="45.59989" lon="2.84491">
        <ele>1363.6</ele>
        <time>2016-12-06T14:42:29Z</time>
      </trkpt>
      <trkpt lat="45.60019" lon="2.84437">
        <ele>1359.1</ele>
        <time>2016-12-06T14:42:34Z</time>
      </trkpt>
      <trkpt lat="45.60041" lon="2.84383">
        <ele>1354.5</ele>
        <time>2016-12-06T14:42:39Z</time>
      </trkpt>
      <trkpt lat="45.60053" lon="2.84336">
        <ele>1350.8</ele>
        <time>2016-12-06T14:42:43Z</time>
      </trkpt>
      <trkpt lat="45.60052" lon="2.84312">
        <ele>1350.1</ele>
        <time>2016-12-06T14:42:45Z</time>
      </trkpt>
      <trkpt lat="45.60045" lon="2.8428">
        <ele>1350.4</ele>
        <time>2016-12-06T14:42:48Z</time>
      </trkpt>
      <trkpt lat="45.60069" lon="2.84243">
        <ele>1344.5</ele>
        <time>2016-12-06T14:42:52Z</time>
      </trkpt>
      <trkpt lat="45.60083" lon="2.84148">
        <ele>1339.1</ele>
        <time>2016-12-06T14:42:59Z</time>
      </trkpt>
      <trkpt lat="45.60087" lon="2.84047">
        <ele>1332.2</ele>
        <time>2016-12-06T14:43:07Z</time>
      </trkpt>
      <trkpt lat="45.60062" lon="2.83927">
        <ele>1326.8</ele>
        <time>2016-12-06T14:43:17Z</time>
      </trkpt>
      <trkpt lat="45.60056" lon="2.8387">
        <ele>1321.4</ele>
        <time>2016-12-06T14:43:21Z</time>
      </trkpt>
      <trkpt lat="45.60039" lon="2.83787">
        <ele>1315.8</ele>
        <time>2016-12-06T14:43:28Z</time>
      </trkpt>
      <trkpt lat="45.6003" lon="2.83718">
        <ele>1306.4</ele>
        <time>2016-12-06T14:43:34Z</time>
      </trkpt>
      <trkpt lat="45.59982" lon="2.83552">
        <ele>1296.5</ele>
        <time>2016-12-06T14:43:48Z</time>
      </trkpt>
      <trkpt lat="45.59904" lon="2.83338">
        <ele>1281.5</ele>
        <time>2016-12-06T14:44:07Z</time>
      </trkpt>
      <trkpt lat="45.59837" lon="2.8315">
        <ele>1259.7</ele>
        <time>2016-12-06T14:44:23Z</time>
      </trkpt>
      <trkpt lat="45.59808" lon="2.83116">
        <ele>1253.2</ele>
        <time>2016-12-06T14:44:27Z</time>
      </trkpt>
      <trkpt lat="45.59775" lon="2.83105">
        <ele>1248.7</ele>
        <time>2016-12-06T14:44:31Z</time>
      </trkpt>
      <trkpt lat="45.59751" lon="2.83108">
        <ele>1246.4</ele>
        <time>2016-12-06T14:44:34Z</time>
      </trkpt>
      <trkpt lat="45.59741" lon="2.83097">
        <ele>1244.5</ele>
        <time>2016-12-06T14:44:35Z</time>
      </trkpt>
      <trkpt lat="45.59751" lon="2.8305">
        <ele>1242.1</ele>
        <time>2016-12-06T14:44:39Z</time>
      </trkpt>
      <trkpt lat="45.5978" lon="2.82996">
        <ele>1238.5</ele>
        <time>2016-12-06T14:44:44Z</time>
      </trkpt>
      <trkpt lat="45.59779" lon="2.82965">
        <ele>1235.6</ele>
        <time>2016-12-06T14:44:47Z</time>
      </trkpt>
      <trkpt lat="45.59766" lon="2.82913">
        <ele>1230.6</ele>
        <time>2016-12-06T14:44:51Z</time>
      </trkpt>
      <trkpt lat="45.59647" lon="2.8276">
        <ele>1205.7</ele>
        <time>2016-12-06T14:45:09Z</time>
      </trkpt>
      <trkpt lat="45.59523" lon="2.82521">
        <ele>1182.2</ele>
        <time>2016-12-06T14:45:32Z</time>
      </trkpt>
      <trkpt lat="45.59483" lon="2.82471">
        <ele>1173.9</ele>
        <time>2016-12-06T14:45:38Z</time>
      </trkpt>
      <trkpt lat="45.59459" lon="2.82414">
        <ele>1172.8</ele>
        <time>2016-12-06T14:45:43Z</time>
      </trkpt>
      <trkpt lat="45.59448" lon="2.82411">
        <ele>1167.8</ele>
        <time>2016-12-06T14:45:45Z</time>
      </trkpt>
      <trkpt lat="45.59448" lon="2.82428">
        <ele>1165.2</ele>
        <time>2016-12-06T14:45:46Z</time>
      </trkpt>
      <trkpt lat="45.59419" lon="2.82381">
        <ele>1158.2</ele>
        <time>2016-12-06T14:45:51Z</time>
      </trkpt>
      <trkpt lat="45.59391" lon="2.82312">
        <ele>1148.9</ele>
        <time>2016-12-06T14:45:57Z</time>
      </trkpt>
      <trkpt lat="45.5936" lon="2.8218">
        <ele>1141</ele>
        <time>2016-12-06T14:46:08Z</time>
      </trkpt>
      <trkpt lat="45.59329" lon="2.82105">
        <ele>1127.7</ele>
        <time>2016-12-06T14:46:15Z</time>
      </trkpt>
      <trkpt lat="45.59311" lon="2.82048">
        <ele>1120.1</ele>
        <time>2016-12-06T14:46:20Z</time>
      </trkpt>
      <trkpt lat="45.59313" lon="2.82004">
        <ele>1119.3</ele>
        <time>2016-12-06T14:46:23Z</time>
      </trkpt>
      <trkpt lat="45.59321" lon="2.81959">
        <ele>1119.4</ele>
        <time>2016-12-06T14:46:27Z</time>
      </trkpt>
      <trkpt lat="45.59327" lon="2.81947">
        <ele>1120.4</ele>
        <time>2016-12-06T14:46:28Z</time>
      </trkpt>
      <trkpt lat="45.59331" lon="2.81927">
        <ele>1120.8</ele>
        <time>2016-12-06T14:46:30Z</time>
      </trkpt>
      <trkpt lat="45.59327" lon="2.8191">
        <ele>1118.5</ele>
        <time>2016-12-06T14:46:31Z</time>
      </trkpt>
      <trkpt lat="45.59317" lon="2.81913">
        <ele>1115.6</ele>
        <time>2016-12-06T14:46:32Z</time>
      </trkpt>
      <trkpt lat="45.59296" lon="2.81939">
        <ele>1109.9</ele>
        <time>2016-12-06T14:46:35Z</time>
      </trkpt>
      <trkpt lat="45.59288" lon="2.81978">
        <ele>1109.7</ele>
        <time>2016-12-06T14:46:39Z</time>
      </trkpt>
      <trkpt lat="45.59285" lon="2.82">
        <ele>1109.6</ele>
        <time>2016-12-06T14:46:40Z</time>
      </trkpt>
      <trkpt lat="45.59285" lon="2.82024">
        <ele>1110.2</ele>
        <time>2016-12-06T14:46:42Z</time>
      </trkpt>
      <trkpt lat="45.59284" lon="2.82036">
        <ele>1110</ele>
        <time>2016-12-06T14:46:43Z</time>
      </trkpt>
      <trkpt lat="45.59279" lon="2.82041">
        <ele>1108.3</ele>
        <time>2016-12-06T14:46:44Z</time>
      </trkpt>
      <trkpt lat="45.59275" lon="2.82033">
        <ele>1107.7</ele>
        <time>2016-12-06T14:46:45Z</time>
      </trkpt>
      <trkpt lat="45.59268" lon="2.81996">
        <ele>1106.7</ele>
        <time>2016-12-06T14:46:48Z</time>
      </trkpt>
      <trkpt lat="45.59251" lon="2.81936">
        <ele>1102</ele>
        <time>2016-12-06T14:46:53Z</time>
      </trkpt>
      <trkpt lat="45.59227" lon="2.81842">
        <ele>1095.6</ele>
        <time>2016-12-06T14:47:01Z</time>
      </trkpt>
      <trkpt lat="45.59215" lon="2.81772">
        <ele>1091.5</ele>
        <time>2016-12-06T14:47:06Z</time>
      </trkpt>
      <trkpt lat="45.5921" lon="2.8171">
        <ele>1086.9</ele>
        <time>2016-12-06T14:47:11Z</time>
      </trkpt>
      <trkpt lat="45.59153" lon="2.81607">
        <ele>1081.4</ele>
        <time>2016-12-06T14:47:21Z</time>
      </trkpt>
      <trkpt lat="45.59121" lon="2.81535">
        <ele>1076.2</ele>
        <time>2016-12-06T14:47:28Z</time>
      </trkpt>
      <trkpt lat="45.59071" lon="2.81489">
        <ele>1072.4</ele>
        <time>2016-12-06T14:47:35Z</time>
      </trkpt>
      <trkpt lat="45.59045" lon="2.81448">
        <ele>1066</ele>
        <time>2016-12-06T14:47:39Z</time>
      </trkpt>
      <trkpt lat="45.59027" lon="2.8141">
        <ele>1060.5</ele>
        <time>2016-12-06T14:47:43Z</time>
      </trkpt>
      <trkpt lat="45.5901" lon="2.81375">
        <ele>1056</ele>
        <time>2016-12-06T14:47:46Z</time>
      </trkpt>
      <trkpt lat="45.58997" lon="2.81361">
        <ele>1054.6</ele>
        <time>2016-12-06T14:47:48Z</time>
      </trkpt>
      <trkpt lat="45.58975" lon="2.81368">
        <ele>1056.3</ele>
        <time>2016-12-06T14:47:50Z</time>
      </trkpt>
      <trkpt lat="45.58953" lon="2.81382">
        <ele>1058.4</ele>
        <time>2016-12-06T14:47:53Z</time>
      </trkpt>
      <trkpt lat="45.58934" lon="2.81385">
        <ele>1059.7</ele>
        <time>2016-12-06T14:47:55Z</time>
      </trkpt>
      <trkpt lat="45.58918" lon="2.8138">
        <ele>1059.7</ele>
        <time>2016-12-06T14:47:57Z</time>
      </trkpt>
      <trkpt lat="45.58901" lon="2.81393">
        <ele>1062.6</ele>
        <time>2016-12-06T14:47:59Z</time>
      </trkpt>
      <trkpt lat="45.58889" lon="2.81408">
        <ele>1066.6</ele>
        <time>2016-12-06T14:48:01Z</time>
      </trkpt>
      <trkpt lat="45.5888" lon="2.81426">
        <ele>1071</ele>
        <time>2016-12-06T14:48:03Z</time>
      </trkpt>
      <trkpt lat="45.58871" lon="2.81422">
        <ele>1070.5</ele>
        <time>2016-12-06T14:48:04Z</time>
      </trkpt>
      <trkpt lat="45.5886" lon="2.814">
        <ele>1066.1</ele>
        <time>2016-12-06T14:48:06Z</time>
      </trkpt>
      <trkpt lat="45.58843" lon="2.81393">
        <ele>1065.3</ele>
        <time>2016-12-06T14:48:08Z</time>
      </trkpt>
      <trkpt lat="45.58819" lon="2.81394">
        <ele>1069.1</ele>
        <time>2016-12-06T14:48:10Z</time>
      </trkpt>
      <trkpt lat="45.588" lon="2.81413">
        <ele>1076.3</ele>
        <time>2016-12-06T14:48:13Z</time>
      </trkpt>
      <trkpt lat="45.58793" lon="2.81432">
        <ele>1080.4</ele>
        <time>2016-12-06T14:48:15Z</time>
      </trkpt>
      <trkpt lat="45.58788" lon="2.81437">
        <ele>1082</ele>
        <time>2016-12-06T14:48:15Z</time>
      </trkpt>
      <trkpt lat="45.58784" lon="2.81424">
        <ele>1080.9</ele>
        <time>2016-12-06T14:48:17Z</time>
      </trkpt>
      <trkpt lat="45.58773" lon="2.8137">
        <ele>1077.6</ele>
        <time>2016-12-06T14:48:21Z</time>
      </trkpt>
      <trkpt lat="45.58772" lon="2.81345">
        <ele>1076.7</ele>
        <time>2016-12-06T14:48:23Z</time>
      </trkpt>
      <trkpt lat="45.58789" lon="2.81319">
        <ele>1073.3</ele>
        <time>2016-12-06T14:48:26Z</time>
      </trkpt>
      <trkpt lat="45.58799" lon="2.81293">
        <ele>1072.6</ele>
        <time>2016-12-06T14:48:28Z</time>
      </trkpt>
      <trkpt lat="45.588" lon="2.81286">
        <ele>1072.7</ele>
        <time>2016-12-06T14:48:29Z</time>
      </trkpt>
      <trkpt lat="45.58803" lon="2.8126">
        <ele>1072.5</ele>
        <time>2016-12-06T14:48:31Z</time>
      </trkpt>
      <trkpt lat="45.588" lon="2.81235">
        <ele>1072.4</ele>
        <time>2016-12-06T14:48:32Z</time>
      </trkpt>
      <trkpt lat="45.58817" lon="2.81142">
        <ele>1066.7</ele>
        <time>2016-12-06T14:48:40Z</time>
      </trkpt>
      <trkpt lat="45.58819" lon="2.8109">
        <ele>1064</ele>
        <time>2016-12-06T14:48:44Z</time>
      </trkpt>
      <trkpt lat="45.58834" lon="2.81048">
        <ele>1058.7</ele>
        <time>2016-12-06T14:48:48Z</time>
      </trkpt>
      <trkpt lat="45.58829" lon="2.80961">
        <ele>1059.7</ele>
        <time>2016-12-06T14:48:55Z</time>
      </trkpt>
      <trkpt lat="45.58838" lon="2.80907">
        <ele>1057.4</ele>
        <time>2016-12-06T14:48:59Z</time>
      </trkpt>
      <trkpt lat="45.58851" lon="2.80876">
        <ele>1055.5</ele>
        <time>2016-12-06T14:49:02Z</time>
      </trkpt>
      <trkpt lat="45.58857" lon="2.80846">
        <ele>1057.1</ele>
        <time>2016-12-06T14:49:04Z</time>
      </trkpt>
      <trkpt lat="45.58856" lon="2.80795">
        <ele>1061.4</ele>
        <time>2016-12-06T14:49:08Z</time>
      </trkpt>
      <trkpt lat="45.58833" lon="2.80562">
        <ele>1052.6</ele>
        <time>2016-12-06T14:49:27Z</time>
      </trkpt>
      <trkpt lat="45.58819" lon="2.80406">
        <ele>1039.4</ele>
        <time>2016-12-06T14:49:39Z</time>
      </trkpt>
      <trkpt lat="45.58819" lon="2.80368">
        <ele>1035.1</ele>
        <time>2016-12-06T14:49:42Z</time>
      </trkpt>
      <trkpt lat="45.58827" lon="2.80311">
        <ele>1028.9</ele>
        <time>2016-12-06T14:49:46Z</time>
      </trkpt>
      <trkpt lat="45.58808" lon="2.80254">
        <ele>1029.9</ele>
        <time>2016-12-06T14:49:51Z</time>
      </trkpt>
      <trkpt lat="45.58783" lon="2.80215">
        <ele>1030.3</ele>
        <time>2016-12-06T14:49:55Z</time>
      </trkpt>
      <trkpt lat="45.58749" lon="2.80177">
        <ele>1024.2</ele>
        <time>2016-12-06T14:50:00Z</time>
      </trkpt>
      <trkpt lat="45.58725" lon="2.80165">
        <ele>1021.7</ele>
        <time>2016-12-06T14:50:03Z</time>
      </trkpt>
      <trkpt lat="45.58658" lon="2.80163">
        <ele>1015.6</ele>
        <time>2016-12-06T14:50:11Z</time>
      </trkpt>
      <trkpt lat="45.5862" lon="2.80178">
        <ele>1013.5</ele>
        <time>2016-12-06T14:50:15Z</time>
      </trkpt>
      <trkpt lat="45.58599" lon="2.80185">
        <ele>1011.1</ele>
        <time>2016-12-06T14:50:17Z</time>
      </trkpt>
      <trkpt lat="45.58578" lon="2.80204">
        <ele>1010.7</ele>
        <time>2016-12-06T14:50:20Z</time>
      </trkpt>
      <trkpt lat="45.58467" lon="2.8029">
        <ele>1007.4</ele>
        <time>2016-12-06T14:50:34Z</time>
      </trkpt>
      <trkpt lat="45.58422" lon="2.80316">
        <ele>1005.2</ele>
        <time>2016-12-06T14:50:40Z</time>
      </trkpt>
      <trkpt lat="45.58394" lon="2.8034">
        <ele>1004.6</ele>
        <time>2016-12-06T14:50:43Z</time>
      </trkpt>
      <trkpt lat="45.58376" lon="2.80343">
        <ele>1003.3</ele>
        <time>2016-12-06T14:50:45Z</time>
      </trkpt>
      <trkpt lat="45.58371" lon="2.80344">
        <ele>1003.1</ele>
        <time>2016-12-06T14:50:46Z</time>
      </trkpt>
      <trkpt lat="45.58341" lon="2.80367">
        <ele>1004.8</ele>
        <time>2016-12-06T14:50:50Z</time>
      </trkpt>
      <trkpt lat="45.58321" lon="2.80371">
        <ele>1003.9</ele>
        <time>2016-12-06T14:50:52Z</time>
      </trkpt>
      <trkpt lat="45.58316" lon="2.80362">
        <ele>1002.2</ele>
        <time>2016-12-06T14:50:53Z</time>
      </trkpt>
      <trkpt lat="45.58229" lon="2.80471">
        <ele>1009.3</ele>
        <time>2016-12-06T14:51:06Z</time>
      </trkpt>
      <trkpt lat="45.58131" lon="2.80588">
        <ele>1015.6</ele>
        <time>2016-12-06T14:51:20Z</time>
      </trkpt>
      <trkpt lat="45.58046" lon="2.8065">
        <ele>1019</ele>
        <time>2016-12-06T14:51:31Z</time>
      </trkpt>
      <trkpt lat="45.57993" lon="2.80684">
        <ele>1022.6</ele>
        <time>2016-12-06T14:52:40Z</time>
      </trkpt>
      <trkpt lat="45.57918" lon="2.80709">
        <ele>1023.5</ele>
        <time>2016-12-06T14:54:13Z</time>
      </trkpt>
      <trkpt lat="45.57858" lon="2.80744">
        <ele>1021</ele>
        <time>2016-12-06T14:55:31Z</time>
      </trkpt>
      <trkpt lat="45.57758" lon="2.80855">
        <ele>1040.4</ele>
        <time>2016-12-06T14:58:00Z</time>
      </trkpt>
      <trkpt lat="45.57693" lon="2.80928">
        <ele>1049.3</ele>
        <time>2016-12-06T14:59:38Z</time>
      </trkpt>
      <trkpt lat="45.57671" lon="2.80939">
        <ele>1050</ele>
        <time>2016-12-06T15:00:05Z</time>
      </trkpt>
      <trkpt lat="45.57663" lon="2.80913">
        <ele>1044.9</ele>
        <time>2016-12-06T15:00:29Z</time>
      </trkpt>
      <trkpt lat="45.57664" lon="2.80868">
        <ele>1038.2</ele>
        <time>2016-12-06T15:01:06Z</time>
      </trkpt>
      <trkpt lat="45.57658" lon="2.80822">
        <ele>1033.4</ele>
        <time>2016-12-06T15:01:45Z</time>
      </trkpt>
      <trkpt lat="45.57642" lon="2.80782">
        <ele>1030.2</ele>
        <time>2016-12-06T15:02:23Z</time>
      </trkpt>
      <trkpt lat="45.57567" lon="2.80859">
        <ele>1036.9</ele>
        <time>2016-12-06T15:04:11Z</time>
      </trkpt>
      <trkpt lat="45.57471" lon="2.80909">
        <ele>1041.7</ele>
        <time>2016-12-06T15:06:10Z</time>
      </trkpt>
      <trkpt lat="45.57406" lon="2.80939">
        <ele>1041</ele>
        <time>2016-12-06T15:07:31Z</time>
      </trkpt>
      <trkpt lat="45.57364" lon="2.80966">
        <ele>1053.1</ele>
        <time>2011-06-10T19:33:26Z</time>
      </trkpt>
      <trkpt lat="45.57282" lon="2.81">
        <ele>1052.6</ele>
        <time>2011-06-10T19:33:37Z</time>
      </trkpt>
      <trkpt lat="45.57224" lon="2.81034">
        <ele>1047.4</ele>
        <time>2011-06-10T19:33:47Z</time>
      </trkpt>
      <trkpt lat="45.57197" lon="2.80963">
        <ele>1050.6</ele>
        <time>2011-06-10T19:33:57Z</time>
      </trkpt>
      <trkpt lat="45.57196" lon="2.80928">
        <ele>1048.1</ele>
        <time>2011-06-10T19:34:23Z</time>
      </trkpt>
      <trkpt lat="45.57203" lon="2.80907">
        <ele>1048.5</ele>
        <time>2011-06-10T19:34:41Z</time>
      </trkpt>
      <trkpt lat="45.57248" lon="2.8084">
        <ele>1049.7</ele>
        <time>2011-06-10T19:35:51Z</time>
      </trkpt>
      <trkpt lat="45.5726" lon="2.80829">
        <ele>1049</ele>
        <time>2011-06-10T19:36:07Z</time>
      </trkpt>
      <trkpt lat="45.57296" lon="2.80734">
        <ele>1055.5</ele>
        <time>2011-06-10T19:37:28Z</time>
      </trkpt>
      <trkpt lat="45.57318" lon="2.80689">
        <ele>1056.6</ele>
        <time>2011-06-10T19:38:10Z</time>
      </trkpt>
      <trkpt lat="45.57333" lon="2.80659">
        <ele>1058.2</ele>
        <time>2011-06-10T19:38:37Z</time>
      </trkpt>
      <trkpt lat="45.57397" lon="2.806">
        <ele>1053.9</ele>
        <time>2011-06-10T19:40:00Z</time>
      </trkpt>
      <trkpt lat="45.57416" lon="2.80541">
        <ele>1060.7</ele>
        <time>2011-06-10T19:40:49Z</time>
      </trkpt>
      <trkpt lat="45.57469" lon="2.80421">
        <ele>1065.8</ele>
        <time>2011-06-10T19:42:37Z</time>
      </trkpt>
      <trkpt lat="45.57482" lon="2.80391">
        <ele>1068.5</ele>
        <time>2011-06-10T19:43:04Z</time>
      </trkpt>
      <trkpt lat="45.57527" lon="2.80368">
        <ele>1063</ele>
        <time>2011-06-10T19:43:56Z</time>
      </trkpt>
      <trkpt lat="45.57571" lon="2.80317">
        <ele>1070.4</ele>
        <time>2011-06-10T19:44:58Z</time>
      </trkpt>
      <trkpt lat="45.57597" lon="2.80274">
        <ele>1078.6</ele>
        <time>2011-06-10T19:45:42Z</time>
      </trkpt>
      <trkpt lat="45.57535" lon="2.8031">
        <ele>1083.9</ele>
        <time>2011-06-10T19:46:54Z</time>
      </trkpt>
      <trkpt lat="45.57473" lon="2.80305">
        <ele>1098.4</ele>
        <time>2011-06-10T19:48:03Z</time>
      </trkpt>
      <trkpt lat="45.57396" lon="2.80344">
        <ele>1104.5</ele>
        <time>2011-06-10T19:49:31Z</time>
      </trkpt>
      <trkpt lat="45.57359" lon="2.80387">
        <ele>1104</ele>
        <time>2011-06-10T19:50:23Z</time>
      </trkpt>
      <trkpt lat="45.57304" lon="2.80414">
        <ele>1120.7</ele>
        <time>2011-06-10T19:51:28Z</time>
      </trkpt>
      <trkpt lat="45.57245" lon="2.80434">
        <ele>1136.7</ele>
        <time>2011-06-10T19:52:36Z</time>
      </trkpt>
      <trkpt lat="45.57259" lon="2.80473">
        <ele>1124.7</ele>
        <time>2011-06-10T19:53:11Z</time>
      </trkpt>
      <trkpt lat="45.57259" lon="2.80508">
        <ele>1115.8</ele>
        <time>2011-06-10T19:53:38Z</time>
      </trkpt>
      <trkpt lat="45.57253" lon="2.80526">
        <ele>1110.8</ele>
        <time>2011-06-10T19:53:54Z</time>
      </trkpt>
      <trkpt lat="45.57232" lon="2.80533">
        <ele>1111</ele>
        <time>2011-06-10T19:54:17Z</time>
      </trkpt>
      <trkpt lat="45.57213" lon="2.80525">
        <ele>1116.2</ele>
        <time>2011-06-10T19:54:39Z</time>
      </trkpt>
      <trkpt lat="45.57206" lon="2.80532">
        <ele>1115.2</ele>
        <time>2011-06-10T19:54:48Z</time>
      </trkpt>
      <trkpt lat="45.57201" lon="2.80548">
        <ele>1110.8</ele>
        <time>2011-06-10T19:55:01Z</time>
      </trkpt>
      <trkpt lat="45.57188" lon="2.8055">
        <ele>1112.1</ele>
        <time>2011-06-10T19:55:16Z</time>
      </trkpt>
      <trkpt lat="45.57174" lon="2.80544">
        <ele>1116.6</ele>
        <time>2011-06-10T19:55:33Z</time>
      </trkpt>
      <trkpt lat="45.57164" lon="2.80556">
        <ele>1114.3</ele>
        <time>2011-06-10T19:55:46Z</time>
      </trkpt>
      <trkpt lat="45.57149" lon="2.80596">
        <ele>1108.2</ele>
        <time>2011-06-10T19:56:21Z</time>
      </trkpt>
      <trkpt lat="45.57135" lon="2.80605">
        <ele>1109.4</ele>
        <time>2011-06-10T19:56:38Z</time>
      </trkpt>
      <trkpt lat="45.5712" lon="2.80601">
        <ele>1113.1</ele>
        <time>2011-06-10T19:56:56Z</time>
      </trkpt>
      <trkpt lat="45.57108" lon="2.80603">
        <ele>1116.4</ele>
        <time>2011-06-10T19:57:08Z</time>
      </trkpt>
      <trkpt lat="45.57086" lon="2.8065">
        <ele>1129.7</ele>
        <time>2011-06-10T19:57:53Z</time>
      </trkpt>
      <trkpt lat="45.57085" lon="2.80712">
        <ele>1124.1</ele>
        <time>2011-06-10T19:58:40Z</time>
      </trkpt>
      <trkpt lat="45.57089" lon="2.80734">
        <ele>1116.2</ele>
        <time>2011-06-10T19:58:59Z</time>
      </trkpt>
      <trkpt lat="45.57084" lon="2.80759">
        <ele>1110.7</ele>
        <time>2011-06-10T19:59:19Z</time>
      </trkpt>
      <trkpt lat="45.57075" lon="2.80777">
        <ele>1108.9</ele>
        <time>2011-06-10T19:59:36Z</time>
      </trkpt>
      <trkpt lat="45.57056" lon="2.80781">
        <ele>1115.3</ele>
        <time>2011-06-10T19:59:58Z</time>
      </trkpt>
      <trkpt lat="45.57017" lon="2.80804">
        <ele>1110.3</ele>
        <time>2011-06-10T20:00:44Z</time>
      </trkpt>
      <trkpt lat="45.56982" lon="2.80793">
        <ele>1117</ele>
        <time>2011-06-10T20:01:24Z</time>
      </trkpt>
      <trkpt lat="45.56932" lon="2.808">
        <ele>1119</ele>
        <time>2011-06-10T20:02:18Z</time>
      </trkpt>
      <trkpt lat="45.56865" lon="2.80792">
        <ele>1135.4</ele>
        <time>2011-06-10T20:03:32Z</time>
      </trkpt>
      <trkpt lat="45.56832" lon="2.8082">
        <ele>1130.6</ele>
        <time>2011-06-10T20:04:14Z</time>
      </trkpt>
      <trkpt lat="45.56808" lon="2.80821">
        <ele>1132.5</ele>
        <time>2011-06-10T20:04:39Z</time>
      </trkpt>
      <trkpt lat="45.56776" lon="2.80813">
        <ele>1138.6</ele>
        <time>2011-06-10T20:05:15Z</time>
      </trkpt>
      <trkpt lat="45.56718" lon="2.80818">
        <ele>1147.9</ele>
        <time>2011-06-10T20:06:19Z</time>
      </trkpt>
      <trkpt lat="45.56692" lon="2.80841">
        <ele>1139.9</ele>
        <time>2011-06-10T20:06:53Z</time>
      </trkpt>
      <trkpt lat="45.56599" lon="2.80839">
        <ele>1143.4</ele>
        <time>2011-06-10T20:08:33Z</time>
      </trkpt>
      <trkpt lat="45.56575" lon="2.80831">
        <ele>1148.5</ele>
        <time>2011-06-10T20:09:00Z</time>
      </trkpt>
      <trkpt lat="45.56558" lon="2.80831">
        <ele>1150</ele>
        <time>2011-06-10T20:09:19Z</time>
      </trkpt>
      <trkpt lat="45.56474" lon="2.80812">
        <ele>1144.7</ele>
        <time>2011-06-10T20:10:51Z</time>
      </trkpt>
      <trkpt lat="45.56462" lon="2.80761">
        <ele>1156.7</ele>
        <time>2011-06-10T20:11:33Z</time>
      </trkpt>
      <trkpt lat="45.56451" lon="2.80727">
        <ele>1162.9</ele>
        <time>2011-06-10T20:12:03Z</time>
      </trkpt>
      <trkpt lat="45.56428" lon="2.80705">
        <ele>1164.8</ele>
        <time>2011-06-10T20:12:32Z</time>
      </trkpt>
      <trkpt lat="45.56387" lon="2.80707">
        <ele>1158.9</ele>
        <time>2011-06-10T20:13:17Z</time>
      </trkpt>
      <trkpt lat="45.56378" lon="2.80703">
        <ele>1158.3</ele>
        <time>2011-06-10T20:13:27Z</time>
      </trkpt>
      <trkpt lat="45.56361" lon="2.80635">
        <ele>1171.7</ele>
        <time>2011-06-10T20:14:23Z</time>
      </trkpt>
      <trkpt lat="45.5635" lon="2.80622">
        <ele>1174.1</ele>
        <time>2011-06-10T20:14:40Z</time>
      </trkpt>
      <trkpt lat="45.56325" lon="2.8062">
        <ele>1176.9</ele>
        <time>2011-06-10T20:15:07Z</time>
      </trkpt>
      <trkpt lat="45.56303" lon="2.80625">
        <ele>1183.2</ele>
        <time>2011-06-10T20:15:31Z</time>
      </trkpt>
      <trkpt lat="45.56227" lon="2.80696">
        <ele>1188.3</ele>
        <time>2011-06-10T20:17:10Z</time>
      </trkpt>
      <trkpt lat="45.56189" lon="2.80711">
        <ele>1193.2</ele>
        <time>2011-06-10T20:17:52Z</time>
      </trkpt>
      <trkpt lat="45.56165" lon="2.80737">
        <ele>1186.9</ele>
        <time>2011-06-10T20:18:25Z</time>
      </trkpt>
      <trkpt lat="45.56117" lon="2.80748">
        <ele>1186.9</ele>
        <time>2011-06-10T20:19:18Z</time>
      </trkpt>
      <trkpt lat="45.56037" lon="2.80768">
        <ele>1193</ele>
        <time>2011-06-10T20:20:47Z</time>
      </trkpt>
      <trkpt lat="45.56019" lon="2.80785">
        <ele>1193.8</ele>
        <time>2011-06-10T20:21:10Z</time>
      </trkpt>
      <trkpt lat="45.56011" lon="2.80802">
        <ele>1191.7</ele>
        <time>2011-06-10T20:21:26Z</time>
      </trkpt>
      <trkpt lat="45.55987" lon="2.8084">
        <ele>1192.8</ele>
        <time>2011-06-10T20:22:04Z</time>
      </trkpt>
      <trkpt lat="45.55965" lon="2.80926">
        <ele>1185.8</ele>
        <time>2011-06-10T20:23:14Z</time>
      </trkpt>
      <trkpt lat="45.55939" lon="2.80992">
        <ele>1175.2</ele>
        <time>2011-06-10T20:24:12Z</time>
      </trkpt>
      <trkpt lat="45.5592" lon="2.81024">
        <ele>1168.4</ele>
        <time>2011-06-10T20:24:44Z</time>
      </trkpt>
      <trkpt lat="45.55887" lon="2.81045">
        <ele>1168.1</ele>
        <time>2011-06-10T20:25:23Z</time>
      </trkpt>
      <trkpt lat="45.55797" lon="2.81061">
        <ele>1174.8</ele>
        <time>2011-06-10T20:27:02Z</time>
      </trkpt>
      <trkpt lat="45.55769" lon="2.81047">
        <ele>1180.7</ele>
        <time>2011-06-10T20:27:34Z</time>
      </trkpt>
      <trkpt lat="45.55732" lon="2.81015">
        <ele>1191.8</ele>
        <time>2011-06-10T20:28:23Z</time>
      </trkpt>
      <trkpt lat="45.55695" lon="2.81017">
        <ele>1191.9</ele>
        <time>2011-06-10T20:29:03Z</time>
      </trkpt>
      <trkpt lat="45.55562" lon="2.80942">
        <ele>1217.8</ele>
        <time>2011-06-10T20:31:39Z</time>
      </trkpt>
      <trkpt lat="45.55546" lon="2.80933">
        <ele>1219.3</ele>
        <time>2011-06-10T20:31:58Z</time>
      </trkpt>
      <trkpt lat="45.55567" lon="2.80928">
        <ele>1222.8</ele>
        <time>2011-06-10T20:32:22Z</time>
      </trkpt>
      <trkpt lat="45.55621" lon="2.80928">
        <ele>1238.3</ele>
        <time>2011-06-10T20:33:22Z</time>
      </trkpt>
      <trkpt lat="45.55659" lon="2.80941">
        <ele>1236.1</ele>
        <time>2011-06-10T20:33:37Z</time>
      </trkpt>
      <trkpt lat="45.55701" lon="2.80934">
        <ele>1241.3</ele>
        <time>2011-06-10T20:33:54Z</time>
      </trkpt>
      <trkpt lat="45.55733" lon="2.8092">
        <ele>1246.2</ele>
        <time>2011-06-10T20:34:08Z</time>
      </trkpt>
      <trkpt lat="45.55761" lon="2.8092">
        <ele>1245.1</ele>
        <time>2011-06-10T20:34:19Z</time>
      </trkpt>
      <trkpt lat="45.55794" lon="2.80885">
        <ele>1252.8</ele>
        <time>2011-06-10T20:34:35Z</time>
      </trkpt>
      <trkpt lat="45.55815" lon="2.80859">
        <ele>1255.1</ele>
        <time>2011-06-10T20:34:46Z</time>
      </trkpt>
      <trkpt lat="45.55841" lon="2.80842">
        <ele>1252.3</ele>
        <time>2011-06-10T20:34:57Z</time>
      </trkpt>
      <trkpt lat="45.55865" lon="2.8083">
        <ele>1248.2</ele>
        <time>2011-06-10T20:35:07Z</time>
      </trkpt>
      <trkpt lat="45.55889" lon="2.80801">
        <ele>1245.7</ele>
        <time>2011-06-10T20:35:19Z</time>
      </trkpt>
      <trkpt lat="45.55907" lon="2.80754">
        <ele>1250.2</ele>
        <time>2011-06-10T20:35:33Z</time>
      </trkpt>
      <trkpt lat="45.55922" lon="2.80724">
        <ele>1254</ele>
        <time>2011-06-10T20:35:44Z</time>
      </trkpt>
      <trkpt lat="45.55959" lon="2.80724">
        <ele>1243</ele>
        <time>2011-06-10T20:35:59Z</time>
      </trkpt>
      <trkpt lat="45.55978" lon="2.80711">
        <ele>1242.6</ele>
        <time>2011-06-10T20:36:07Z</time>
      </trkpt>
      <trkpt lat="45.56023" lon="2.80672">
        <ele>1243.1</ele>
        <time>2011-06-10T20:36:28Z</time>
      </trkpt>
      <trkpt lat="45.56045" lon="2.80666">
        <ele>1238.2</ele>
        <time>2011-06-10T20:36:37Z</time>
      </trkpt>
      <trkpt lat="45.56075" lon="2.80677">
        <ele>1226.3</ele>
        <time>2011-06-10T20:36:50Z</time>
      </trkpt>
      <trkpt lat="45.5611" lon="2.80673">
        <ele>1222</ele>
        <time>2011-06-10T20:37:04Z</time>
      </trkpt>
      <trkpt lat="45.56154" lon="2.80661">
        <ele>1218.9</ele>
        <time>2011-06-10T20:37:22Z</time>
      </trkpt>
      <trkpt lat="45.56199" lon="2.80644">
        <ele>1217.1</ele>
        <time>2011-06-10T20:37:40Z</time>
      </trkpt>
      <trkpt lat="45.56242" lon="2.80595">
        <ele>1221.4</ele>
        <time>2011-06-10T20:38:02Z</time>
      </trkpt>
      <trkpt lat="45.56297" lon="2.80546">
        <ele>1223.8</ele>
        <time>2011-06-10T20:38:28Z</time>
      </trkpt>
      <trkpt lat="45.56355" lon="2.80514">
        <ele>1223.1</ele>
        <time>2011-06-10T20:38:53Z</time>
      </trkpt>
      <trkpt lat="45.56397" lon="2.80528">
        <ele>1222.7</ele>
        <time>2011-06-10T20:39:11Z</time>
      </trkpt>
      <trkpt lat="45.5642" lon="2.80579">
        <ele>1217.6</ele>
        <time>2011-06-10T20:39:28Z</time>
      </trkpt>
      <trkpt lat="45.56468" lon="2.80562">
        <ele>1236.2</ele>
        <time>2011-06-10T20:39:47Z</time>
      </trkpt>
      <trkpt lat="45.56492" lon="2.80568">
        <ele>1237.7</ele>
        <time>2011-06-10T20:39:57Z</time>
      </trkpt>
      <trkpt lat="45.56511" lon="2.80579">
        <ele>1236.8</ele>
        <time>2011-06-10T20:40:06Z</time>
      </trkpt>
      <trkpt lat="45.56535" lon="2.80627">
        <ele>1230.9</ele>
        <time>2011-06-10T20:40:22Z</time>
      </trkpt>
      <trkpt lat="45.56553" lon="2.80653">
        <ele>1229.3</ele>
        <time>2011-06-10T20:40:32Z</time>
      </trkpt>
      <trkpt lat="45.56588" lon="2.80647">
        <ele>1234.2</ele>
        <time>2011-06-10T20:40:46Z</time>
      </trkpt>
      <trkpt lat="45.56637" lon="2.8063">
        <ele>1233.6</ele>
        <time>2011-06-10T20:41:07Z</time>
      </trkpt>
      <trkpt lat="45.56728" lon="2.8055">
        <ele>1238.4</ele>
        <time>2011-06-10T20:41:49Z</time>
      </trkpt>
      <trkpt lat="45.56769" lon="2.8052">
        <ele>1237.5</ele>
        <time>2011-06-10T20:42:08Z</time>
      </trkpt>
      <trkpt lat="45.56814" lon="2.80475">
        <ele>1236.4</ele>
        <time>2011-06-10T20:42:30Z</time>
      </trkpt>
      <trkpt lat="45.56825" lon="2.80461">
        <ele>1236.4</ele>
        <time>2011-06-10T20:42:36Z</time>
      </trkpt>
      <trkpt lat="45.56851" lon="2.80416">
        <ele>1237.9</ele>
        <time>2011-06-10T20:42:52Z</time>
      </trkpt>
      <trkpt lat="45.56894" lon="2.80345">
        <ele>1240.4</ele>
        <time>2011-06-10T20:43:19Z</time>
      </trkpt>
      <trkpt lat="45.5692" lon="2.80276">
        <ele>1246.1</ele>
        <time>2011-06-10T20:43:40Z</time>
      </trkpt>
      <trkpt lat="45.56912" lon="2.80257">
        <ele>1247.8</ele>
        <time>2011-06-10T20:43:47Z</time>
      </trkpt>
      <trkpt lat="45.56896" lon="2.80255">
        <ele>1248.6</ele>
        <time>2011-06-10T20:43:53Z</time>
      </trkpt>
      <trkpt lat="45.56908" lon="2.80231">
        <ele>1248.9</ele>
        <time>2011-06-10T20:44:01Z</time>
      </trkpt>
      <trkpt lat="45.56916" lon="2.80219">
        <ele>1249.6</ele>
        <time>2011-06-10T20:44:05Z</time>
      </trkpt>
      <trkpt lat="45.56909" lon="2.80188">
        <ele>1250.5</ele>
        <time>2011-06-10T20:44:14Z</time>
      </trkpt>
      <trkpt lat="45.57021" lon="2.80106">
        <ele>1249.6</ele>
        <time>2011-06-10T20:45:05Z</time>
      </trkpt>
      <trkpt lat="45.57195" lon="2.79875">
        <ele>1244.4</ele>
        <time>2011-06-10T20:46:40Z</time>
      </trkpt>
      <trkpt lat="45.57279" lon="2.79743">
        <ele>1235.9</ele>
        <time>2011-06-10T20:47:30Z</time>
      </trkpt>
      <trkpt lat="45.57301" lon="2.79695">
        <ele>1231.3</ele>
        <time>2011-06-10T20:47:46Z</time>
      </trkpt>
      <trkpt lat="45.5735" lon="2.79641">
        <ele>1222.6</ele>
        <time>2011-06-10T20:48:11Z</time>
      </trkpt>
      <trkpt lat="45.57265" lon="2.79534">
        <ele>1217.8</ele>
        <time>2011-06-10T20:48:57Z</time>
      </trkpt>
      <trkpt lat="45.57116" lon="2.795">
        <ele>1216.2</ele>
        <time>2011-06-10T20:49:57Z</time>
      </trkpt>
      <trkpt lat="45.5699" lon="2.79529">
        <ele>1214</ele>
        <time>2011-06-10T20:50:48Z</time>
      </trkpt>
      <trkpt lat="45.56918" lon="2.79532">
        <ele>1211.7</ele>
        <time>2011-06-10T20:51:17Z</time>
      </trkpt>
      <trkpt lat="45.56836" lon="2.79591">
        <ele>1211</ele>
        <time>2011-06-10T20:51:54Z</time>
      </trkpt>
      <trkpt lat="45.56795" lon="2.79626">
        <ele>1222.2</ele>
        <time>2011-06-10T20:52:14Z</time>
      </trkpt>
      <trkpt lat="45.56766" lon="2.79617">
        <ele>1225</ele>
        <time>2011-06-10T20:52:26Z</time>
      </trkpt>
      <trkpt lat="45.56742" lon="2.79606">
        <ele>1226</ele>
        <time>2011-06-10T20:52:36Z</time>
      </trkpt>
      <trkpt lat="45.56687" lon="2.79583">
        <ele>1223.6</ele>
        <time>2011-06-10T20:52:59Z</time>
      </trkpt>
      <trkpt lat="45.56635" lon="2.79573">
        <ele>1220</ele>
        <time>2011-06-10T20:53:20Z</time>
      </trkpt>
      <trkpt lat="45.56577" lon="2.79568">
        <ele>1216.6</ele>
        <time>2011-06-10T20:53:43Z</time>
      </trkpt>
      <trkpt lat="45.56524" lon="2.79562">
        <ele>1213.5</ele>
        <time>2011-06-10T20:54:04Z</time>
      </trkpt>
      <trkpt lat="45.56417" lon="2.79582">
        <ele>1211.5</ele>
        <time>2011-06-10T20:54:47Z</time>
      </trkpt>
      <trkpt lat="45.56358" lon="2.79592">
        <ele>1208.1</ele>
        <time>2011-06-10T20:55:11Z</time>
      </trkpt>
      <trkpt lat="45.5632" lon="2.79595">
        <ele>1205.6</ele>
        <time>2011-06-10T20:55:26Z</time>
      </trkpt>
      <trkpt lat="45.56296" lon="2.79574">
        <ele>1200.5</ele>
        <time>2011-06-10T20:55:38Z</time>
      </trkpt>
      <trkpt lat="45.56278" lon="2.79547">
        <ele>1197</ele>
        <time>2011-06-10T20:55:48Z</time>
      </trkpt>
      <trkpt lat="45.56335" lon="2.79533">
        <ele>1196.7</ele>
        <time>2011-06-10T20:56:55Z</time>
      </trkpt>
      <trkpt lat="45.56431" lon="2.7945">
        <ele>1189</ele>
        <time>2011-06-10T20:59:05Z</time>
      </trkpt>
      <trkpt lat="45.56461" lon="2.79343">
        <ele>1176.5</ele>
        <time>2011-06-10T21:00:28Z</time>
      </trkpt>
      <trkpt lat="45.56529" lon="2.79291">
        <ele>1159.2</ele>
        <time>2011-06-10T21:02:30Z</time>
      </trkpt>
      <trkpt lat="45.56608" lon="2.79247">
        <ele>1140.3</ele>
        <time>2011-06-10T21:04:36Z</time>
      </trkpt>
      <trkpt lat="45.5665" lon="2.79217">
        <ele>1141.4</ele>
        <time>2011-06-10T21:05:12Z</time>
      </trkpt>
      <trkpt lat="45.56744" lon="2.79166">
        <ele>1134.6</ele>
        <time>2011-06-10T21:07:09Z</time>
      </trkpt>
      <trkpt lat="45.56793" lon="2.79159">
        <ele>1130.7</ele>
        <time>2011-06-10T21:08:05Z</time>
      </trkpt>
      <trkpt lat="45.569" lon="2.79096">
        <ele>1113.5</ele>
        <time>2011-06-10T21:10:21Z</time>
      </trkpt>
      <trkpt lat="45.56904" lon="2.79074">
        <ele>1110.1</ele>
        <time>2011-10-24T14:14:17Z</time>
      </trkpt>
      <trkpt lat="45.57" lon="2.78983">
        <ele>1090.1</ele>
        <time>2014-07-03T01:51:23Z</time>
      </trkpt>
      <trkpt lat="45.57155" lon="2.78943">
        <ele>1078.1</ele>
        <time>2018-02-18T13:49:23Z</time>
      </trkpt>
      <trkpt lat="45.57204" lon="2.789">
        <ele>1069.8</ele>
        <time>2019-06-24T08:58:28Z</time>
      </trkpt>
      <trkpt lat="45.57317" lon="2.78795">
        <ele>1053.4</ele>
        <time>2022-08-15T07:01:54Z</time>
      </trkpt>
      <trkpt lat="45.57381" lon="2.78784">
        <ele>1048.3</ele>
        <time>2011-06-10T21:21:19Z</time>
      </trkpt>
      <trkpt lat="45.57432" lon="2.78753">
        <ele>1050.3</ele>
        <time>2011-06-10T21:22:31Z</time>
      </trkpt>
      <trkpt lat="45.57463" lon="2.78712">
        <ele>1053.5</ele>
        <time>2011-06-10T21:23:20Z</time>
      </trkpt>
      <trkpt lat="45.57476" lon="2.78646">
        <ele>1053.2</ele>
        <time>2011-06-10T21:24:04Z</time>
      </trkpt>
      <trkpt lat="45.57499" lon="2.78559">
        <ele>1049</ele>
        <time>2011-06-10T21:25:12Z</time>
      </trkpt>
      <trkpt lat="45.57572" lon="2.78472">
        <ele>1052.2</ele>
        <time>2011-06-10T21:27:10Z</time>
      </trkpt>
      <trkpt lat="45.57604" lon="2.78437">
        <ele>1053.3</ele>
        <time>2011-06-10T21:27:57Z</time>
      </trkpt>
      <trkpt lat="45.57675" lon="2.7829">
        <ele>1054.7</ele>
        <time>2011-06-10T21:30:20Z</time>
      </trkpt>
      <trkpt lat="45.57714" lon="2.7821">
        <ele>1054.1</ele>
        <time>2011-06-10T21:31:39Z</time>
      </trkpt>
      <trkpt lat="45.57778" lon="2.78126">
        <ele>1059.5</ele>
        <time>2011-06-10T21:33:21Z</time>
      </trkpt>
      <trkpt lat="45.57791" lon="2.78102">
        <ele>1059.3</ele>
        <time>2011-06-10T21:33:30Z</time>
      </trkpt>
      <trkpt lat="45.57803" lon="2.7808">
        <ele>1060.8</ele>
        <time>2011-06-10T21:33:38Z</time>
      </trkpt>
      <trkpt lat="45.57817" lon="2.78066">
        <ele>1063.5</ele>
        <time>2011-06-10T21:33:45Z</time>
      </trkpt>
      <trkpt lat="45.57831" lon="2.78051">
        <ele>1065.6</ele>
        <time>2011-06-10T21:33:52Z</time>
      </trkpt>
      <trkpt lat="45.57866" lon="2.78027">
        <ele>1073.2</ele>
        <time>2011-06-10T21:34:07Z</time>
      </trkpt>
      <trkpt lat="45.57897" lon="2.78012">
        <ele>1078.7</ele>
        <time>2011-06-10T21:34:20Z</time>
      </trkpt>
      <trkpt lat="45.57929" lon="2.78006">
        <ele>1081.6</ele>
        <time>2011-06-10T21:34:33Z</time>
      </trkpt>
      <trkpt lat="45.57943" lon="2.78006">
        <ele>1081.9</ele>
        <time>2011-06-10T21:34:39Z</time>
      </trkpt>
      <trkpt lat="45.57955" lon="2.78014">
        <ele>1082.5</ele>
        <time>2011-06-10T21:34:44Z</time>
      </trkpt>
      <trkpt lat="45.57969" lon="2.78025">
        <ele>1083.3</ele>
        <time>2011-06-10T21:34:50Z</time>
      </trkpt>
      <trkpt lat="45.57988" lon="2.78038">
        <ele>1084.7</ele>
        <time>2011-06-10T21:34:59Z</time>
      </trkpt>
      <trkpt lat="45.5801" lon="2.78041">
        <ele>1086.2</ele>
        <time>2011-06-10T21:35:08Z</time>
      </trkpt>
      <trkpt lat="45.58049" lon="2.78041">
        <ele>1089.6</ele>
        <time>2011-06-10T21:35:23Z</time>
      </trkpt>
      <trkpt lat="45.58073" lon="2.78034">
        <ele>1091.2</ele>
        <time>2011-06-10T21:35:33Z</time>
      </trkpt>
      <trkpt lat="45.58096" lon="2.78036">
        <ele>1094.1</ele>
        <time>2011-06-10T21:35:42Z</time>
      </trkpt>
      <trkpt lat="45.58117" lon="2.78032">
        <ele>1095.9</ele>
        <time>2011-06-10T21:35:51Z</time>
      </trkpt>
      <trkpt lat="45.58138" lon="2.78011">
        <ele>1095.5</ele>
        <time>2011-06-10T21:36:01Z</time>
      </trkpt>
      <trkpt lat="45.58142" lon="2.78031">
        <ele>1098.2</ele>
        <time>2011-06-10T21:36:07Z</time>
      </trkpt>
      <trkpt lat="45.58119" lon="2.78078">
        <ele>1101.5</ele>
        <time>2011-06-10T21:36:23Z</time>
      </trkpt>
      <trkpt lat="45.58099" lon="2.78127">
        <ele>1104.4</ele>
        <time>2011-06-10T21:36:39Z</time>
      </trkpt>
      <trkpt lat="45.58095" lon="2.78145">
        <ele>1105.7</ele>
        <time>2011-06-10T21:36:44Z</time>
      </trkpt>
      <trkpt lat="45.58097" lon="2.7817">
        <ele>1108.2</ele>
        <time>2011-06-10T21:36:51Z</time>
      </trkpt>
      <trkpt lat="45.58106" lon="2.78212">
        <ele>1113.5</ele>
        <time>2011-06-10T21:37:03Z</time>
      </trkpt>
      <trkpt lat="45.58106" lon="2.78233">
        <ele>1115.7</ele>
        <time>2011-06-10T21:37:09Z</time>
      </trkpt>
      <trkpt lat="45.58088" lon="2.78361">
        <ele>1127.2</ele>
        <time>2011-06-10T21:37:46Z</time>
      </trkpt>
      <trkpt lat="45.58073" lon="2.78498">
        <ele>1138.5</ele>
        <time>2011-06-10T21:38:24Z</time>
      </trkpt>
      <trkpt lat="45.5806" lon="2.78572">
        <ele>1142.8</ele>
        <time>2011-06-10T21:38:46Z</time>
      </trkpt>
      <trkpt lat="45.58039" lon="2.78648">
        <ele>1146.2</ele>
        <time>2011-06-10T21:39:09Z</time>
      </trkpt>
      <trkpt lat="45.58014" lon="2.7872">
        <ele>1147.7</ele>
        <time>2011-06-10T21:39:31Z</time>
      </trkpt>
      <trkpt lat="45.57988" lon="2.78799">
        <ele>1150</ele>
        <time>2011-06-10T21:39:56Z</time>
      </trkpt>
      <trkpt lat="45.57959" lon="2.78908">
        <ele>1151.9</ele>
        <time>2011-06-10T21:40:29Z</time>
      </trkpt>
      <trkpt lat="45.57957" lon="2.78935">
        <ele>1152.4</ele>
        <time>2011-06-10T21:40:36Z</time>
      </trkpt>
      <trkpt lat="45.57957" lon="2.78964">
        <ele>1153.3</ele>
        <time>2011-06-10T21:40:44Z</time>
      </trkpt>
      <trkpt lat="45.57978" lon="2.79116">
        <ele>1155.6</ele>
        <time>2011-06-10T21:41:28Z</time>
      </trkpt>
      <trkpt lat="45.57978" lon="2.79144">
        <ele>1155.3</ele>
        <time>2011-06-10T21:41:36Z</time>
      </trkpt>
      <trkpt lat="45.57969" lon="2.7923">
        <ele>1155.7</ele>
        <time>2011-06-10T21:42:00Z</time>
      </trkpt>
      <trkpt lat="45.57972" lon="2.79251">
        <ele>1155.9</ele>
        <time>2011-06-10T21:42:06Z</time>
      </trkpt>
      <trkpt lat="45.58086" lon="2.79359">
        <ele>1155.9</ele>
        <time>2011-06-10T21:43:01Z</time>
      </trkpt>
      <trkpt lat="45.58037" lon="2.79373">
        <ele>1158.5</ele>
        <time>2011-06-10T21:43:21Z</time>
      </trkpt>
      <trkpt lat="45.58043" lon="2.79438">
        <ele>1159.5</ele>
        <time>2011-06-10T21:43:39Z</time>
      </trkpt>
      <trkpt lat="45.58052" lon="2.79486">
        <ele>1159.6</ele>
        <time>2011-06-10T21:43:53Z</time>
      </trkpt>
      <trkpt lat="45.5806" lon="2.79525">
        <ele>1159.5</ele>
        <time>2011-06-10T21:44:04Z</time>
      </trkpt>
      <trkpt lat="45.5806" lon="2.79566">
        <ele>1158.5</ele>
        <time>2011-06-10T21:44:16Z</time>
      </trkpt>
      <trkpt lat="45.58064" lon="2.79632">
        <ele>1154.2</ele>
        <time>2011-06-10T21:44:34Z</time>
      </trkpt>
      <trkpt lat="45.58064" lon="2.7973">
        <ele>1142.6</ele>
        <time>2011-06-10T21:45:02Z</time>
      </trkpt>
      <trkpt lat="45.58054" lon="2.79784">
        <ele>1134.2</ele>
        <time>2011-06-10T21:45:17Z</time>
      </trkpt>
      <trkpt lat="45.58059" lon="2.79805">
        <ele>1128.3</ele>
        <time>2011-06-10T21:45:24Z</time>
      </trkpt>
      <trkpt lat="45.58067" lon="2.7983">
        <ele>1120.8</ele>
        <time>2011-06-10T21:45:31Z</time>
      </trkpt>
      <trkpt lat="45.58046" lon="2.79864">
        <ele>1112.3</ele>
        <time>2011-06-10T21:45:44Z</time>
      </trkpt>
      <trkpt lat="45.58014" lon="2.79893">
        <ele>1104.3</ele>
        <time>2011-06-10T21:45:59Z</time>
      </trkpt>
      <trkpt lat="45.58002" lon="2.79915">
        <ele>1098.6</ele>
        <time>2011-06-10T21:46:07Z</time>
      </trkpt>
      <trkpt lat="45.57983" lon="2.79966">
        <ele>1088.5</ele>
        <time>2011-06-10T21:46:23Z</time>
      </trkpt>
      <trkpt lat="45.57958" lon="2.8001">
        <ele>1077.6</ele>
        <time>2011-06-10T21:46:39Z</time>
      </trkpt>
      <trkpt lat="45.57929" lon="2.80026">
        <ele>1075.6</ele>
        <time>2011-06-10T21:46:51Z</time>
      </trkpt>
      <trkpt lat="45.57901" lon="2.80075">
        <ele>1062.5</ele>
        <time>2011-06-10T21:47:09Z</time>
      </trkpt>
      <trkpt lat="45.57868" lon="2.80098">
        <ele>1059</ele>
        <time>2011-06-10T21:47:24Z</time>
      </trkpt>
      <trkpt lat="45.57846" lon="2.80141">
        <ele>1048.6</ele>
        <time>2011-06-10T21:47:39Z</time>
      </trkpt>
      <trkpt lat="45.57824" lon="2.80177">
        <ele>1042.6</ele>
        <time>2011-06-10T21:47:52Z</time>
      </trkpt>
      <trkpt lat="45.57802" lon="2.80211">
        <ele>1038.4</ele>
        <time>2011-06-10T21:48:05Z</time>
      </trkpt>
      <trkpt lat="45.57777" lon="2.80253">
        <ele>1034.1</ele>
        <time>2011-06-10T21:48:21Z</time>
      </trkpt>
      <trkpt lat="45.57743" lon="2.80302">
        <ele>1031.4</ele>
        <time>2011-06-10T21:48:40Z</time>
      </trkpt>
      <trkpt lat="45.57726" lon="2.80347">
        <ele>1028</ele>
        <time>2011-06-10T21:48:54Z</time>
      </trkpt>
      <trkpt lat="45.57717" lon="2.80357">
        <ele>1028</ele>
        <time>2011-06-10T21:48:59Z</time>
      </trkpt>
      <trkpt lat="45.57651" lon="2.80403">
        <ele>1031.8</ele>
        <time>2011-06-10T21:49:28Z</time>
      </trkpt>
      <trkpt lat="45.57594" lon="2.80441">
        <ele>1035.9</ele>
        <time>2011-06-10T21:49:53Z</time>
      </trkpt>
      <trkpt lat="45.57541" lon="2.80495">
        <ele>1038.2</ele>
        <time>2011-06-10T21:50:20Z</time>
      </trkpt>
      <trkpt lat="45.57448" lon="2.80604">
        <ele>1044.6</ele>
        <time>2011-06-10T21:51:08Z</time>
      </trkpt>
      <trkpt lat="45.57366" lon="2.80696">
        <ele>1047.5</ele>
        <time>2011-06-10T21:51:49Z</time>
      </trkpt>
      <trkpt lat="45.57307" lon="2.80778">
        <ele>1049.1</ele>
        <time>2011-06-10T21:52:22Z</time>
      </trkpt>
      <trkpt lat="45.57352" lon="2.80935">
        <ele>1053</ele>
        <time>2011-06-10T21:52:45Z</time>
      </trkpt>
    </trkseg>
  </trk>
</gpx>